<?xml version="1.0" encoding="UTF-8" standalone="no" ?>
<gpx xmlns="http://www.topografix.com/GPX/1/1" xmlns:xsi="http://www.w3.org/2001/XMLSchema-instance" xsi:schemaLocation="http://www.topografix.com/GPX/1/1 http://www.topografix.com/GPX/1/1/gpx.xsd" version="1.1" creator="VisuGPX - https://www.visugpx.com">
  <metadata>
    <name>GR34 : d\'Yffiniac à Saint-Brieuc (gare)</name>
    <desc><![CDATA[GR34 le 29/09/2013]]></desc>
  </metadata>
  <trk>
    <name><![CDATA[GR34 : d\'Yffiniac à Saint-Brieuc (gare)_1]]></name>
    <trkseg>
      <trkpt lat="48.48954" lon="-2.67979">
        <ele>15</ele>
        <time>2013-09-29T05:57:06Z</time>
      </trkpt>
      <trkpt lat="48.48954" lon="-2.67979">
        <ele>15</ele>
        <time>2013-09-29T05:57:07Z</time>
      </trkpt>
      <trkpt lat="48.48966" lon="-2.67997">
        <ele>7.1</ele>
        <time>2013-09-29T05:57:25Z</time>
      </trkpt>
      <trkpt lat="48.48971" lon="-2.68006">
        <ele>7.1</ele>
        <time>2013-09-29T05:57:32Z</time>
      </trkpt>
      <trkpt lat="48.48976" lon="-2.68014">
        <ele>7.1</ele>
        <time>2013-09-29T05:57:37Z</time>
      </trkpt>
      <trkpt lat="48.48982" lon="-2.68023">
        <ele>7</ele>
        <time>2013-09-29T05:57:42Z</time>
      </trkpt>
      <trkpt lat="48.48986" lon="-2.68033">
        <ele>6.9</ele>
        <time>2013-09-29T05:57:47Z</time>
      </trkpt>
      <trkpt lat="48.48991" lon="-2.68044">
        <ele>6.7</ele>
        <time>2013-09-29T05:57:53Z</time>
      </trkpt>
      <trkpt lat="48.48996" lon="-2.68054">
        <ele>6.5</ele>
        <time>2013-09-29T05:57:59Z</time>
      </trkpt>
      <trkpt lat="48.49001" lon="-2.68063">
        <ele>6.4</ele>
        <time>2013-09-29T05:58:05Z</time>
      </trkpt>
      <trkpt lat="48.49005" lon="-2.68074">
        <ele>6.2</ele>
        <time>2013-09-29T05:58:11Z</time>
      </trkpt>
      <trkpt lat="48.49006" lon="-2.68075">
        <ele>6.2</ele>
        <time>2013-09-29T05:58:12Z</time>
      </trkpt>
      <trkpt lat="48.49013" lon="-2.68095">
        <ele>6</ele>
        <time>2013-09-29T05:58:23Z</time>
      </trkpt>
      <trkpt lat="48.4902" lon="-2.681">
        <ele>5.9</ele>
        <time>2013-09-29T05:58:29Z</time>
      </trkpt>
      <trkpt lat="48.49027" lon="-2.68107">
        <ele>5.9</ele>
        <time>2013-09-29T05:58:35Z</time>
      </trkpt>
      <trkpt lat="48.49032" lon="-2.68117">
        <ele>5.9</ele>
        <time>2013-09-29T05:58:41Z</time>
      </trkpt>
      <trkpt lat="48.49037" lon="-2.68127">
        <ele>5.9</ele>
        <time>2013-09-29T05:58:47Z</time>
      </trkpt>
      <trkpt lat="48.49041" lon="-2.68137">
        <ele>5.9</ele>
        <time>2013-09-29T05:58:53Z</time>
      </trkpt>
      <trkpt lat="48.49046" lon="-2.68147">
        <ele>6</ele>
        <time>2013-09-29T05:58:59Z</time>
      </trkpt>
      <trkpt lat="48.4905" lon="-2.68158">
        <ele>6.1</ele>
        <time>2013-09-29T05:59:05Z</time>
      </trkpt>
      <trkpt lat="48.49054" lon="-2.68169">
        <ele>6.2</ele>
        <time>2013-09-29T05:59:11Z</time>
      </trkpt>
      <trkpt lat="48.49059" lon="-2.68179">
        <ele>6.3</ele>
        <time>2013-09-29T05:59:17Z</time>
      </trkpt>
      <trkpt lat="48.49059" lon="-2.68181">
        <ele>6.3</ele>
        <time>2013-09-29T05:59:18Z</time>
      </trkpt>
      <trkpt lat="48.49067" lon="-2.682">
        <ele>6.6</ele>
        <time>2013-09-29T05:59:29Z</time>
      </trkpt>
      <trkpt lat="48.49072" lon="-2.6821">
        <ele>6.7</ele>
        <time>2013-09-29T05:59:35Z</time>
      </trkpt>
      <trkpt lat="48.49077" lon="-2.68221">
        <ele>6.8</ele>
        <time>2013-09-29T05:59:41Z</time>
      </trkpt>
      <trkpt lat="48.49081" lon="-2.68231">
        <ele>7</ele>
        <time>2013-09-29T05:59:47Z</time>
      </trkpt>
      <trkpt lat="48.49086" lon="-2.68242">
        <ele>7.3</ele>
        <time>2013-09-29T05:59:54Z</time>
      </trkpt>
      <trkpt lat="48.49091" lon="-2.68252">
        <ele>7.6</ele>
        <time>2013-09-29T06:00:01Z</time>
      </trkpt>
      <trkpt lat="48.49095" lon="-2.68262">
        <ele>7.8</ele>
        <time>2013-09-29T06:00:07Z</time>
      </trkpt>
      <trkpt lat="48.491" lon="-2.68272">
        <ele>8</ele>
        <time>2013-09-29T06:00:13Z</time>
      </trkpt>
      <trkpt lat="48.49105" lon="-2.68282">
        <ele>8.2</ele>
        <time>2013-09-29T06:00:19Z</time>
      </trkpt>
      <trkpt lat="48.49106" lon="-2.68284">
        <ele>8.2</ele>
        <time>2013-09-29T06:00:20Z</time>
      </trkpt>
      <trkpt lat="48.49114" lon="-2.68303">
        <ele>8.5</ele>
        <time>2013-09-29T06:00:30Z</time>
      </trkpt>
      <trkpt lat="48.49118" lon="-2.68314">
        <ele>8.6</ele>
        <time>2013-09-29T06:00:35Z</time>
      </trkpt>
      <trkpt lat="48.49122" lon="-2.68325">
        <ele>8.6</ele>
        <time>2013-09-29T06:00:41Z</time>
      </trkpt>
      <trkpt lat="48.49127" lon="-2.68336">
        <ele>8.7</ele>
        <time>2013-09-29T06:00:47Z</time>
      </trkpt>
      <trkpt lat="48.49132" lon="-2.68347">
        <ele>8.8</ele>
        <time>2013-09-29T06:00:53Z</time>
      </trkpt>
      <trkpt lat="48.49136" lon="-2.68358">
        <ele>8.9</ele>
        <time>2013-09-29T06:00:59Z</time>
      </trkpt>
      <trkpt lat="48.49141" lon="-2.68369">
        <ele>9</ele>
        <time>2013-09-29T06:01:05Z</time>
      </trkpt>
      <trkpt lat="48.49146" lon="-2.68379">
        <ele>9.1</ele>
        <time>2013-09-29T06:01:11Z</time>
      </trkpt>
      <trkpt lat="48.49151" lon="-2.68389">
        <ele>9.2</ele>
        <time>2013-09-29T06:01:17Z</time>
      </trkpt>
      <trkpt lat="48.49156" lon="-2.68399">
        <ele>9.3</ele>
        <time>2013-09-29T06:01:23Z</time>
      </trkpt>
      <trkpt lat="48.49157" lon="-2.68401">
        <ele>9.4</ele>
        <time>2013-09-29T06:01:24Z</time>
      </trkpt>
      <trkpt lat="48.49166" lon="-2.68417">
        <ele>9.5</ele>
        <time>2013-09-29T06:01:35Z</time>
      </trkpt>
      <trkpt lat="48.49172" lon="-2.68425">
        <ele>9.6</ele>
        <time>2013-09-29T06:01:41Z</time>
      </trkpt>
      <trkpt lat="48.49178" lon="-2.68433">
        <ele>9.7</ele>
        <time>2013-09-29T06:01:47Z</time>
      </trkpt>
      <trkpt lat="48.49185" lon="-2.6844">
        <ele>9.8</ele>
        <time>2013-09-29T06:01:53Z</time>
      </trkpt>
      <trkpt lat="48.49191" lon="-2.68447">
        <ele>10</ele>
        <time>2013-09-29T06:01:59Z</time>
      </trkpt>
      <trkpt lat="48.49198" lon="-2.68454">
        <ele>10.1</ele>
        <time>2013-09-29T06:02:06Z</time>
      </trkpt>
      <trkpt lat="48.49205" lon="-2.68461">
        <ele>10.3</ele>
        <time>2013-09-29T06:02:13Z</time>
      </trkpt>
      <trkpt lat="48.49211" lon="-2.6847">
        <ele>10.4</ele>
        <time>2013-09-29T06:02:19Z</time>
      </trkpt>
      <trkpt lat="48.49217" lon="-2.68479">
        <ele>10.5</ele>
        <time>2013-09-29T06:02:25Z</time>
      </trkpt>
      <trkpt lat="48.49218" lon="-2.6848">
        <ele>10.5</ele>
        <time>2013-09-29T06:02:26Z</time>
      </trkpt>
      <trkpt lat="48.49229" lon="-2.68497">
        <ele>10.7</ele>
        <time>2013-09-29T06:02:37Z</time>
      </trkpt>
      <trkpt lat="48.49234" lon="-2.68506">
        <ele>10.8</ele>
        <time>2013-09-29T06:02:43Z</time>
      </trkpt>
      <trkpt lat="48.49238" lon="-2.68516">
        <ele>10.9</ele>
        <time>2013-09-29T06:02:48Z</time>
      </trkpt>
      <trkpt lat="48.49242" lon="-2.68527">
        <ele>10.9</ele>
        <time>2013-09-29T06:02:53Z</time>
      </trkpt>
      <trkpt lat="48.49247" lon="-2.68537">
        <ele>10.9</ele>
        <time>2013-09-29T06:02:58Z</time>
      </trkpt>
      <trkpt lat="48.49252" lon="-2.68547">
        <ele>10.9</ele>
        <time>2013-09-29T06:03:04Z</time>
      </trkpt>
      <trkpt lat="48.49258" lon="-2.68557">
        <ele>10.8</ele>
        <time>2013-09-29T06:03:10Z</time>
      </trkpt>
      <trkpt lat="48.49263" lon="-2.68567">
        <ele>10.8</ele>
        <time>2013-09-29T06:03:16Z</time>
      </trkpt>
      <trkpt lat="48.49267" lon="-2.68576">
        <ele>10.8</ele>
        <time>2013-09-29T06:03:22Z</time>
      </trkpt>
      <trkpt lat="48.49273" lon="-2.68586">
        <ele>10.9</ele>
        <time>2013-09-29T06:03:29Z</time>
      </trkpt>
      <trkpt lat="48.49273" lon="-2.68587">
        <ele>10.9</ele>
        <time>2013-09-29T06:03:30Z</time>
      </trkpt>
      <trkpt lat="48.49284" lon="-2.68604">
        <ele>11.2</ele>
        <time>2013-09-29T06:03:44Z</time>
      </trkpt>
      <trkpt lat="48.4929" lon="-2.68612">
        <ele>11.3</ele>
        <time>2013-09-29T06:03:50Z</time>
      </trkpt>
      <trkpt lat="48.49297" lon="-2.68619">
        <ele>11.5</ele>
        <time>2013-09-29T06:03:56Z</time>
      </trkpt>
      <trkpt lat="48.49304" lon="-2.68625">
        <ele>11.7</ele>
        <time>2013-09-29T06:04:01Z</time>
      </trkpt>
      <trkpt lat="48.49313" lon="-2.68627">
        <ele>12</ele>
        <time>2013-09-29T06:04:07Z</time>
      </trkpt>
      <trkpt lat="48.49321" lon="-2.6863">
        <ele>12.3</ele>
        <time>2013-09-29T06:04:13Z</time>
      </trkpt>
      <trkpt lat="48.49328" lon="-2.68633">
        <ele>12.4</ele>
        <time>2013-09-29T06:04:18Z</time>
      </trkpt>
      <trkpt lat="48.49337" lon="-2.68636">
        <ele>12.4</ele>
        <time>2013-09-29T06:04:24Z</time>
      </trkpt>
      <trkpt lat="48.49345" lon="-2.68641">
        <ele>12.4</ele>
        <time>2013-09-29T06:04:30Z</time>
      </trkpt>
      <trkpt lat="48.49347" lon="-2.68642">
        <ele>12.4</ele>
        <time>2013-09-29T06:04:31Z</time>
      </trkpt>
      <trkpt lat="48.49362" lon="-2.68649">
        <ele>12.2</ele>
        <time>2013-09-29T06:04:42Z</time>
      </trkpt>
      <trkpt lat="48.49371" lon="-2.68653">
        <ele>12</ele>
        <time>2013-09-29T06:04:48Z</time>
      </trkpt>
      <trkpt lat="48.49379" lon="-2.68657">
        <ele>11.8</ele>
        <time>2013-09-29T06:04:54Z</time>
      </trkpt>
      <trkpt lat="48.49387" lon="-2.6866">
        <ele>11.3</ele>
        <time>2013-09-29T06:05:00Z</time>
      </trkpt>
      <trkpt lat="48.49395" lon="-2.68664">
        <ele>10.8</ele>
        <time>2013-09-29T06:05:06Z</time>
      </trkpt>
      <trkpt lat="48.49403" lon="-2.68668">
        <ele>10.8</ele>
        <time>2013-09-29T06:05:12Z</time>
      </trkpt>
      <trkpt lat="48.49412" lon="-2.68672">
        <ele>10.5</ele>
        <time>2013-09-29T06:05:18Z</time>
      </trkpt>
      <trkpt lat="48.4942" lon="-2.68676">
        <ele>10.4</ele>
        <time>2013-09-29T06:05:24Z</time>
      </trkpt>
      <trkpt lat="48.49428" lon="-2.68681">
        <ele>10.7</ele>
        <time>2013-09-29T06:05:30Z</time>
      </trkpt>
      <trkpt lat="48.49436" lon="-2.68685">
        <ele>10.7</ele>
        <time>2013-09-29T06:05:36Z</time>
      </trkpt>
      <trkpt lat="48.49438" lon="-2.68685">
        <ele>10.7</ele>
        <time>2013-09-29T06:05:37Z</time>
      </trkpt>
      <trkpt lat="48.49453" lon="-2.68693">
        <ele>9.9</ele>
        <time>2013-09-29T06:05:48Z</time>
      </trkpt>
      <trkpt lat="48.49461" lon="-2.68698">
        <ele>9.7</ele>
        <time>2013-09-29T06:05:54Z</time>
      </trkpt>
      <trkpt lat="48.49469" lon="-2.68702">
        <ele>9.6</ele>
        <time>2013-09-29T06:06:00Z</time>
      </trkpt>
      <trkpt lat="48.49477" lon="-2.68707">
        <ele>9.7</ele>
        <time>2013-09-29T06:06:06Z</time>
      </trkpt>
      <trkpt lat="48.49485" lon="-2.68711">
        <ele>9.5</ele>
        <time>2013-09-29T06:06:12Z</time>
      </trkpt>
      <trkpt lat="48.49493" lon="-2.68716">
        <ele>9.9</ele>
        <time>2013-09-29T06:06:17Z</time>
      </trkpt>
      <trkpt lat="48.495" lon="-2.6872">
        <ele>10.1</ele>
        <time>2013-09-29T06:06:22Z</time>
      </trkpt>
      <trkpt lat="48.49508" lon="-2.68725">
        <ele>9.9</ele>
        <time>2013-09-29T06:06:28Z</time>
      </trkpt>
      <trkpt lat="48.49515" lon="-2.68729">
        <ele>9.8</ele>
        <time>2013-09-29T06:06:33Z</time>
      </trkpt>
      <trkpt lat="48.49522" lon="-2.68733">
        <ele>9.5</ele>
        <time>2013-09-29T06:06:38Z</time>
      </trkpt>
      <trkpt lat="48.49524" lon="-2.68733">
        <ele>9.6</ele>
        <time>2013-09-29T06:06:39Z</time>
      </trkpt>
      <trkpt lat="48.49539" lon="-2.68743">
        <ele>10.3</ele>
        <time>2013-09-29T06:06:50Z</time>
      </trkpt>
      <trkpt lat="48.49547" lon="-2.68748">
        <ele>10.5</ele>
        <time>2013-09-29T06:06:56Z</time>
      </trkpt>
      <trkpt lat="48.49554" lon="-2.68754">
        <ele>9.9</ele>
        <time>2013-09-29T06:07:02Z</time>
      </trkpt>
      <trkpt lat="48.49562" lon="-2.68759">
        <ele>9.5</ele>
        <time>2013-09-29T06:07:08Z</time>
      </trkpt>
      <trkpt lat="48.4957" lon="-2.68765">
        <ele>10.2</ele>
        <time>2013-09-29T06:07:14Z</time>
      </trkpt>
      <trkpt lat="48.49577" lon="-2.68771">
        <ele>10.4</ele>
        <time>2013-09-29T06:07:20Z</time>
      </trkpt>
      <trkpt lat="48.49585" lon="-2.68776">
        <ele>11</ele>
        <time>2013-09-29T06:07:26Z</time>
      </trkpt>
      <trkpt lat="48.49592" lon="-2.68782">
        <ele>10.2</ele>
        <time>2013-09-29T06:07:32Z</time>
      </trkpt>
      <trkpt lat="48.49599" lon="-2.68789">
        <ele>9.5</ele>
        <time>2013-09-29T06:07:38Z</time>
      </trkpt>
      <trkpt lat="48.49607" lon="-2.68795">
        <ele>10</ele>
        <time>2013-09-29T06:07:44Z</time>
      </trkpt>
      <trkpt lat="48.49608" lon="-2.68796">
        <ele>10.2</ele>
        <time>2013-09-29T06:07:45Z</time>
      </trkpt>
      <trkpt lat="48.49622" lon="-2.68807">
        <ele>9.5</ele>
        <time>2013-09-29T06:07:56Z</time>
      </trkpt>
      <trkpt lat="48.49629" lon="-2.68814">
        <ele>9.3</ele>
        <time>2013-09-29T06:08:02Z</time>
      </trkpt>
      <trkpt lat="48.49637" lon="-2.68821">
        <ele>10</ele>
        <time>2013-09-29T06:08:08Z</time>
      </trkpt>
      <trkpt lat="48.49644" lon="-2.68826">
        <ele>9.9</ele>
        <time>2013-09-29T06:08:14Z</time>
      </trkpt>
      <trkpt lat="48.49652" lon="-2.68832">
        <ele>9.3</ele>
        <time>2013-09-29T06:08:20Z</time>
      </trkpt>
      <trkpt lat="48.49659" lon="-2.68838">
        <ele>9.5</ele>
        <time>2013-09-29T06:08:26Z</time>
      </trkpt>
      <trkpt lat="48.49667" lon="-2.68844">
        <ele>10.1</ele>
        <time>2013-09-29T06:08:32Z</time>
      </trkpt>
      <trkpt lat="48.49674" lon="-2.6885">
        <ele>10</ele>
        <time>2013-09-29T06:08:38Z</time>
      </trkpt>
      <trkpt lat="48.49682" lon="-2.68856">
        <ele>10.6</ele>
        <time>2013-09-29T06:08:44Z</time>
      </trkpt>
      <trkpt lat="48.49689" lon="-2.68863">
        <ele>10.2</ele>
        <time>2013-09-29T06:08:50Z</time>
      </trkpt>
      <trkpt lat="48.49691" lon="-2.68864">
        <ele>10.1</ele>
        <time>2013-09-29T06:08:51Z</time>
      </trkpt>
      <trkpt lat="48.49705" lon="-2.68876">
        <ele>10.6</ele>
        <time>2013-09-29T06:09:02Z</time>
      </trkpt>
      <trkpt lat="48.49713" lon="-2.68882">
        <ele>10</ele>
        <time>2013-09-29T06:09:08Z</time>
      </trkpt>
      <trkpt lat="48.4972" lon="-2.68889">
        <ele>10.3</ele>
        <time>2013-09-29T06:09:14Z</time>
      </trkpt>
      <trkpt lat="48.49727" lon="-2.68895">
        <ele>10</ele>
        <time>2013-09-29T06:09:20Z</time>
      </trkpt>
      <trkpt lat="48.49735" lon="-2.68901">
        <ele>10.4</ele>
        <time>2013-09-29T06:09:26Z</time>
      </trkpt>
      <trkpt lat="48.49743" lon="-2.68907">
        <ele>9.7</ele>
        <time>2013-09-29T06:09:32Z</time>
      </trkpt>
      <trkpt lat="48.4975" lon="-2.68913">
        <ele>10.2</ele>
        <time>2013-09-29T06:09:38Z</time>
      </trkpt>
      <trkpt lat="48.49757" lon="-2.68919">
        <ele>10.2</ele>
        <time>2013-09-29T06:09:44Z</time>
      </trkpt>
      <trkpt lat="48.49765" lon="-2.68925">
        <ele>9.8</ele>
        <time>2013-09-29T06:09:50Z</time>
      </trkpt>
      <trkpt lat="48.49772" lon="-2.68932">
        <ele>10.5</ele>
        <time>2013-09-29T06:09:56Z</time>
      </trkpt>
      <trkpt lat="48.49773" lon="-2.68933">
        <ele>10.2</ele>
        <time>2013-09-29T06:09:57Z</time>
      </trkpt>
      <trkpt lat="48.49787" lon="-2.68944">
        <ele>9.5</ele>
        <time>2013-09-29T06:10:08Z</time>
      </trkpt>
      <trkpt lat="48.49795" lon="-2.6895">
        <ele>10</ele>
        <time>2013-09-29T06:10:14Z</time>
      </trkpt>
      <trkpt lat="48.49802" lon="-2.68956">
        <ele>9.7</ele>
        <time>2013-09-29T06:10:20Z</time>
      </trkpt>
      <trkpt lat="48.49809" lon="-2.68962">
        <ele>10</ele>
        <time>2013-09-29T06:10:26Z</time>
      </trkpt>
      <trkpt lat="48.49817" lon="-2.68968">
        <ele>9.8</ele>
        <time>2013-09-29T06:10:32Z</time>
      </trkpt>
      <trkpt lat="48.49825" lon="-2.68974">
        <ele>10.2</ele>
        <time>2013-09-29T06:10:38Z</time>
      </trkpt>
      <trkpt lat="48.49832" lon="-2.68981">
        <ele>10.4</ele>
        <time>2013-09-29T06:10:44Z</time>
      </trkpt>
      <trkpt lat="48.49838" lon="-2.68987">
        <ele>10.7</ele>
        <time>2013-09-29T06:10:49Z</time>
      </trkpt>
      <trkpt lat="48.49846" lon="-2.68994">
        <ele>3</ele>
        <time>2013-09-29T06:10:55Z</time>
      </trkpt>
      <trkpt lat="48.49853" lon="-2.69001">
        <ele>10.3</ele>
        <time>2013-09-29T06:11:01Z</time>
      </trkpt>
      <trkpt lat="48.49854" lon="-2.69002">
        <ele>10.4</ele>
        <time>2013-09-29T06:11:02Z</time>
      </trkpt>
      <trkpt lat="48.49867" lon="-2.69016">
        <ele>9.3</ele>
        <time>2013-09-29T06:11:13Z</time>
      </trkpt>
      <trkpt lat="48.49873" lon="-2.69023">
        <ele>7.8</ele>
        <time>2013-09-29T06:11:19Z</time>
      </trkpt>
      <trkpt lat="48.4988" lon="-2.6903">
        <ele>10</ele>
        <time>2013-09-29T06:11:25Z</time>
      </trkpt>
      <trkpt lat="48.49886" lon="-2.69039">
        <ele>10.2</ele>
        <time>2013-09-29T06:12:45Z</time>
      </trkpt>
      <trkpt lat="48.49887" lon="-2.69039">
        <ele>9.9</ele>
        <time>2013-09-29T06:12:46Z</time>
      </trkpt>
      <trkpt lat="48.49899" lon="-2.69052">
        <ele>9.5</ele>
        <time>2013-09-29T06:12:57Z</time>
      </trkpt>
      <trkpt lat="48.49905" lon="-2.6906">
        <ele>9.3</ele>
        <time>2013-09-29T06:13:03Z</time>
      </trkpt>
      <trkpt lat="48.49911" lon="-2.69068">
        <ele>10.3</ele>
        <time>2013-09-29T06:13:09Z</time>
      </trkpt>
      <trkpt lat="48.49918" lon="-2.69076">
        <ele>9</ele>
        <time>2013-09-29T06:13:15Z</time>
      </trkpt>
      <trkpt lat="48.49924" lon="-2.69084">
        <ele>9.5</ele>
        <time>2013-09-29T06:13:21Z</time>
      </trkpt>
      <trkpt lat="48.4993" lon="-2.69091">
        <ele>9.8</ele>
        <time>2013-09-29T06:13:27Z</time>
      </trkpt>
      <trkpt lat="48.49937" lon="-2.69098">
        <ele>10.2</ele>
        <time>2013-09-29T06:13:47Z</time>
      </trkpt>
      <trkpt lat="48.49938" lon="-2.69099">
        <ele>10.3</ele>
        <time>2013-09-29T06:13:48Z</time>
      </trkpt>
      <trkpt lat="48.49948" lon="-2.69114">
        <ele>9.1</ele>
        <time>2013-09-29T06:13:59Z</time>
      </trkpt>
      <trkpt lat="48.49955" lon="-2.69121">
        <ele>9.3</ele>
        <time>2013-09-29T06:14:05Z</time>
      </trkpt>
      <trkpt lat="48.49962" lon="-2.69129">
        <ele>9</ele>
        <time>2013-09-29T06:14:11Z</time>
      </trkpt>
      <trkpt lat="48.49969" lon="-2.69138">
        <ele>9.3</ele>
        <time>2013-09-29T06:14:17Z</time>
      </trkpt>
      <trkpt lat="48.49976" lon="-2.69146">
        <ele>9.4</ele>
        <time>2013-09-29T06:14:23Z</time>
      </trkpt>
      <trkpt lat="48.49982" lon="-2.69154">
        <ele>8.8</ele>
        <time>2013-09-29T06:14:29Z</time>
      </trkpt>
      <trkpt lat="48.49989" lon="-2.69162">
        <ele>9.1</ele>
        <time>2013-09-29T06:14:35Z</time>
      </trkpt>
      <trkpt lat="48.49996" lon="-2.6917">
        <ele>9.5</ele>
        <time>2013-09-29T06:14:41Z</time>
      </trkpt>
      <trkpt lat="48.50003" lon="-2.69178">
        <ele>9.1</ele>
        <time>2013-09-29T06:14:47Z</time>
      </trkpt>
      <trkpt lat="48.50009" lon="-2.69186">
        <ele>9.4</ele>
        <time>2013-09-29T06:14:53Z</time>
      </trkpt>
      <trkpt lat="48.5001" lon="-2.69188">
        <ele>9.5</ele>
        <time>2013-09-29T06:14:54Z</time>
      </trkpt>
      <trkpt lat="48.50023" lon="-2.69203">
        <ele>9.2</ele>
        <time>2013-09-29T06:15:05Z</time>
      </trkpt>
      <trkpt lat="48.5003" lon="-2.69212">
        <ele>9</ele>
        <time>2013-09-29T06:15:11Z</time>
      </trkpt>
      <trkpt lat="48.50036" lon="-2.6922">
        <ele>9.7</ele>
        <time>2013-09-29T06:15:17Z</time>
      </trkpt>
      <trkpt lat="48.50043" lon="-2.69228">
        <ele>9</ele>
        <time>2013-09-29T06:15:23Z</time>
      </trkpt>
      <trkpt lat="48.50049" lon="-2.69236">
        <ele>9.3</ele>
        <time>2013-09-29T06:15:29Z</time>
      </trkpt>
      <trkpt lat="48.50056" lon="-2.69244">
        <ele>9.5</ele>
        <time>2013-09-29T06:15:35Z</time>
      </trkpt>
      <trkpt lat="48.50063" lon="-2.69252">
        <ele>9.1</ele>
        <time>2013-09-29T06:15:41Z</time>
      </trkpt>
      <trkpt lat="48.5007" lon="-2.6926">
        <ele>9</ele>
        <time>2013-09-29T06:15:47Z</time>
      </trkpt>
      <trkpt lat="48.50077" lon="-2.69269">
        <ele>8.3</ele>
        <time>2013-09-29T06:15:53Z</time>
      </trkpt>
      <trkpt lat="48.50083" lon="-2.69276">
        <ele>9.5</ele>
        <time>2013-09-29T06:15:58Z</time>
      </trkpt>
      <trkpt lat="48.50084" lon="-2.69277">
        <ele>9.8</ele>
        <time>2013-09-29T06:15:59Z</time>
      </trkpt>
      <trkpt lat="48.50097" lon="-2.69292">
        <ele>9.8</ele>
        <time>2013-09-29T06:16:10Z</time>
      </trkpt>
      <trkpt lat="48.50103" lon="-2.69301">
        <ele>9.3</ele>
        <time>2013-09-29T06:16:16Z</time>
      </trkpt>
      <trkpt lat="48.5011" lon="-2.6931">
        <ele>9.5</ele>
        <time>2013-09-29T06:16:22Z</time>
      </trkpt>
      <trkpt lat="48.50117" lon="-2.69318">
        <ele>9.3</ele>
        <time>2013-09-29T06:16:28Z</time>
      </trkpt>
      <trkpt lat="48.50124" lon="-2.69326">
        <ele>10</ele>
        <time>2013-09-29T06:16:34Z</time>
      </trkpt>
      <trkpt lat="48.50131" lon="-2.69334">
        <ele>9.5</ele>
        <time>2013-09-29T06:16:40Z</time>
      </trkpt>
      <trkpt lat="48.50137" lon="-2.69341">
        <ele>9.5</ele>
        <time>2013-09-29T06:16:46Z</time>
      </trkpt>
      <trkpt lat="48.50144" lon="-2.69349">
        <ele>8.6</ele>
        <time>2013-09-29T06:16:52Z</time>
      </trkpt>
      <trkpt lat="48.50151" lon="-2.69358">
        <ele>8.4</ele>
        <time>2013-09-29T06:16:58Z</time>
      </trkpt>
      <trkpt lat="48.50158" lon="-2.69367">
        <ele>9.1</ele>
        <time>2013-09-29T06:17:04Z</time>
      </trkpt>
      <trkpt lat="48.50159" lon="-2.69368">
        <ele>9.1</ele>
        <time>2013-09-29T06:17:05Z</time>
      </trkpt>
      <trkpt lat="48.5017" lon="-2.69384">
        <ele>9.5</ele>
        <time>2013-09-29T06:17:16Z</time>
      </trkpt>
      <trkpt lat="48.50176" lon="-2.69391">
        <ele>9.3</ele>
        <time>2013-09-29T06:17:22Z</time>
      </trkpt>
      <trkpt lat="48.50182" lon="-2.69399">
        <ele>9.3</ele>
        <time>2013-09-29T06:17:28Z</time>
      </trkpt>
      <trkpt lat="48.50187" lon="-2.69409">
        <ele>8.6</ele>
        <time>2013-09-29T06:17:34Z</time>
      </trkpt>
      <trkpt lat="48.50194" lon="-2.69417">
        <ele>9.2</ele>
        <time>2013-09-29T06:17:40Z</time>
      </trkpt>
      <trkpt lat="48.502" lon="-2.69427">
        <ele>8.5</ele>
        <time>2013-09-29T06:17:46Z</time>
      </trkpt>
      <trkpt lat="48.50206" lon="-2.69434">
        <ele>8.3</ele>
        <time>2013-09-29T06:17:51Z</time>
      </trkpt>
      <trkpt lat="48.50212" lon="-2.69442">
        <ele>8.5</ele>
        <time>2013-09-29T06:17:56Z</time>
      </trkpt>
      <trkpt lat="48.50218" lon="-2.69452">
        <ele>9</ele>
        <time>2013-09-29T06:18:02Z</time>
      </trkpt>
      <trkpt lat="48.50224" lon="-2.6946">
        <ele>8.5</ele>
        <time>2013-09-29T06:18:08Z</time>
      </trkpt>
      <trkpt lat="48.50225" lon="-2.69462">
        <ele>8.4</ele>
        <time>2013-09-29T06:18:09Z</time>
      </trkpt>
      <trkpt lat="48.50237" lon="-2.69477">
        <ele>8.7</ele>
        <time>2013-09-29T06:18:20Z</time>
      </trkpt>
      <trkpt lat="48.50244" lon="-2.69486">
        <ele>9.2</ele>
        <time>2013-09-29T06:18:26Z</time>
      </trkpt>
      <trkpt lat="48.5025" lon="-2.69495">
        <ele>8.5</ele>
        <time>2013-09-29T06:18:32Z</time>
      </trkpt>
      <trkpt lat="48.50256" lon="-2.69504">
        <ele>9.6</ele>
        <time>2013-09-29T06:18:38Z</time>
      </trkpt>
      <trkpt lat="48.50263" lon="-2.69513">
        <ele>8.8</ele>
        <time>2013-09-29T06:18:44Z</time>
      </trkpt>
      <trkpt lat="48.50269" lon="-2.69521">
        <ele>8.7</ele>
        <time>2013-09-29T06:18:50Z</time>
      </trkpt>
      <trkpt lat="48.50274" lon="-2.6953">
        <ele>8.6</ele>
        <time>2013-09-29T06:18:56Z</time>
      </trkpt>
      <trkpt lat="48.5028" lon="-2.69538">
        <ele>7.6</ele>
        <time>2013-09-29T06:19:01Z</time>
      </trkpt>
      <trkpt lat="48.50285" lon="-2.69547">
        <ele>8.6</ele>
        <time>2013-09-29T06:19:06Z</time>
      </trkpt>
      <trkpt lat="48.50291" lon="-2.69557">
        <ele>9.5</ele>
        <time>2013-09-29T06:19:12Z</time>
      </trkpt>
      <trkpt lat="48.50292" lon="-2.69558">
        <ele>9.2</ele>
        <time>2013-09-29T06:19:13Z</time>
      </trkpt>
      <trkpt lat="48.50304" lon="-2.69573">
        <ele>9</ele>
        <time>2013-09-29T06:19:24Z</time>
      </trkpt>
      <trkpt lat="48.5031" lon="-2.6958">
        <ele>8.6</ele>
        <time>2013-09-29T06:19:30Z</time>
      </trkpt>
      <trkpt lat="48.50317" lon="-2.69589">
        <ele>7.9</ele>
        <time>2013-09-29T06:19:36Z</time>
      </trkpt>
      <trkpt lat="48.50322" lon="-2.69598">
        <ele>8.1</ele>
        <time>2013-09-29T06:19:41Z</time>
      </trkpt>
      <trkpt lat="48.50328" lon="-2.69606">
        <ele>8.5</ele>
        <time>2013-09-29T06:19:46Z</time>
      </trkpt>
      <trkpt lat="48.50334" lon="-2.69614">
        <ele>9.7</ele>
        <time>2013-09-29T06:19:51Z</time>
      </trkpt>
      <trkpt lat="48.5034" lon="-2.69622">
        <ele>9.6</ele>
        <time>2013-09-29T06:19:56Z</time>
      </trkpt>
      <trkpt lat="48.50345" lon="-2.6963">
        <ele>9.6</ele>
        <time>2013-09-29T06:20:01Z</time>
      </trkpt>
      <trkpt lat="48.50351" lon="-2.69637">
        <ele>8.7</ele>
        <time>2013-09-29T06:20:06Z</time>
      </trkpt>
      <trkpt lat="48.50357" lon="-2.69645">
        <ele>8.4</ele>
        <time>2013-09-29T06:20:11Z</time>
      </trkpt>
      <trkpt lat="48.50363" lon="-2.69653">
        <ele>8.3</ele>
        <time>2013-09-29T06:20:16Z</time>
      </trkpt>
      <trkpt lat="48.50364" lon="-2.69655">
        <ele>8.3</ele>
        <time>2013-09-29T06:20:17Z</time>
      </trkpt>
      <trkpt lat="48.50374" lon="-2.69669">
        <ele>8.7</ele>
        <time>2013-09-29T06:20:26Z</time>
      </trkpt>
      <trkpt lat="48.50379" lon="-2.69677">
        <ele>8.9</ele>
        <time>2013-09-29T06:20:31Z</time>
      </trkpt>
      <trkpt lat="48.50385" lon="-2.69685">
        <ele>8.5</ele>
        <time>2013-09-29T06:20:36Z</time>
      </trkpt>
      <trkpt lat="48.5039" lon="-2.69693">
        <ele>7.9</ele>
        <time>2013-09-29T06:20:41Z</time>
      </trkpt>
      <trkpt lat="48.50396" lon="-2.697">
        <ele>8.5</ele>
        <time>2013-09-29T06:20:46Z</time>
      </trkpt>
      <trkpt lat="48.50403" lon="-2.69709">
        <ele>8.6</ele>
        <time>2013-09-29T06:20:52Z</time>
      </trkpt>
      <trkpt lat="48.50409" lon="-2.69717">
        <ele>8.3</ele>
        <time>2013-09-29T06:20:58Z</time>
      </trkpt>
      <trkpt lat="48.50416" lon="-2.69725">
        <ele>8.6</ele>
        <time>2013-09-29T06:21:04Z</time>
      </trkpt>
      <trkpt lat="48.50423" lon="-2.69734">
        <ele>7.9</ele>
        <time>2013-09-29T06:21:10Z</time>
      </trkpt>
      <trkpt lat="48.5043" lon="-2.69741">
        <ele>8.3</ele>
        <time>2013-09-29T06:21:16Z</time>
      </trkpt>
      <trkpt lat="48.50437" lon="-2.69747">
        <ele>8.5</ele>
        <time>2013-09-29T06:21:22Z</time>
      </trkpt>
      <trkpt lat="48.50439" lon="-2.69748">
        <ele>8.9</ele>
        <time>2013-09-29T06:21:23Z</time>
      </trkpt>
      <trkpt lat="48.50451" lon="-2.6976">
        <ele>8.1</ele>
        <time>2013-09-29T06:21:34Z</time>
      </trkpt>
      <trkpt lat="48.50455" lon="-2.69772">
        <ele>8.7</ele>
        <time>2013-09-29T06:21:43Z</time>
      </trkpt>
      <trkpt lat="48.50463" lon="-2.69772">
        <ele>8.5</ele>
        <time>2013-09-29T06:22:13Z</time>
      </trkpt>
      <trkpt lat="48.5047" lon="-2.69778">
        <ele>8.3</ele>
        <time>2013-09-29T06:22:19Z</time>
      </trkpt>
      <trkpt lat="48.50477" lon="-2.69784">
        <ele>8.6</ele>
        <time>2013-09-29T06:22:25Z</time>
      </trkpt>
      <trkpt lat="48.50479" lon="-2.69785">
        <ele>8.5</ele>
        <time>2013-09-29T06:22:26Z</time>
      </trkpt>
      <trkpt lat="48.50492" lon="-2.69797">
        <ele>8.4</ele>
        <time>2013-09-29T06:22:37Z</time>
      </trkpt>
      <trkpt lat="48.50499" lon="-2.69803">
        <ele>8.9</ele>
        <time>2013-09-29T06:22:42Z</time>
      </trkpt>
      <trkpt lat="48.50507" lon="-2.69808">
        <ele>9</ele>
        <time>2013-09-29T06:22:48Z</time>
      </trkpt>
      <trkpt lat="48.50515" lon="-2.69813">
        <ele>8.6</ele>
        <time>2013-09-29T06:22:54Z</time>
      </trkpt>
      <trkpt lat="48.50522" lon="-2.69818">
        <ele>7.8</ele>
        <time>2013-09-29T06:23:00Z</time>
      </trkpt>
      <trkpt lat="48.5053" lon="-2.69823">
        <ele>9.3</ele>
        <time>2013-09-29T06:23:06Z</time>
      </trkpt>
      <trkpt lat="48.50538" lon="-2.69829">
        <ele>8.4</ele>
        <time>2013-09-29T06:23:12Z</time>
      </trkpt>
      <trkpt lat="48.50546" lon="-2.69833">
        <ele>8.7</ele>
        <time>2013-09-29T06:23:18Z</time>
      </trkpt>
      <trkpt lat="48.50555" lon="-2.69837">
        <ele>9</ele>
        <time>2013-09-29T06:23:24Z</time>
      </trkpt>
      <trkpt lat="48.50563" lon="-2.6984">
        <ele>8.8</ele>
        <time>2013-09-29T06:23:30Z</time>
      </trkpt>
      <trkpt lat="48.50564" lon="-2.69841">
        <ele>9.1</ele>
        <time>2013-09-29T06:23:31Z</time>
      </trkpt>
      <trkpt lat="48.50579" lon="-2.6985">
        <ele>8.2</ele>
        <time>2013-09-29T06:23:42Z</time>
      </trkpt>
      <trkpt lat="48.50587" lon="-2.69855">
        <ele>8.4</ele>
        <time>2013-09-29T06:23:48Z</time>
      </trkpt>
      <trkpt lat="48.50595" lon="-2.69859">
        <ele>8.4</ele>
        <time>2013-09-29T06:24:55Z</time>
      </trkpt>
      <trkpt lat="48.50596" lon="-2.6986">
        <ele>8.6</ele>
        <time>2013-09-29T06:24:56Z</time>
      </trkpt>
      <trkpt lat="48.5061" lon="-2.69868">
        <ele>8.8</ele>
        <time>2013-09-29T06:25:07Z</time>
      </trkpt>
      <trkpt lat="48.50617" lon="-2.69873">
        <ele>8.7</ele>
        <time>2013-09-29T06:25:13Z</time>
      </trkpt>
      <trkpt lat="48.50625" lon="-2.69876">
        <ele>8.9</ele>
        <time>2013-09-29T06:25:19Z</time>
      </trkpt>
      <trkpt lat="48.50633" lon="-2.6988">
        <ele>9</ele>
        <time>2013-09-29T06:25:25Z</time>
      </trkpt>
      <trkpt lat="48.50641" lon="-2.69885">
        <ele>8.6</ele>
        <time>2013-09-29T06:25:31Z</time>
      </trkpt>
      <trkpt lat="48.50649" lon="-2.6989">
        <ele>9.1</ele>
        <time>2013-09-29T06:25:37Z</time>
      </trkpt>
      <trkpt lat="48.50656" lon="-2.69895">
        <ele>8.7</ele>
        <time>2013-09-29T06:25:42Z</time>
      </trkpt>
      <trkpt lat="48.50664" lon="-2.699">
        <ele>8.8</ele>
        <time>2013-09-29T06:25:48Z</time>
      </trkpt>
      <trkpt lat="48.50672" lon="-2.69903">
        <ele>8.6</ele>
        <time>2013-09-29T06:25:54Z</time>
      </trkpt>
      <trkpt lat="48.50679" lon="-2.69905">
        <ele>8.3</ele>
        <time>2013-09-29T06:26:00Z</time>
      </trkpt>
      <trkpt lat="48.50681" lon="-2.69905">
        <ele>8.1</ele>
        <time>2013-09-29T06:26:01Z</time>
      </trkpt>
      <trkpt lat="48.50694" lon="-2.69915">
        <ele>9.2</ele>
        <time>2013-09-29T06:26:55Z</time>
      </trkpt>
      <trkpt lat="48.50703" lon="-2.69918">
        <ele>9.3</ele>
        <time>2013-09-29T06:27:01Z</time>
      </trkpt>
      <trkpt lat="48.50704" lon="-2.69919">
        <ele>9.5</ele>
        <time>2013-09-29T06:27:02Z</time>
      </trkpt>
      <trkpt lat="48.50718" lon="-2.69927">
        <ele>9.2</ele>
        <time>2013-09-29T06:27:13Z</time>
      </trkpt>
      <trkpt lat="48.50726" lon="-2.69931">
        <ele>8.4</ele>
        <time>2013-09-29T06:27:19Z</time>
      </trkpt>
      <trkpt lat="48.50734" lon="-2.69935">
        <ele>8.3</ele>
        <time>2013-09-29T06:27:25Z</time>
      </trkpt>
      <trkpt lat="48.50742" lon="-2.69939">
        <ele>9.2</ele>
        <time>2013-09-29T06:27:31Z</time>
      </trkpt>
      <trkpt lat="48.5075" lon="-2.69943">
        <ele>9.3</ele>
        <time>2013-09-29T06:27:37Z</time>
      </trkpt>
      <trkpt lat="48.50757" lon="-2.69948">
        <ele>9.4</ele>
        <time>2013-09-29T06:27:43Z</time>
      </trkpt>
      <trkpt lat="48.50765" lon="-2.69953">
        <ele>9.6</ele>
        <time>2013-09-29T06:27:49Z</time>
      </trkpt>
      <trkpt lat="48.50773" lon="-2.69957">
        <ele>8.9</ele>
        <time>2013-09-29T06:27:55Z</time>
      </trkpt>
      <trkpt lat="48.50781" lon="-2.69962">
        <ele>9.4</ele>
        <time>2013-09-29T06:28:01Z</time>
      </trkpt>
      <trkpt lat="48.50788" lon="-2.69966">
        <ele>8.9</ele>
        <time>2013-09-29T06:28:06Z</time>
      </trkpt>
      <trkpt lat="48.50789" lon="-2.69967">
        <ele>8.9</ele>
        <time>2013-09-29T06:28:07Z</time>
      </trkpt>
      <trkpt lat="48.50803" lon="-2.69977">
        <ele>9.1</ele>
        <time>2013-09-29T06:28:17Z</time>
      </trkpt>
      <trkpt lat="48.50811" lon="-2.69982">
        <ele>8.1</ele>
        <time>2013-09-29T06:28:23Z</time>
      </trkpt>
      <trkpt lat="48.50818" lon="-2.69987">
        <ele>8.4</ele>
        <time>2013-09-29T06:28:29Z</time>
      </trkpt>
      <trkpt lat="48.50826" lon="-2.69993">
        <ele>8.3</ele>
        <time>2013-09-29T06:28:35Z</time>
      </trkpt>
      <trkpt lat="48.50833" lon="-2.69998">
        <ele>8.4</ele>
        <time>2013-09-29T06:28:41Z</time>
      </trkpt>
      <trkpt lat="48.5084" lon="-2.70005">
        <ele>9</ele>
        <time>2013-09-29T06:28:47Z</time>
      </trkpt>
      <trkpt lat="48.50848" lon="-2.70011">
        <ele>9.5</ele>
        <time>2013-09-29T06:28:53Z</time>
      </trkpt>
      <trkpt lat="48.50856" lon="-2.70017">
        <ele>8</ele>
        <time>2013-09-29T06:28:59Z</time>
      </trkpt>
      <trkpt lat="48.50863" lon="-2.70023">
        <ele>8.8</ele>
        <time>2013-09-29T06:29:05Z</time>
      </trkpt>
      <trkpt lat="48.50871" lon="-2.70028">
        <ele>8.7</ele>
        <time>2013-09-29T06:29:11Z</time>
      </trkpt>
      <trkpt lat="48.50872" lon="-2.70029">
        <ele>8.6</ele>
        <time>2013-09-29T06:29:12Z</time>
      </trkpt>
      <trkpt lat="48.50886" lon="-2.70039">
        <ele>9.1</ele>
        <time>2013-09-29T06:29:23Z</time>
      </trkpt>
      <trkpt lat="48.50894" lon="-2.70045">
        <ele>8.6</ele>
        <time>2013-09-29T06:29:29Z</time>
      </trkpt>
      <trkpt lat="48.50901" lon="-2.70051">
        <ele>8.5</ele>
        <time>2013-09-29T06:29:35Z</time>
      </trkpt>
      <trkpt lat="48.50908" lon="-2.70057">
        <ele>9.7</ele>
        <time>2013-09-29T06:29:41Z</time>
      </trkpt>
      <trkpt lat="48.50916" lon="-2.70064">
        <ele>8.5</ele>
        <time>2013-09-29T06:29:47Z</time>
      </trkpt>
      <trkpt lat="48.50922" lon="-2.7007">
        <ele>8.6</ele>
        <time>2013-09-29T06:29:52Z</time>
      </trkpt>
      <trkpt lat="48.5093" lon="-2.70076">
        <ele>8.8</ele>
        <time>2013-09-29T06:29:58Z</time>
      </trkpt>
      <trkpt lat="48.50937" lon="-2.70083">
        <ele>9.3</ele>
        <time>2013-09-29T06:30:04Z</time>
      </trkpt>
      <trkpt lat="48.50945" lon="-2.7009">
        <ele>9.5</ele>
        <time>2013-09-29T06:30:10Z</time>
      </trkpt>
      <trkpt lat="48.50951" lon="-2.70097">
        <ele>10.4</ele>
        <time>2013-09-29T06:30:16Z</time>
      </trkpt>
      <trkpt lat="48.50952" lon="-2.70098">
        <ele>10.3</ele>
        <time>2013-09-29T06:30:17Z</time>
      </trkpt>
      <trkpt lat="48.50964" lon="-2.70111">
        <ele>10.7</ele>
        <time>2013-09-29T06:30:29Z</time>
      </trkpt>
      <trkpt lat="48.5097" lon="-2.7012">
        <ele>10.3</ele>
        <time>2013-09-29T06:30:35Z</time>
      </trkpt>
      <trkpt lat="48.50977" lon="-2.70128">
        <ele>11.2</ele>
        <time>2013-09-29T06:30:43Z</time>
      </trkpt>
      <trkpt lat="48.50983" lon="-2.70136">
        <ele>12</ele>
        <time>2013-09-29T06:30:50Z</time>
      </trkpt>
      <trkpt lat="48.50989" lon="-2.70144">
        <ele>12.2</ele>
        <time>2013-09-29T06:30:56Z</time>
      </trkpt>
      <trkpt lat="48.50994" lon="-2.70153">
        <ele>12.4</ele>
        <time>2013-09-29T06:31:01Z</time>
      </trkpt>
      <trkpt lat="48.51" lon="-2.70163">
        <ele>12.1</ele>
        <time>2013-09-29T06:31:07Z</time>
      </trkpt>
      <trkpt lat="48.51005" lon="-2.70172">
        <ele>13</ele>
        <time>2013-09-29T06:31:14Z</time>
      </trkpt>
      <trkpt lat="48.51008" lon="-2.70183">
        <ele>12.7</ele>
        <time>2013-09-29T06:31:21Z</time>
      </trkpt>
      <trkpt lat="48.51009" lon="-2.70185">
        <ele>12.2</ele>
        <time>2013-09-29T06:31:22Z</time>
      </trkpt>
      <trkpt lat="48.51014" lon="-2.70206">
        <ele>13.1</ele>
        <time>2013-09-29T06:31:36Z</time>
      </trkpt>
      <trkpt lat="48.51019" lon="-2.70214">
        <ele>13.4</ele>
        <time>2013-09-29T06:31:40Z</time>
      </trkpt>
      <trkpt lat="48.51024" lon="-2.70222">
        <ele>13.4</ele>
        <time>2013-09-29T06:31:43Z</time>
      </trkpt>
      <trkpt lat="48.5103" lon="-2.70232">
        <ele>13.1</ele>
        <time>2013-09-29T06:31:48Z</time>
      </trkpt>
      <trkpt lat="48.51034" lon="-2.70242">
        <ele>13.2</ele>
        <time>2013-09-29T06:31:55Z</time>
      </trkpt>
      <trkpt lat="48.51039" lon="-2.70252">
        <ele>13.1</ele>
        <time>2013-09-29T06:32:02Z</time>
      </trkpt>
      <trkpt lat="48.51042" lon="-2.70264">
        <ele>12.7</ele>
        <time>2013-09-29T06:32:09Z</time>
      </trkpt>
      <trkpt lat="48.51046" lon="-2.70276">
        <ele>14.4</ele>
        <time>2013-09-29T06:32:16Z</time>
      </trkpt>
      <trkpt lat="48.51052" lon="-2.70284">
        <ele>14.5</ele>
        <time>2013-09-29T06:32:22Z</time>
      </trkpt>
      <trkpt lat="48.51053" lon="-2.70285">
        <ele>14.4</ele>
        <time>2013-09-29T06:32:23Z</time>
      </trkpt>
      <trkpt lat="48.51066" lon="-2.703">
        <ele>15.2</ele>
        <time>2013-09-29T06:32:34Z</time>
      </trkpt>
      <trkpt lat="48.51072" lon="-2.70307">
        <ele>16.1</ele>
        <time>2013-09-29T06:32:38Z</time>
      </trkpt>
      <trkpt lat="48.51078" lon="-2.70315">
        <ele>16.4</ele>
        <time>2013-09-29T06:32:43Z</time>
      </trkpt>
      <trkpt lat="48.51084" lon="-2.70323">
        <ele>16.2</ele>
        <time>2013-09-29T06:32:49Z</time>
      </trkpt>
      <trkpt lat="48.51091" lon="-2.70331">
        <ele>17.3</ele>
        <time>2013-09-29T06:32:56Z</time>
      </trkpt>
      <trkpt lat="48.51098" lon="-2.70337">
        <ele>17.1</ele>
        <time>2013-09-29T06:33:04Z</time>
      </trkpt>
      <trkpt lat="48.51106" lon="-2.70342">
        <ele>17.5</ele>
        <time>2013-09-29T06:33:12Z</time>
      </trkpt>
      <trkpt lat="48.51115" lon="-2.70347">
        <ele>17.1</ele>
        <time>2013-09-29T06:33:19Z</time>
      </trkpt>
      <trkpt lat="48.51123" lon="-2.7035">
        <ele>17.6</ele>
        <time>2013-09-29T06:33:25Z</time>
      </trkpt>
      <trkpt lat="48.51125" lon="-2.70351">
        <ele>17.6</ele>
        <time>2013-09-29T06:33:26Z</time>
      </trkpt>
      <trkpt lat="48.51139" lon="-2.70352">
        <ele>18.3</ele>
        <time>2013-09-29T06:33:36Z</time>
      </trkpt>
      <trkpt lat="48.51147" lon="-2.70352">
        <ele>18.2</ele>
        <time>2013-09-29T06:33:40Z</time>
      </trkpt>
      <trkpt lat="48.51155" lon="-2.70351">
        <ele>19</ele>
        <time>2013-09-29T06:33:45Z</time>
      </trkpt>
      <trkpt lat="48.51163" lon="-2.70351">
        <ele>19</ele>
        <time>2013-09-29T06:33:50Z</time>
      </trkpt>
      <trkpt lat="48.51172" lon="-2.7035">
        <ele>19.1</ele>
        <time>2013-09-29T06:33:56Z</time>
      </trkpt>
      <trkpt lat="48.5118" lon="-2.70348">
        <ele>19.6</ele>
        <time>2013-09-29T06:34:02Z</time>
      </trkpt>
      <trkpt lat="48.51188" lon="-2.70346">
        <ele>19.2</ele>
        <time>2013-09-29T06:34:09Z</time>
      </trkpt>
      <trkpt lat="48.51197" lon="-2.70345">
        <ele>20</ele>
        <time>2013-09-29T06:34:15Z</time>
      </trkpt>
      <trkpt lat="48.51206" lon="-2.70344">
        <ele>20.5</ele>
        <time>2013-09-29T06:34:21Z</time>
      </trkpt>
      <trkpt lat="48.51215" lon="-2.70343">
        <ele>20.3</ele>
        <time>2013-09-29T06:34:27Z</time>
      </trkpt>
      <trkpt lat="48.51216" lon="-2.70342">
        <ele>20.5</ele>
        <time>2013-09-29T06:34:28Z</time>
      </trkpt>
      <trkpt lat="48.51231" lon="-2.7034">
        <ele>21.2</ele>
        <time>2013-09-29T06:34:39Z</time>
      </trkpt>
      <trkpt lat="48.51239" lon="-2.70338">
        <ele>21.4</ele>
        <time>2013-09-29T06:34:45Z</time>
      </trkpt>
      <trkpt lat="48.51247" lon="-2.70336">
        <ele>22</ele>
        <time>2013-09-29T06:34:50Z</time>
      </trkpt>
      <trkpt lat="48.51255" lon="-2.70335">
        <ele>22.1</ele>
        <time>2013-09-29T06:34:55Z</time>
      </trkpt>
      <trkpt lat="48.51263" lon="-2.70329">
        <ele>22.7</ele>
        <time>2013-09-29T06:35:17Z</time>
      </trkpt>
      <trkpt lat="48.51271" lon="-2.70333">
        <ele>22.9</ele>
        <time>2013-09-29T06:35:24Z</time>
      </trkpt>
      <trkpt lat="48.51279" lon="-2.70334">
        <ele>23.2</ele>
        <time>2013-09-29T06:35:31Z</time>
      </trkpt>
      <trkpt lat="48.51281" lon="-2.70334">
        <ele>23.3</ele>
        <time>2013-09-29T06:35:32Z</time>
      </trkpt>
      <trkpt lat="48.51297" lon="-2.70337">
        <ele>23.5</ele>
        <time>2013-09-29T06:35:46Z</time>
      </trkpt>
      <trkpt lat="48.51306" lon="-2.70339">
        <ele>24.1</ele>
        <time>2013-09-29T06:35:53Z</time>
      </trkpt>
      <trkpt lat="48.51313" lon="-2.70344">
        <ele>23.7</ele>
        <time>2013-09-29T06:35:58Z</time>
      </trkpt>
      <trkpt lat="48.5132" lon="-2.70348">
        <ele>24.2</ele>
        <time>2013-09-29T06:36:02Z</time>
      </trkpt>
      <trkpt lat="48.51326" lon="-2.70354">
        <ele>24.9</ele>
        <time>2013-09-29T06:36:06Z</time>
      </trkpt>
      <trkpt lat="48.51333" lon="-2.70361">
        <ele>24.9</ele>
        <time>2013-09-29T06:36:11Z</time>
      </trkpt>
      <trkpt lat="48.51341" lon="-2.70368">
        <ele>24.4</ele>
        <time>2013-09-29T06:36:17Z</time>
      </trkpt>
      <trkpt lat="48.51348" lon="-2.70375">
        <ele>24.9</ele>
        <time>2013-09-29T06:36:23Z</time>
      </trkpt>
      <trkpt lat="48.51354" lon="-2.70383">
        <ele>24.8</ele>
        <time>2013-09-29T06:36:29Z</time>
      </trkpt>
      <trkpt lat="48.5136" lon="-2.70391">
        <ele>25.2</ele>
        <time>2013-09-29T06:36:35Z</time>
      </trkpt>
      <trkpt lat="48.5136" lon="-2.70392">
        <ele>25.4</ele>
        <time>2013-09-29T06:36:36Z</time>
      </trkpt>
      <trkpt lat="48.51371" lon="-2.70408">
        <ele>25</ele>
        <time>2013-09-29T06:36:47Z</time>
      </trkpt>
      <trkpt lat="48.51377" lon="-2.70417">
        <ele>25.3</ele>
        <time>2013-09-29T06:36:53Z</time>
      </trkpt>
      <trkpt lat="48.51382" lon="-2.70426">
        <ele>25.8</ele>
        <time>2013-09-29T06:36:59Z</time>
      </trkpt>
      <trkpt lat="48.51387" lon="-2.70437">
        <ele>26.3</ele>
        <time>2013-09-29T06:37:05Z</time>
      </trkpt>
      <trkpt lat="48.51392" lon="-2.70447">
        <ele>26.7</ele>
        <time>2013-09-29T06:37:11Z</time>
      </trkpt>
      <trkpt lat="48.51398" lon="-2.70457">
        <ele>26.3</ele>
        <time>2013-09-29T06:37:17Z</time>
      </trkpt>
      <trkpt lat="48.51403" lon="-2.70466">
        <ele>26.9</ele>
        <time>2013-09-29T06:37:23Z</time>
      </trkpt>
      <trkpt lat="48.51408" lon="-2.70475">
        <ele>26.3</ele>
        <time>2013-09-29T06:37:29Z</time>
      </trkpt>
      <trkpt lat="48.51415" lon="-2.70484">
        <ele>27.2</ele>
        <time>2013-09-29T06:37:36Z</time>
      </trkpt>
      <trkpt lat="48.51421" lon="-2.70492">
        <ele>27.2</ele>
        <time>2013-09-29T06:37:43Z</time>
      </trkpt>
      <trkpt lat="48.51422" lon="-2.70493">
        <ele>27.1</ele>
        <time>2013-09-29T06:37:44Z</time>
      </trkpt>
      <trkpt lat="48.51436" lon="-2.70505">
        <ele>28.6</ele>
        <time>2013-09-29T06:37:57Z</time>
      </trkpt>
      <trkpt lat="48.51443" lon="-2.70512">
        <ele>28.1</ele>
        <time>2013-09-29T06:38:03Z</time>
      </trkpt>
      <trkpt lat="48.5145" lon="-2.70517">
        <ele>28.1</ele>
        <time>2013-09-29T06:38:10Z</time>
      </trkpt>
      <trkpt lat="48.51459" lon="-2.70519">
        <ele>28.4</ele>
        <time>2013-09-29T06:38:18Z</time>
      </trkpt>
      <trkpt lat="48.51467" lon="-2.70522">
        <ele>28.7</ele>
        <time>2013-09-29T06:38:25Z</time>
      </trkpt>
      <trkpt lat="48.51475" lon="-2.70526">
        <ele>29.4</ele>
        <time>2013-09-29T06:38:32Z</time>
      </trkpt>
      <trkpt lat="48.51483" lon="-2.7053">
        <ele>29.8</ele>
        <time>2013-09-29T06:38:38Z</time>
      </trkpt>
      <trkpt lat="48.51491" lon="-2.70535">
        <ele>29.4</ele>
        <time>2013-09-29T06:38:44Z</time>
      </trkpt>
      <trkpt lat="48.51492" lon="-2.70536">
        <ele>29.6</ele>
        <time>2013-09-29T06:38:45Z</time>
      </trkpt>
      <trkpt lat="48.51506" lon="-2.70546">
        <ele>29.5</ele>
        <time>2013-09-29T06:38:56Z</time>
      </trkpt>
      <trkpt lat="48.51513" lon="-2.7055">
        <ele>30.5</ele>
        <time>2013-09-29T06:39:02Z</time>
      </trkpt>
      <trkpt lat="48.51521" lon="-2.70556">
        <ele>31.2</ele>
        <time>2013-09-29T06:39:09Z</time>
      </trkpt>
      <trkpt lat="48.51527" lon="-2.70564">
        <ele>31.3</ele>
        <time>2013-09-29T06:39:16Z</time>
      </trkpt>
      <trkpt lat="48.51533" lon="-2.70571">
        <ele>31.5</ele>
        <time>2013-09-29T06:39:22Z</time>
      </trkpt>
      <trkpt lat="48.51539" lon="-2.70579">
        <ele>31.7</ele>
        <time>2013-09-29T06:39:26Z</time>
      </trkpt>
      <trkpt lat="48.51544" lon="-2.70587">
        <ele>32.2</ele>
        <time>2013-09-29T06:39:30Z</time>
      </trkpt>
      <trkpt lat="48.5155" lon="-2.70597">
        <ele>32.6</ele>
        <time>2013-09-29T06:39:36Z</time>
      </trkpt>
      <trkpt lat="48.51555" lon="-2.70606">
        <ele>32.5</ele>
        <time>2013-09-29T06:39:42Z</time>
      </trkpt>
      <trkpt lat="48.51559" lon="-2.70616">
        <ele>32.4</ele>
        <time>2013-09-29T06:39:48Z</time>
      </trkpt>
      <trkpt lat="48.5156" lon="-2.70618">
        <ele>31.8</ele>
        <time>2013-09-29T06:39:49Z</time>
      </trkpt>
      <trkpt lat="48.51567" lon="-2.70638">
        <ele>31.9</ele>
        <time>2013-09-29T06:40:00Z</time>
      </trkpt>
      <trkpt lat="48.5157" lon="-2.70649">
        <ele>31.6</ele>
        <time>2013-09-29T06:40:06Z</time>
      </trkpt>
      <trkpt lat="48.51573" lon="-2.70661">
        <ele>31.7</ele>
        <time>2013-09-29T06:40:12Z</time>
      </trkpt>
      <trkpt lat="48.51578" lon="-2.70672">
        <ele>32</ele>
        <time>2013-09-29T06:40:18Z</time>
      </trkpt>
      <trkpt lat="48.51581" lon="-2.70683">
        <ele>31.9</ele>
        <time>2013-09-29T06:40:24Z</time>
      </trkpt>
      <trkpt lat="48.51585" lon="-2.70695">
        <ele>30.8</ele>
        <time>2013-09-29T06:40:30Z</time>
      </trkpt>
      <trkpt lat="48.51588" lon="-2.70706">
        <ele>31.1</ele>
        <time>2013-09-29T06:40:36Z</time>
      </trkpt>
      <trkpt lat="48.51592" lon="-2.70718">
        <ele>30.9</ele>
        <time>2013-09-29T06:40:42Z</time>
      </trkpt>
      <trkpt lat="48.51595" lon="-2.70729">
        <ele>29.5</ele>
        <time>2013-09-29T06:40:48Z</time>
      </trkpt>
      <trkpt lat="48.516" lon="-2.70739">
        <ele>29.2</ele>
        <time>2013-09-29T06:40:54Z</time>
      </trkpt>
      <trkpt lat="48.516" lon="-2.70741">
        <ele>29.4</ele>
        <time>2013-09-29T06:40:55Z</time>
      </trkpt>
      <trkpt lat="48.51607" lon="-2.70762">
        <ele>29.3</ele>
        <time>2013-09-29T06:41:06Z</time>
      </trkpt>
      <trkpt lat="48.51611" lon="-2.70773">
        <ele>29.5</ele>
        <time>2013-09-29T06:41:12Z</time>
      </trkpt>
      <trkpt lat="48.51615" lon="-2.70783">
        <ele>29.5</ele>
        <time>2013-09-29T06:41:18Z</time>
      </trkpt>
      <trkpt lat="48.51618" lon="-2.70793">
        <ele>28.4</ele>
        <time>2013-09-29T06:41:23Z</time>
      </trkpt>
      <trkpt lat="48.51621" lon="-2.70804">
        <ele>28.6</ele>
        <time>2013-09-29T06:41:27Z</time>
      </trkpt>
      <trkpt lat="48.51625" lon="-2.70815">
        <ele>28.3</ele>
        <time>2013-09-29T06:41:32Z</time>
      </trkpt>
      <trkpt lat="48.51628" lon="-2.70825">
        <ele>28.2</ele>
        <time>2013-09-29T06:41:37Z</time>
      </trkpt>
      <trkpt lat="48.51631" lon="-2.70838">
        <ele>29.1</ele>
        <time>2013-09-29T06:41:43Z</time>
      </trkpt>
      <trkpt lat="48.51632" lon="-2.70849">
        <ele>28.5</ele>
        <time>2013-09-29T06:41:48Z</time>
      </trkpt>
      <trkpt lat="48.51634" lon="-2.70861">
        <ele>27.6</ele>
        <time>2013-09-29T06:41:54Z</time>
      </trkpt>
      <trkpt lat="48.51635" lon="-2.70875">
        <ele>27.7</ele>
        <time>2013-09-29T06:42:00Z</time>
      </trkpt>
      <trkpt lat="48.51635" lon="-2.70877">
        <ele>27.2</ele>
        <time>2013-09-29T06:42:01Z</time>
      </trkpt>
      <trkpt lat="48.51636" lon="-2.709">
        <ele>27.3</ele>
        <time>2013-09-29T06:42:12Z</time>
      </trkpt>
      <trkpt lat="48.51636" lon="-2.70914">
        <ele>26.8</ele>
        <time>2013-09-29T06:42:18Z</time>
      </trkpt>
      <trkpt lat="48.51635" lon="-2.70925">
        <ele>27.1</ele>
        <time>2013-09-29T06:42:23Z</time>
      </trkpt>
      <trkpt lat="48.51634" lon="-2.70939">
        <ele>26.5</ele>
        <time>2013-09-29T06:42:29Z</time>
      </trkpt>
      <trkpt lat="48.51634" lon="-2.70952">
        <ele>26.1</ele>
        <time>2013-09-29T06:42:35Z</time>
      </trkpt>
      <trkpt lat="48.51634" lon="-2.70964">
        <ele>25</ele>
        <time>2013-09-29T06:42:40Z</time>
      </trkpt>
      <trkpt lat="48.51633" lon="-2.70977">
        <ele>26</ele>
        <time>2013-09-29T06:42:46Z</time>
      </trkpt>
      <trkpt lat="48.51633" lon="-2.70988">
        <ele>25.8</ele>
        <time>2013-09-29T06:42:51Z</time>
      </trkpt>
      <trkpt lat="48.51633" lon="-2.71001">
        <ele>25.3</ele>
        <time>2013-09-29T06:42:57Z</time>
      </trkpt>
      <trkpt lat="48.51633" lon="-2.71014">
        <ele>23.5</ele>
        <time>2013-09-29T06:43:03Z</time>
      </trkpt>
      <trkpt lat="48.51633" lon="-2.71017">
        <ele>23.7</ele>
        <time>2013-09-29T06:43:04Z</time>
      </trkpt>
      <trkpt lat="48.51632" lon="-2.7104">
        <ele>24.2</ele>
        <time>2013-09-29T06:43:56Z</time>
      </trkpt>
      <trkpt lat="48.51634" lon="-2.71053">
        <ele>23.5</ele>
        <time>2013-09-29T06:44:06Z</time>
      </trkpt>
      <trkpt lat="48.51635" lon="-2.71054">
        <ele>23.5</ele>
        <time>2013-09-29T06:44:07Z</time>
      </trkpt>
      <trkpt lat="48.51642" lon="-2.71075">
        <ele>21</ele>
        <time>2013-09-29T06:44:20Z</time>
      </trkpt>
      <trkpt lat="48.51649" lon="-2.71083">
        <ele>21.5</ele>
        <time>2013-09-29T06:44:27Z</time>
      </trkpt>
      <trkpt lat="48.51657" lon="-2.71088">
        <ele>19.7</ele>
        <time>2013-09-29T06:44:34Z</time>
      </trkpt>
      <trkpt lat="48.51664" lon="-2.71092">
        <ele>20.3</ele>
        <time>2013-09-29T06:44:40Z</time>
      </trkpt>
      <trkpt lat="48.51673" lon="-2.71096">
        <ele>19.4</ele>
        <time>2013-09-29T06:44:47Z</time>
      </trkpt>
      <trkpt lat="48.5168" lon="-2.711">
        <ele>17.8</ele>
        <time>2013-09-29T06:44:58Z</time>
      </trkpt>
      <trkpt lat="48.51688" lon="-2.71105">
        <ele>17.7</ele>
        <time>2013-09-29T06:45:08Z</time>
      </trkpt>
      <trkpt lat="48.51688" lon="-2.71106">
        <ele>17.7</ele>
        <time>2013-09-29T06:45:09Z</time>
      </trkpt>
      <trkpt lat="48.51703" lon="-2.71114">
        <ele>15.3</ele>
        <time>2013-09-29T06:46:03Z</time>
      </trkpt>
      <trkpt lat="48.51709" lon="-2.71122">
        <ele>14.5</ele>
        <time>2013-09-29T06:46:14Z</time>
      </trkpt>
      <trkpt lat="48.5171" lon="-2.71123">
        <ele>14.4</ele>
        <time>2013-09-29T06:46:15Z</time>
      </trkpt>
      <trkpt lat="48.51722" lon="-2.71139">
        <ele>12.2</ele>
        <time>2013-09-29T06:46:35Z</time>
      </trkpt>
      <trkpt lat="48.51729" lon="-2.71148">
        <ele>11.4</ele>
        <time>2013-09-29T06:46:42Z</time>
      </trkpt>
      <trkpt lat="48.51734" lon="-2.71156">
        <ele>11.3</ele>
        <time>2013-09-29T06:46:48Z</time>
      </trkpt>
      <trkpt lat="48.51739" lon="-2.71166">
        <ele>9.4</ele>
        <time>2013-09-29T06:46:54Z</time>
      </trkpt>
      <trkpt lat="48.51745" lon="-2.71174">
        <ele>8.9</ele>
        <time>2013-09-29T06:47:00Z</time>
      </trkpt>
      <trkpt lat="48.51749" lon="-2.71184">
        <ele>8.6</ele>
        <time>2013-09-29T06:47:06Z</time>
      </trkpt>
      <trkpt lat="48.51753" lon="-2.71195">
        <ele>9.5</ele>
        <time>2013-09-29T06:47:12Z</time>
      </trkpt>
      <trkpt lat="48.51756" lon="-2.71206">
        <ele>9.8</ele>
        <time>2013-09-29T06:47:18Z</time>
      </trkpt>
      <trkpt lat="48.51757" lon="-2.71208">
        <ele>9.9</ele>
        <time>2013-09-29T06:47:19Z</time>
      </trkpt>
      <trkpt lat="48.51762" lon="-2.71229">
        <ele>9.8</ele>
        <time>2013-09-29T06:47:30Z</time>
      </trkpt>
      <trkpt lat="48.51765" lon="-2.7124">
        <ele>9.6</ele>
        <time>2013-09-29T06:47:36Z</time>
      </trkpt>
      <trkpt lat="48.51768" lon="-2.71251">
        <ele>9.9</ele>
        <time>2013-09-29T06:47:42Z</time>
      </trkpt>
      <trkpt lat="48.51772" lon="-2.71262">
        <ele>9.5</ele>
        <time>2013-09-29T06:47:48Z</time>
      </trkpt>
      <trkpt lat="48.51775" lon="-2.71273">
        <ele>9.1</ele>
        <time>2013-09-29T06:47:54Z</time>
      </trkpt>
      <trkpt lat="48.51778" lon="-2.71284">
        <ele>8.6</ele>
        <time>2013-09-29T06:48:00Z</time>
      </trkpt>
      <trkpt lat="48.51782" lon="-2.71295">
        <ele>7.9</ele>
        <time>2013-09-29T06:48:06Z</time>
      </trkpt>
      <trkpt lat="48.51785" lon="-2.71306">
        <ele>9</ele>
        <time>2013-09-29T06:48:12Z</time>
      </trkpt>
      <trkpt lat="48.51789" lon="-2.71317">
        <ele>10.4</ele>
        <time>2013-09-29T06:48:19Z</time>
      </trkpt>
      <trkpt lat="48.51789" lon="-2.71319">
        <ele>10.1</ele>
        <time>2013-09-29T06:48:20Z</time>
      </trkpt>
      <trkpt lat="48.51796" lon="-2.7134">
        <ele>9.1</ele>
        <time>2013-09-29T06:48:33Z</time>
      </trkpt>
      <trkpt lat="48.51799" lon="-2.71352">
        <ele>9.8</ele>
        <time>2013-09-29T06:48:40Z</time>
      </trkpt>
      <trkpt lat="48.51803" lon="-2.71363">
        <ele>10.4</ele>
        <time>2013-09-29T06:48:46Z</time>
      </trkpt>
      <trkpt lat="48.51806" lon="-2.71374">
        <ele>9.8</ele>
        <time>2013-09-29T06:48:52Z</time>
      </trkpt>
      <trkpt lat="48.5181" lon="-2.71385">
        <ele>9.9</ele>
        <time>2013-09-29T06:48:58Z</time>
      </trkpt>
      <trkpt lat="48.51814" lon="-2.71396">
        <ele>9.7</ele>
        <time>2013-09-29T06:49:04Z</time>
      </trkpt>
      <trkpt lat="48.51818" lon="-2.71406">
        <ele>9.9</ele>
        <time>2013-09-29T06:49:10Z</time>
      </trkpt>
      <trkpt lat="48.51822" lon="-2.71418">
        <ele>10.1</ele>
        <time>2013-09-29T06:49:17Z</time>
      </trkpt>
      <trkpt lat="48.51826" lon="-2.71429">
        <ele>10.2</ele>
        <time>2013-09-29T06:49:23Z</time>
      </trkpt>
      <trkpt lat="48.51827" lon="-2.7143">
        <ele>10.6</ele>
        <time>2013-09-29T06:49:24Z</time>
      </trkpt>
      <trkpt lat="48.51834" lon="-2.7145">
        <ele>10.8</ele>
        <time>2013-09-29T06:49:35Z</time>
      </trkpt>
      <trkpt lat="48.51838" lon="-2.7146">
        <ele>10.1</ele>
        <time>2013-09-29T06:49:41Z</time>
      </trkpt>
      <trkpt lat="48.51842" lon="-2.7147">
        <ele>8.5</ele>
        <time>2013-09-29T06:49:47Z</time>
      </trkpt>
      <trkpt lat="48.51847" lon="-2.71481">
        <ele>8.5</ele>
        <time>2013-09-29T06:49:53Z</time>
      </trkpt>
      <trkpt lat="48.51851" lon="-2.71492">
        <ele>8.3</ele>
        <time>2013-09-29T06:49:59Z</time>
      </trkpt>
      <trkpt lat="48.51855" lon="-2.71503">
        <ele>8.8</ele>
        <time>2013-09-29T06:50:05Z</time>
      </trkpt>
      <trkpt lat="48.51859" lon="-2.71513">
        <ele>8.4</ele>
        <time>2013-09-29T06:50:11Z</time>
      </trkpt>
      <trkpt lat="48.51864" lon="-2.71524">
        <ele>8.1</ele>
        <time>2013-09-29T06:50:17Z</time>
      </trkpt>
      <trkpt lat="48.51868" lon="-2.71536">
        <ele>8.3</ele>
        <time>2013-09-29T06:50:23Z</time>
      </trkpt>
      <trkpt lat="48.51872" lon="-2.71546">
        <ele>7.6</ele>
        <time>2013-09-29T06:50:29Z</time>
      </trkpt>
      <trkpt lat="48.51872" lon="-2.71548">
        <ele>7.3</ele>
        <time>2013-09-29T06:50:30Z</time>
      </trkpt>
      <trkpt lat="48.51881" lon="-2.71567">
        <ele>7.7</ele>
        <time>2013-09-29T06:50:42Z</time>
      </trkpt>
      <trkpt lat="48.51885" lon="-2.71579">
        <ele>7.9</ele>
        <time>2013-09-29T06:50:49Z</time>
      </trkpt>
      <trkpt lat="48.51889" lon="-2.71589">
        <ele>7.2</ele>
        <time>2013-09-29T06:50:56Z</time>
      </trkpt>
      <trkpt lat="48.51896" lon="-2.71599">
        <ele>7.4</ele>
        <time>2013-09-29T06:51:02Z</time>
      </trkpt>
      <trkpt lat="48.51903" lon="-2.71605">
        <ele>7.4</ele>
        <time>2013-09-29T06:51:08Z</time>
      </trkpt>
      <trkpt lat="48.51911" lon="-2.71605">
        <ele>7.2</ele>
        <time>2013-09-29T06:51:14Z</time>
      </trkpt>
      <trkpt lat="48.51919" lon="-2.71603">
        <ele>7.2</ele>
        <time>2013-09-29T06:51:21Z</time>
      </trkpt>
      <trkpt lat="48.51927" lon="-2.71597">
        <ele>7.5</ele>
        <time>2013-09-29T06:51:28Z</time>
      </trkpt>
      <trkpt lat="48.51935" lon="-2.71592">
        <ele>6.8</ele>
        <time>2013-09-29T06:51:35Z</time>
      </trkpt>
      <trkpt lat="48.51936" lon="-2.71591">
        <ele>6.5</ele>
        <time>2013-09-29T06:51:36Z</time>
      </trkpt>
      <trkpt lat="48.51944" lon="-2.71572">
        <ele>7.8</ele>
        <time>2013-09-29T06:52:08Z</time>
      </trkpt>
      <trkpt lat="48.51951" lon="-2.71575">
        <ele>7.6</ele>
        <time>2013-09-29T06:52:28Z</time>
      </trkpt>
      <trkpt lat="48.51959" lon="-2.71573">
        <ele>6.6</ele>
        <time>2013-09-29T06:52:34Z</time>
      </trkpt>
      <trkpt lat="48.51967" lon="-2.71571">
        <ele>7.9</ele>
        <time>2013-09-29T06:52:40Z</time>
      </trkpt>
      <trkpt lat="48.51968" lon="-2.7157">
        <ele>8.2</ele>
        <time>2013-09-29T06:52:41Z</time>
      </trkpt>
      <trkpt lat="48.51984" lon="-2.71561">
        <ele>8.6</ele>
        <time>2013-09-29T06:52:54Z</time>
      </trkpt>
      <trkpt lat="48.51991" lon="-2.71558">
        <ele>8.5</ele>
        <time>2013-09-29T06:53:00Z</time>
      </trkpt>
      <trkpt lat="48.51999" lon="-2.71553">
        <ele>9.1</ele>
        <time>2013-09-29T06:53:06Z</time>
      </trkpt>
      <trkpt lat="48.52006" lon="-2.71548">
        <ele>9</ele>
        <time>2013-09-29T06:53:12Z</time>
      </trkpt>
      <trkpt lat="48.52014" lon="-2.71542">
        <ele>9.6</ele>
        <time>2013-09-29T06:53:18Z</time>
      </trkpt>
      <trkpt lat="48.52021" lon="-2.71537">
        <ele>10.2</ele>
        <time>2013-09-29T06:53:24Z</time>
      </trkpt>
      <trkpt lat="48.52029" lon="-2.71532">
        <ele>8.4</ele>
        <time>2013-09-29T06:53:30Z</time>
      </trkpt>
      <trkpt lat="48.52037" lon="-2.71527">
        <ele>8.8</ele>
        <time>2013-09-29T06:53:36Z</time>
      </trkpt>
      <trkpt lat="48.52045" lon="-2.71522">
        <ele>10.6</ele>
        <time>2013-09-29T06:53:42Z</time>
      </trkpt>
      <trkpt lat="48.52046" lon="-2.71521">
        <ele>10.6</ele>
        <time>2013-09-29T06:53:43Z</time>
      </trkpt>
      <trkpt lat="48.5206" lon="-2.71511">
        <ele>10.8</ele>
        <time>2013-09-29T06:53:54Z</time>
      </trkpt>
      <trkpt lat="48.52069" lon="-2.71507">
        <ele>9.6</ele>
        <time>2013-09-29T06:54:00Z</time>
      </trkpt>
      <trkpt lat="48.52077" lon="-2.71501">
        <ele>11.2</ele>
        <time>2013-09-29T06:54:06Z</time>
      </trkpt>
      <trkpt lat="48.52084" lon="-2.71496">
        <ele>11.5</ele>
        <time>2013-09-29T06:54:12Z</time>
      </trkpt>
      <trkpt lat="48.52092" lon="-2.71491">
        <ele>11.4</ele>
        <time>2013-09-29T06:54:18Z</time>
      </trkpt>
      <trkpt lat="48.52099" lon="-2.71486">
        <ele>11.2</ele>
        <time>2013-09-29T06:54:24Z</time>
      </trkpt>
      <trkpt lat="48.52107" lon="-2.71481">
        <ele>10.4</ele>
        <time>2013-09-29T06:54:30Z</time>
      </trkpt>
      <trkpt lat="48.52114" lon="-2.71476">
        <ele>9.9</ele>
        <time>2013-09-29T06:54:36Z</time>
      </trkpt>
      <trkpt lat="48.52122" lon="-2.71472">
        <ele>11.2</ele>
        <time>2013-09-29T06:54:41Z</time>
      </trkpt>
      <trkpt lat="48.5213" lon="-2.71467">
        <ele>10.7</ele>
        <time>2013-09-29T06:54:47Z</time>
      </trkpt>
      <trkpt lat="48.52131" lon="-2.71466">
        <ele>10.7</ele>
        <time>2013-09-29T06:54:48Z</time>
      </trkpt>
      <trkpt lat="48.52145" lon="-2.71458">
        <ele>10.8</ele>
        <time>2013-09-29T06:54:59Z</time>
      </trkpt>
      <trkpt lat="48.52152" lon="-2.7145">
        <ele>10.9</ele>
        <time>2013-09-29T06:55:06Z</time>
      </trkpt>
      <trkpt lat="48.52159" lon="-2.71442">
        <ele>9.8</ele>
        <time>2013-09-29T06:55:13Z</time>
      </trkpt>
      <trkpt lat="48.52166" lon="-2.71434">
        <ele>11.6</ele>
        <time>2013-09-29T06:55:19Z</time>
      </trkpt>
      <trkpt lat="48.52173" lon="-2.71427">
        <ele>12</ele>
        <time>2013-09-29T06:55:25Z</time>
      </trkpt>
      <trkpt lat="48.52179" lon="-2.71417">
        <ele>11.5</ele>
        <time>2013-09-29T06:55:32Z</time>
      </trkpt>
      <trkpt lat="48.52185" lon="-2.71408">
        <ele>10.9</ele>
        <time>2013-09-29T06:55:39Z</time>
      </trkpt>
      <trkpt lat="48.52191" lon="-2.71399">
        <ele>10</ele>
        <time>2013-09-29T06:55:45Z</time>
      </trkpt>
      <trkpt lat="48.52196" lon="-2.7139">
        <ele>11.1</ele>
        <time>2013-09-29T06:55:51Z</time>
      </trkpt>
      <trkpt lat="48.52197" lon="-2.71388">
        <ele>11</ele>
        <time>2013-09-29T06:55:52Z</time>
      </trkpt>
      <trkpt lat="48.52208" lon="-2.71372">
        <ele>11.1</ele>
        <time>2013-09-29T06:56:03Z</time>
      </trkpt>
      <trkpt lat="48.52212" lon="-2.71362">
        <ele>10.4</ele>
        <time>2013-09-29T06:56:09Z</time>
      </trkpt>
      <trkpt lat="48.52218" lon="-2.71353">
        <ele>11.1</ele>
        <time>2013-09-29T06:56:15Z</time>
      </trkpt>
      <trkpt lat="48.52223" lon="-2.71344">
        <ele>10.6</ele>
        <time>2013-09-29T06:56:21Z</time>
      </trkpt>
      <trkpt lat="48.52229" lon="-2.71335">
        <ele>10.9</ele>
        <time>2013-09-29T06:56:27Z</time>
      </trkpt>
      <trkpt lat="48.52237" lon="-2.71338">
        <ele>10.6</ele>
        <time>2013-09-29T06:56:37Z</time>
      </trkpt>
      <trkpt lat="48.52242" lon="-2.71349">
        <ele>10.9</ele>
        <time>2013-09-29T06:56:44Z</time>
      </trkpt>
      <trkpt lat="48.52248" lon="-2.71357">
        <ele>10.7</ele>
        <time>2013-09-29T06:56:50Z</time>
      </trkpt>
      <trkpt lat="48.52254" lon="-2.71367">
        <ele>11.2</ele>
        <time>2013-09-29T06:56:57Z</time>
      </trkpt>
      <trkpt lat="48.52255" lon="-2.71368">
        <ele>11.3</ele>
        <time>2013-09-29T06:56:58Z</time>
      </trkpt>
      <trkpt lat="48.52267" lon="-2.71383">
        <ele>11.5</ele>
        <time>2013-09-29T06:57:10Z</time>
      </trkpt>
      <trkpt lat="48.52273" lon="-2.7139">
        <ele>12.3</ele>
        <time>2013-09-29T06:57:16Z</time>
      </trkpt>
      <trkpt lat="48.5228" lon="-2.71397">
        <ele>10.8</ele>
        <time>2013-09-29T06:57:23Z</time>
      </trkpt>
      <trkpt lat="48.52289" lon="-2.714">
        <ele>14.5</ele>
        <time>2013-09-29T06:57:38Z</time>
      </trkpt>
      <trkpt lat="48.52296" lon="-2.71407">
        <ele>14.7</ele>
        <time>2013-09-29T06:57:51Z</time>
      </trkpt>
      <trkpt lat="48.52296" lon="-2.7142">
        <ele>17.6</ele>
        <time>2013-09-29T06:58:09Z</time>
      </trkpt>
      <trkpt lat="48.52295" lon="-2.71421">
        <ele>17.6</ele>
        <time>2013-09-29T06:58:10Z</time>
      </trkpt>
      <trkpt lat="48.52296" lon="-2.71444">
        <ele>20.2</ele>
        <time>2013-09-29T06:58:24Z</time>
      </trkpt>
      <trkpt lat="48.52297" lon="-2.71456">
        <ele>20.6</ele>
        <time>2013-09-29T06:58:34Z</time>
      </trkpt>
      <trkpt lat="48.523" lon="-2.71469">
        <ele>22.3</ele>
        <time>2013-09-29T06:58:44Z</time>
      </trkpt>
      <trkpt lat="48.52302" lon="-2.71481">
        <ele>24</ele>
        <time>2013-09-29T06:58:52Z</time>
      </trkpt>
      <trkpt lat="48.52302" lon="-2.71494">
        <ele>24.8</ele>
        <time>2013-09-29T06:59:01Z</time>
      </trkpt>
      <trkpt lat="48.52301" lon="-2.71507">
        <ele>26.7</ele>
        <time>2013-09-29T06:59:10Z</time>
      </trkpt>
      <trkpt lat="48.523" lon="-2.71509">
        <ele>26.5</ele>
        <time>2013-09-29T06:59:11Z</time>
      </trkpt>
      <trkpt lat="48.52292" lon="-2.7153">
        <ele>30.1</ele>
        <time>2013-09-29T06:59:34Z</time>
      </trkpt>
      <trkpt lat="48.52289" lon="-2.71543">
        <ele>30.7</ele>
        <time>2013-09-29T07:00:20Z</time>
      </trkpt>
      <trkpt lat="48.52289" lon="-2.71544">
        <ele>31.2</ele>
        <time>2013-09-29T07:00:21Z</time>
      </trkpt>
      <trkpt lat="48.5228" lon="-2.71564">
        <ele>31.7</ele>
        <time>2013-09-29T07:00:38Z</time>
      </trkpt>
      <trkpt lat="48.52275" lon="-2.71574">
        <ele>31.2</ele>
        <time>2013-09-29T07:00:44Z</time>
      </trkpt>
      <trkpt lat="48.5227" lon="-2.71585">
        <ele>30.6</ele>
        <time>2013-09-29T07:00:51Z</time>
      </trkpt>
      <trkpt lat="48.52266" lon="-2.71596">
        <ele>30.3</ele>
        <time>2013-09-29T07:00:57Z</time>
      </trkpt>
      <trkpt lat="48.52263" lon="-2.71606">
        <ele>31.7</ele>
        <time>2013-09-29T07:01:03Z</time>
      </trkpt>
      <trkpt lat="48.5226" lon="-2.71618">
        <ele>31.4</ele>
        <time>2013-09-29T07:01:09Z</time>
      </trkpt>
      <trkpt lat="48.52258" lon="-2.7163">
        <ele>31</ele>
        <time>2013-09-29T07:01:15Z</time>
      </trkpt>
      <trkpt lat="48.52258" lon="-2.71643">
        <ele>32.3</ele>
        <time>2013-09-29T07:01:20Z</time>
      </trkpt>
      <trkpt lat="48.52258" lon="-2.71655">
        <ele>31</ele>
        <time>2013-09-29T07:01:26Z</time>
      </trkpt>
      <trkpt lat="48.52257" lon="-2.71657">
        <ele>31</ele>
        <time>2013-09-29T07:01:27Z</time>
      </trkpt>
      <trkpt lat="48.52261" lon="-2.7168">
        <ele>33.4</ele>
        <time>2013-09-29T07:01:43Z</time>
      </trkpt>
      <trkpt lat="48.52258" lon="-2.71691">
        <ele>34.7</ele>
        <time>2013-09-29T07:01:51Z</time>
      </trkpt>
      <trkpt lat="48.52255" lon="-2.71702">
        <ele>34.7</ele>
        <time>2013-09-29T07:01:58Z</time>
      </trkpt>
      <trkpt lat="48.52251" lon="-2.71714">
        <ele>33.9</ele>
        <time>2013-09-29T07:02:05Z</time>
      </trkpt>
      <trkpt lat="48.52248" lon="-2.71726">
        <ele>34.7</ele>
        <time>2013-09-29T07:02:12Z</time>
      </trkpt>
      <trkpt lat="48.52256" lon="-2.71733">
        <ele>33.7</ele>
        <time>2013-09-29T07:02:27Z</time>
      </trkpt>
      <trkpt lat="48.52258" lon="-2.71732">
        <ele>33.2</ele>
        <time>2013-09-29T07:02:28Z</time>
      </trkpt>
      <trkpt lat="48.52273" lon="-2.71729">
        <ele>37</ele>
        <time>2013-09-29T07:02:40Z</time>
      </trkpt>
      <trkpt lat="48.52282" lon="-2.71727">
        <ele>38.1</ele>
        <time>2013-09-29T07:02:48Z</time>
      </trkpt>
      <trkpt lat="48.5229" lon="-2.71728">
        <ele>38.5</ele>
        <time>2013-09-29T07:02:55Z</time>
      </trkpt>
      <trkpt lat="48.52298" lon="-2.71731">
        <ele>39.5</ele>
        <time>2013-09-29T07:03:01Z</time>
      </trkpt>
      <trkpt lat="48.52303" lon="-2.71741">
        <ele>40.7</ele>
        <time>2013-09-29T07:03:19Z</time>
      </trkpt>
      <trkpt lat="48.52312" lon="-2.71737">
        <ele>38.7</ele>
        <time>2013-09-29T07:03:40Z</time>
      </trkpt>
      <trkpt lat="48.52313" lon="-2.71737">
        <ele>38.9</ele>
        <time>2013-09-29T07:03:41Z</time>
      </trkpt>
      <trkpt lat="48.52329" lon="-2.7174">
        <ele>38.7</ele>
        <time>2013-09-29T07:03:56Z</time>
      </trkpt>
      <trkpt lat="48.52337" lon="-2.71744">
        <ele>39.1</ele>
        <time>2013-09-29T07:04:03Z</time>
      </trkpt>
      <trkpt lat="48.52346" lon="-2.71748">
        <ele>38.2</ele>
        <time>2013-09-29T07:04:10Z</time>
      </trkpt>
      <trkpt lat="48.52354" lon="-2.71753">
        <ele>36.8</ele>
        <time>2013-09-29T07:04:17Z</time>
      </trkpt>
      <trkpt lat="48.52362" lon="-2.71759">
        <ele>34.7</ele>
        <time>2013-09-29T07:04:24Z</time>
      </trkpt>
      <trkpt lat="48.52369" lon="-2.71764">
        <ele>35.9</ele>
        <time>2013-09-29T07:04:30Z</time>
      </trkpt>
      <trkpt lat="48.52377" lon="-2.71769">
        <ele>34.6</ele>
        <time>2013-09-29T07:04:37Z</time>
      </trkpt>
      <trkpt lat="48.52386" lon="-2.71774">
        <ele>34.1</ele>
        <time>2013-09-29T07:04:44Z</time>
      </trkpt>
      <trkpt lat="48.52387" lon="-2.71775">
        <ele>33.8</ele>
        <time>2013-09-29T07:04:45Z</time>
      </trkpt>
      <trkpt lat="48.52401" lon="-2.71782">
        <ele>29.6</ele>
        <time>2013-09-29T07:04:56Z</time>
      </trkpt>
      <trkpt lat="48.52409" lon="-2.71784">
        <ele>29.6</ele>
        <time>2013-09-29T07:05:27Z</time>
      </trkpt>
      <trkpt lat="48.52416" lon="-2.71792">
        <ele>30.2</ele>
        <time>2013-09-29T07:05:34Z</time>
      </trkpt>
      <trkpt lat="48.52424" lon="-2.71798">
        <ele>30</ele>
        <time>2013-09-29T07:05:41Z</time>
      </trkpt>
      <trkpt lat="48.52432" lon="-2.71803">
        <ele>27.6</ele>
        <time>2013-09-29T07:05:48Z</time>
      </trkpt>
      <trkpt lat="48.52433" lon="-2.71804">
        <ele>27.4</ele>
        <time>2013-09-29T07:05:49Z</time>
      </trkpt>
      <trkpt lat="48.52447" lon="-2.71815">
        <ele>29.4</ele>
        <time>2013-09-29T07:06:01Z</time>
      </trkpt>
      <trkpt lat="48.52453" lon="-2.71821">
        <ele>29.9</ele>
        <time>2013-09-29T07:06:07Z</time>
      </trkpt>
      <trkpt lat="48.52461" lon="-2.71815">
        <ele>28.1</ele>
        <time>2013-09-29T07:06:18Z</time>
      </trkpt>
      <trkpt lat="48.52465" lon="-2.71804">
        <ele>28.2</ele>
        <time>2013-09-29T07:06:24Z</time>
      </trkpt>
      <trkpt lat="48.52469" lon="-2.71793">
        <ele>26.5</ele>
        <time>2013-09-29T07:06:30Z</time>
      </trkpt>
      <trkpt lat="48.52473" lon="-2.71783">
        <ele>25.8</ele>
        <time>2013-09-29T07:06:36Z</time>
      </trkpt>
      <trkpt lat="48.52477" lon="-2.71772">
        <ele>25.2</ele>
        <time>2013-09-29T07:06:42Z</time>
      </trkpt>
      <trkpt lat="48.52481" lon="-2.71763">
        <ele>24.4</ele>
        <time>2013-09-29T07:06:48Z</time>
      </trkpt>
      <trkpt lat="48.52487" lon="-2.71753">
        <ele>23.9</ele>
        <time>2013-09-29T07:06:55Z</time>
      </trkpt>
      <trkpt lat="48.52488" lon="-2.71752">
        <ele>23.8</ele>
        <time>2013-09-29T07:06:56Z</time>
      </trkpt>
      <trkpt lat="48.52499" lon="-2.71738">
        <ele>22.5</ele>
        <time>2013-09-29T07:07:07Z</time>
      </trkpt>
      <trkpt lat="48.52506" lon="-2.71729">
        <ele>20.7</ele>
        <time>2013-09-29T07:07:14Z</time>
      </trkpt>
      <trkpt lat="48.52512" lon="-2.7172">
        <ele>20.9</ele>
        <time>2013-09-29T07:07:21Z</time>
      </trkpt>
      <trkpt lat="48.52517" lon="-2.71711">
        <ele>19</ele>
        <time>2013-09-29T07:07:28Z</time>
      </trkpt>
      <trkpt lat="48.52521" lon="-2.71698">
        <ele>18.3</ele>
        <time>2013-09-29T07:07:36Z</time>
      </trkpt>
      <trkpt lat="48.52525" lon="-2.71687">
        <ele>18.7</ele>
        <time>2013-09-29T07:07:43Z</time>
      </trkpt>
      <trkpt lat="48.52528" lon="-2.71675">
        <ele>17.8</ele>
        <time>2013-09-29T07:07:50Z</time>
      </trkpt>
      <trkpt lat="48.52531" lon="-2.71663">
        <ele>17.9</ele>
        <time>2013-09-29T07:07:58Z</time>
      </trkpt>
      <trkpt lat="48.52532" lon="-2.71662">
        <ele>17.8</ele>
        <time>2013-09-29T07:07:59Z</time>
      </trkpt>
      <trkpt lat="48.52547" lon="-2.71658">
        <ele>17.6</ele>
        <time>2013-09-29T07:08:13Z</time>
      </trkpt>
      <trkpt lat="48.52555" lon="-2.71654">
        <ele>16.7</ele>
        <time>2013-09-29T07:08:20Z</time>
      </trkpt>
      <trkpt lat="48.52562" lon="-2.71648">
        <ele>16</ele>
        <time>2013-09-29T07:08:27Z</time>
      </trkpt>
      <trkpt lat="48.52568" lon="-2.7164">
        <ele>15.6</ele>
        <time>2013-09-29T07:08:35Z</time>
      </trkpt>
      <trkpt lat="48.52573" lon="-2.7163">
        <ele>14.3</ele>
        <time>2013-09-29T07:08:42Z</time>
      </trkpt>
      <trkpt lat="48.52577" lon="-2.71618">
        <ele>15.4</ele>
        <time>2013-09-29T07:08:50Z</time>
      </trkpt>
      <trkpt lat="48.52581" lon="-2.71608">
        <ele>13.2</ele>
        <time>2013-09-29T07:08:56Z</time>
      </trkpt>
      <trkpt lat="48.52584" lon="-2.71596">
        <ele>13</ele>
        <time>2013-09-29T07:09:02Z</time>
      </trkpt>
      <trkpt lat="48.52584" lon="-2.71594">
        <ele>13.1</ele>
        <time>2013-09-29T07:09:03Z</time>
      </trkpt>
      <trkpt lat="48.52594" lon="-2.71584">
        <ele>13.2</ele>
        <time>2013-09-29T07:09:23Z</time>
      </trkpt>
      <trkpt lat="48.52601" lon="-2.71578">
        <ele>13.1</ele>
        <time>2013-09-29T07:09:30Z</time>
      </trkpt>
      <trkpt lat="48.52609" lon="-2.71576">
        <ele>12.2</ele>
        <time>2013-09-29T07:09:37Z</time>
      </trkpt>
      <trkpt lat="48.52617" lon="-2.71582">
        <ele>11.9</ele>
        <time>2013-09-29T07:09:57Z</time>
      </trkpt>
      <trkpt lat="48.52614" lon="-2.71594">
        <ele>12.5</ele>
        <time>2013-09-29T07:10:51Z</time>
      </trkpt>
      <trkpt lat="48.52614" lon="-2.71595">
        <ele>12.3</ele>
        <time>2013-09-29T07:10:52Z</time>
      </trkpt>
      <trkpt lat="48.52625" lon="-2.71614">
        <ele>7</ele>
        <time>2013-09-29T07:11:12Z</time>
      </trkpt>
      <trkpt lat="48.52629" lon="-2.71625">
        <ele>7.6</ele>
        <time>2013-09-29T07:11:18Z</time>
      </trkpt>
      <trkpt lat="48.52633" lon="-2.71636">
        <ele>7</ele>
        <time>2013-09-29T07:11:25Z</time>
      </trkpt>
      <trkpt lat="48.52636" lon="-2.71647">
        <ele>7.4</ele>
        <time>2013-09-29T07:11:31Z</time>
      </trkpt>
      <trkpt lat="48.5264" lon="-2.71657">
        <ele>7.1</ele>
        <time>2013-09-29T07:11:37Z</time>
      </trkpt>
      <trkpt lat="48.52644" lon="-2.71668">
        <ele>6.5</ele>
        <time>2013-09-29T07:11:43Z</time>
      </trkpt>
      <trkpt lat="48.52649" lon="-2.7168">
        <ele>7.9</ele>
        <time>2013-09-29T07:11:50Z</time>
      </trkpt>
      <trkpt lat="48.52653" lon="-2.71691">
        <ele>8.4</ele>
        <time>2013-09-29T07:11:57Z</time>
      </trkpt>
      <trkpt lat="48.52654" lon="-2.71692">
        <ele>8</ele>
        <time>2013-09-29T07:11:58Z</time>
      </trkpt>
      <trkpt lat="48.52662" lon="-2.71711">
        <ele>7.6</ele>
        <time>2013-09-29T07:12:10Z</time>
      </trkpt>
      <trkpt lat="48.52668" lon="-2.7172">
        <ele>7.5</ele>
        <time>2013-09-29T07:12:16Z</time>
      </trkpt>
      <trkpt lat="48.52675" lon="-2.71727">
        <ele>6.1</ele>
        <time>2013-09-29T07:12:27Z</time>
      </trkpt>
      <trkpt lat="48.52682" lon="-2.71719">
        <ele>7.7</ele>
        <time>2013-09-29T07:12:34Z</time>
      </trkpt>
      <trkpt lat="48.52691" lon="-2.71716">
        <ele>6.5</ele>
        <time>2013-09-29T07:12:57Z</time>
      </trkpt>
      <trkpt lat="48.52699" lon="-2.71712">
        <ele>7.2</ele>
        <time>2013-09-29T07:13:18Z</time>
      </trkpt>
      <trkpt lat="48.527" lon="-2.71712">
        <ele>7.4</ele>
        <time>2013-09-29T07:13:19Z</time>
      </trkpt>
      <trkpt lat="48.52713" lon="-2.71702">
        <ele>8.4</ele>
        <time>2013-09-29T07:13:34Z</time>
      </trkpt>
      <trkpt lat="48.52721" lon="-2.71698">
        <ele>7.8</ele>
        <time>2013-09-29T07:13:41Z</time>
      </trkpt>
      <trkpt lat="48.52728" lon="-2.71702">
        <ele>7.9</ele>
        <time>2013-09-29T07:13:47Z</time>
      </trkpt>
      <trkpt lat="48.52735" lon="-2.71709">
        <ele>8</ele>
        <time>2013-09-29T07:13:54Z</time>
      </trkpt>
      <trkpt lat="48.52743" lon="-2.71714">
        <ele>6.9</ele>
        <time>2013-09-29T07:14:06Z</time>
      </trkpt>
      <trkpt lat="48.52751" lon="-2.71709">
        <ele>5.2</ele>
        <time>2013-09-29T07:14:15Z</time>
      </trkpt>
      <trkpt lat="48.52759" lon="-2.71704">
        <ele>4.2</ele>
        <time>2013-09-29T07:14:23Z</time>
      </trkpt>
      <trkpt lat="48.5276" lon="-2.71704">
        <ele>3.9</ele>
        <time>2013-09-29T07:14:24Z</time>
      </trkpt>
      <trkpt lat="48.52776" lon="-2.71705">
        <ele>3.6</ele>
        <time>2013-09-29T07:14:41Z</time>
      </trkpt>
      <trkpt lat="48.5278" lon="-2.71716">
        <ele>4.6</ele>
        <time>2013-09-29T07:15:37Z</time>
      </trkpt>
      <trkpt lat="48.52781" lon="-2.71716">
        <ele>5.1</ele>
        <time>2013-09-29T07:15:38Z</time>
      </trkpt>
      <trkpt lat="48.52797" lon="-2.7172">
        <ele>13.6</ele>
        <time>2013-09-29T07:16:07Z</time>
      </trkpt>
      <trkpt lat="48.52805" lon="-2.71726">
        <ele>15.8</ele>
        <time>2013-09-29T07:16:18Z</time>
      </trkpt>
      <trkpt lat="48.52813" lon="-2.71725">
        <ele>19.6</ele>
        <time>2013-09-29T07:16:50Z</time>
      </trkpt>
      <trkpt lat="48.52814" lon="-2.71724">
        <ele>19.7</ele>
        <time>2013-09-29T07:16:51Z</time>
      </trkpt>
      <trkpt lat="48.52827" lon="-2.71711">
        <ele>19.6</ele>
        <time>2013-09-29T07:17:04Z</time>
      </trkpt>
      <trkpt lat="48.52834" lon="-2.71704">
        <ele>20.3</ele>
        <time>2013-09-29T07:17:11Z</time>
      </trkpt>
      <trkpt lat="48.52841" lon="-2.71698">
        <ele>20.1</ele>
        <time>2013-09-29T07:17:18Z</time>
      </trkpt>
      <trkpt lat="48.52849" lon="-2.71693">
        <ele>20</ele>
        <time>2013-09-29T07:17:26Z</time>
      </trkpt>
      <trkpt lat="48.52856" lon="-2.71688">
        <ele>20.6</ele>
        <time>2013-09-29T07:17:34Z</time>
      </trkpt>
      <trkpt lat="48.52863" lon="-2.7168">
        <ele>20.4</ele>
        <time>2013-09-29T07:17:51Z</time>
      </trkpt>
      <trkpt lat="48.52863" lon="-2.71679">
        <ele>20.1</ele>
        <time>2013-09-29T07:17:52Z</time>
      </trkpt>
      <trkpt lat="48.52873" lon="-2.717">
        <ele>22</ele>
        <time>2013-09-29T07:18:20Z</time>
      </trkpt>
      <trkpt lat="48.5288" lon="-2.71708">
        <ele>23.4</ele>
        <time>2013-09-29T07:18:32Z</time>
      </trkpt>
      <trkpt lat="48.52888" lon="-2.71715">
        <ele>25.5</ele>
        <time>2013-09-29T07:18:47Z</time>
      </trkpt>
      <trkpt lat="48.52895" lon="-2.71721">
        <ele>26.5</ele>
        <time>2013-09-29T07:18:56Z</time>
      </trkpt>
      <trkpt lat="48.52897" lon="-2.71721">
        <ele>26.8</ele>
        <time>2013-09-29T07:18:57Z</time>
      </trkpt>
      <trkpt lat="48.52911" lon="-2.71729">
        <ele>27.6</ele>
        <time>2013-09-29T07:19:04Z</time>
      </trkpt>
      <trkpt lat="48.52918" lon="-2.71735">
        <ele>27.9</ele>
        <time>2013-09-29T07:19:09Z</time>
      </trkpt>
      <trkpt lat="48.52923" lon="-2.71746">
        <ele>29.1</ele>
        <time>2013-09-29T07:19:15Z</time>
      </trkpt>
      <trkpt lat="48.52923" lon="-2.7176">
        <ele>29</ele>
        <time>2013-09-29T07:19:23Z</time>
      </trkpt>
      <trkpt lat="48.52921" lon="-2.71773">
        <ele>29.5</ele>
        <time>2013-09-29T07:19:31Z</time>
      </trkpt>
      <trkpt lat="48.52919" lon="-2.71785">
        <ele>31</ele>
        <time>2013-09-29T07:19:41Z</time>
      </trkpt>
      <trkpt lat="48.52923" lon="-2.71798">
        <ele>32.5</ele>
        <time>2013-09-29T07:19:52Z</time>
      </trkpt>
      <trkpt lat="48.52928" lon="-2.71808">
        <ele>31.6</ele>
        <time>2013-09-29T07:20:00Z</time>
      </trkpt>
      <trkpt lat="48.52929" lon="-2.71809">
        <ele>30.8</ele>
        <time>2013-09-29T07:20:01Z</time>
      </trkpt>
      <trkpt lat="48.52931" lon="-2.71833">
        <ele>35.1</ele>
        <time>2013-09-29T07:20:20Z</time>
      </trkpt>
      <trkpt lat="48.52936" lon="-2.71844">
        <ele>35.9</ele>
        <time>2013-09-29T07:20:29Z</time>
      </trkpt>
      <trkpt lat="48.5294" lon="-2.71856">
        <ele>39.4</ele>
        <time>2013-09-29T07:20:43Z</time>
      </trkpt>
      <trkpt lat="48.52946" lon="-2.71864">
        <ele>39.3</ele>
        <time>2013-09-29T07:20:58Z</time>
      </trkpt>
      <trkpt lat="48.52951" lon="-2.71876">
        <ele>40.6</ele>
        <time>2013-09-29T07:21:15Z</time>
      </trkpt>
      <trkpt lat="48.52951" lon="-2.71876">
        <ele>41.6</ele>
        <time>2013-09-29T07:21:16Z</time>
      </trkpt>
      <trkpt lat="48.52959" lon="-2.71898">
        <ele>45</ele>
        <time>2013-09-29T07:21:44Z</time>
      </trkpt>
      <trkpt lat="48.52966" lon="-2.71906">
        <ele>43</ele>
        <time>2013-09-29T07:21:56Z</time>
      </trkpt>
      <trkpt lat="48.52973" lon="-2.71913">
        <ele>42.2</ele>
        <time>2013-09-29T07:22:07Z</time>
      </trkpt>
      <trkpt lat="48.52982" lon="-2.71913">
        <ele>39.1</ele>
        <time>2013-09-29T07:22:26Z</time>
      </trkpt>
      <trkpt lat="48.52983" lon="-2.71913">
        <ele>39</ele>
        <time>2013-09-29T07:22:27Z</time>
      </trkpt>
      <trkpt lat="48.52999" lon="-2.71908">
        <ele>33</ele>
        <time>2013-09-29T07:22:59Z</time>
      </trkpt>
      <trkpt lat="48.53006" lon="-2.71899">
        <ele>29.9</ele>
        <time>2013-09-29T07:23:10Z</time>
      </trkpt>
      <trkpt lat="48.53013" lon="-2.71893">
        <ele>29.1</ele>
        <time>2013-09-29T07:23:19Z</time>
      </trkpt>
      <trkpt lat="48.53021" lon="-2.71899">
        <ele>28.4</ele>
        <time>2013-09-29T07:23:27Z</time>
      </trkpt>
      <trkpt lat="48.53022" lon="-2.719">
        <ele>27.1</ele>
        <time>2013-09-29T07:23:28Z</time>
      </trkpt>
      <trkpt lat="48.53028" lon="-2.71923">
        <ele>27.1</ele>
        <time>2013-09-29T07:23:45Z</time>
      </trkpt>
      <trkpt lat="48.53027" lon="-2.71935">
        <ele>27</ele>
        <time>2013-09-29T07:23:56Z</time>
      </trkpt>
      <trkpt lat="48.53028" lon="-2.71948">
        <ele>27.5</ele>
        <time>2013-09-29T07:24:05Z</time>
      </trkpt>
      <trkpt lat="48.53029" lon="-2.71961">
        <ele>27.5</ele>
        <time>2013-09-29T07:24:12Z</time>
      </trkpt>
      <trkpt lat="48.5303" lon="-2.71973">
        <ele>26.6</ele>
        <time>2013-09-29T07:24:20Z</time>
      </trkpt>
      <trkpt lat="48.53029" lon="-2.71986">
        <ele>29.4</ele>
        <time>2013-09-29T07:24:30Z</time>
      </trkpt>
      <trkpt lat="48.53029" lon="-2.71987">
        <ele>29.8</ele>
        <time>2013-09-29T07:24:31Z</time>
      </trkpt>
      <trkpt lat="48.53026" lon="-2.7201">
        <ele>31.2</ele>
        <time>2013-09-29T07:24:45Z</time>
      </trkpt>
      <trkpt lat="48.53023" lon="-2.72023">
        <ele>32</ele>
        <time>2013-09-29T07:24:55Z</time>
      </trkpt>
      <trkpt lat="48.5302" lon="-2.72036">
        <ele>31</ele>
        <time>2013-09-29T07:25:07Z</time>
      </trkpt>
      <trkpt lat="48.53019" lon="-2.72047">
        <ele>31.2</ele>
        <time>2013-09-29T07:25:13Z</time>
      </trkpt>
      <trkpt lat="48.53017" lon="-2.72057">
        <ele>31.1</ele>
        <time>2013-09-29T07:25:17Z</time>
      </trkpt>
      <trkpt lat="48.53014" lon="-2.7207">
        <ele>30.3</ele>
        <time>2013-09-29T07:25:23Z</time>
      </trkpt>
      <trkpt lat="48.53013" lon="-2.72082">
        <ele>29.3</ele>
        <time>2013-09-29T07:25:29Z</time>
      </trkpt>
      <trkpt lat="48.5301" lon="-2.72095">
        <ele>29.9</ele>
        <time>2013-09-29T07:25:41Z</time>
      </trkpt>
      <trkpt lat="48.5301" lon="-2.72096">
        <ele>30</ele>
        <time>2013-09-29T07:25:42Z</time>
      </trkpt>
      <trkpt lat="48.53002" lon="-2.72116">
        <ele>30.1</ele>
        <time>2013-09-29T07:26:02Z</time>
      </trkpt>
      <trkpt lat="48.52998" lon="-2.72128">
        <ele>32.1</ele>
        <time>2013-09-29T07:26:12Z</time>
      </trkpt>
      <trkpt lat="48.52997" lon="-2.7214">
        <ele>32</ele>
        <time>2013-09-29T07:26:20Z</time>
      </trkpt>
      <trkpt lat="48.52998" lon="-2.72153">
        <ele>30.9</ele>
        <time>2013-09-29T07:26:27Z</time>
      </trkpt>
      <trkpt lat="48.52998" lon="-2.72165">
        <ele>30</ele>
        <time>2013-09-29T07:26:34Z</time>
      </trkpt>
      <trkpt lat="48.52996" lon="-2.72178">
        <ele>30.2</ele>
        <time>2013-09-29T07:26:40Z</time>
      </trkpt>
      <trkpt lat="48.52994" lon="-2.72191">
        <ele>30.6</ele>
        <time>2013-09-29T07:26:51Z</time>
      </trkpt>
      <trkpt lat="48.52994" lon="-2.72192">
        <ele>30.7</ele>
        <time>2013-09-29T07:26:52Z</time>
      </trkpt>
      <trkpt lat="48.52992" lon="-2.72216">
        <ele>28.6</ele>
        <time>2013-09-29T07:27:07Z</time>
      </trkpt>
      <trkpt lat="48.52992" lon="-2.72229">
        <ele>28.6</ele>
        <time>2013-09-29T07:27:13Z</time>
      </trkpt>
      <trkpt lat="48.52992" lon="-2.72243">
        <ele>27.5</ele>
        <time>2013-09-29T07:27:19Z</time>
      </trkpt>
      <trkpt lat="48.52992" lon="-2.72256">
        <ele>27.6</ele>
        <time>2013-09-29T07:27:25Z</time>
      </trkpt>
      <trkpt lat="48.52991" lon="-2.72269">
        <ele>26</ele>
        <time>2013-09-29T07:27:33Z</time>
      </trkpt>
      <trkpt lat="48.52993" lon="-2.72281">
        <ele>26.5</ele>
        <time>2013-09-29T07:28:02Z</time>
      </trkpt>
      <trkpt lat="48.52993" lon="-2.72283">
        <ele>26.6</ele>
        <time>2013-09-29T07:28:03Z</time>
      </trkpt>
      <trkpt lat="48.52985" lon="-2.72303">
        <ele>28.2</ele>
        <time>2013-09-29T07:28:20Z</time>
      </trkpt>
      <trkpt lat="48.52981" lon="-2.72315">
        <ele>26.9</ele>
        <time>2013-09-29T07:28:28Z</time>
      </trkpt>
      <trkpt lat="48.52975" lon="-2.72324">
        <ele>25.2</ele>
        <time>2013-09-29T07:28:37Z</time>
      </trkpt>
      <trkpt lat="48.52968" lon="-2.72333">
        <ele>28.7</ele>
        <time>2013-09-29T07:28:47Z</time>
      </trkpt>
      <trkpt lat="48.5296" lon="-2.7233">
        <ele>30.6</ele>
        <time>2013-09-29T07:28:59Z</time>
      </trkpt>
      <trkpt lat="48.52952" lon="-2.72335">
        <ele>34.4</ele>
        <time>2013-09-29T07:29:17Z</time>
      </trkpt>
      <trkpt lat="48.52952" lon="-2.72335">
        <ele>34.4</ele>
        <time>2013-09-29T07:29:18Z</time>
      </trkpt>
      <trkpt lat="48.5294" lon="-2.72351">
        <ele>36</ele>
        <time>2013-09-29T07:29:37Z</time>
      </trkpt>
      <trkpt lat="48.52934" lon="-2.72361">
        <ele>37.6</ele>
        <time>2013-09-29T07:29:45Z</time>
      </trkpt>
      <trkpt lat="48.52929" lon="-2.72371">
        <ele>35.7</ele>
        <time>2013-09-29T07:29:54Z</time>
      </trkpt>
      <trkpt lat="48.52924" lon="-2.72382">
        <ele>35.1</ele>
        <time>2013-09-29T07:30:04Z</time>
      </trkpt>
      <trkpt lat="48.52918" lon="-2.72392">
        <ele>33.9</ele>
        <time>2013-09-29T07:30:15Z</time>
      </trkpt>
      <trkpt lat="48.52912" lon="-2.72401">
        <ele>32.8</ele>
        <time>2013-09-29T07:30:26Z</time>
      </trkpt>
      <trkpt lat="48.52911" lon="-2.72402">
        <ele>32.7</ele>
        <time>2013-09-29T07:30:27Z</time>
      </trkpt>
      <trkpt lat="48.529" lon="-2.72416">
        <ele>32.7</ele>
        <time>2013-09-29T07:30:40Z</time>
      </trkpt>
      <trkpt lat="48.52893" lon="-2.72424">
        <ele>32.4</ele>
        <time>2013-09-29T07:30:48Z</time>
      </trkpt>
      <trkpt lat="48.52886" lon="-2.72433">
        <ele>32.6</ele>
        <time>2013-09-29T07:30:56Z</time>
      </trkpt>
      <trkpt lat="48.5288" lon="-2.7244">
        <ele>30.3</ele>
        <time>2013-09-29T07:31:03Z</time>
      </trkpt>
      <trkpt lat="48.52873" lon="-2.72445">
        <ele>31.5</ele>
        <time>2013-09-29T07:31:09Z</time>
      </trkpt>
      <trkpt lat="48.52865" lon="-2.7245">
        <ele>32.8</ele>
        <time>2013-09-29T07:31:16Z</time>
      </trkpt>
      <trkpt lat="48.52857" lon="-2.72455">
        <ele>33.7</ele>
        <time>2013-09-29T07:31:24Z</time>
      </trkpt>
      <trkpt lat="48.52848" lon="-2.7246">
        <ele>34.3</ele>
        <time>2013-09-29T07:31:32Z</time>
      </trkpt>
      <trkpt lat="48.52847" lon="-2.72461">
        <ele>34.5</ele>
        <time>2013-09-29T07:31:33Z</time>
      </trkpt>
      <trkpt lat="48.52835" lon="-2.72473">
        <ele>34.5</ele>
        <time>2013-09-29T07:31:46Z</time>
      </trkpt>
      <trkpt lat="48.52828" lon="-2.72481">
        <ele>32.3</ele>
        <time>2013-09-29T07:31:53Z</time>
      </trkpt>
      <trkpt lat="48.52822" lon="-2.72491">
        <ele>32.8</ele>
        <time>2013-09-29T07:32:00Z</time>
      </trkpt>
      <trkpt lat="48.52815" lon="-2.72498">
        <ele>33.7</ele>
        <time>2013-09-29T07:32:08Z</time>
      </trkpt>
      <trkpt lat="48.52809" lon="-2.72505">
        <ele>33.5</ele>
        <time>2013-09-29T07:32:15Z</time>
      </trkpt>
      <trkpt lat="48.52803" lon="-2.72514">
        <ele>32.6</ele>
        <time>2013-09-29T07:32:23Z</time>
      </trkpt>
      <trkpt lat="48.52796" lon="-2.72522">
        <ele>33.1</ele>
        <time>2013-09-29T07:32:32Z</time>
      </trkpt>
      <trkpt lat="48.52795" lon="-2.72523">
        <ele>33</ele>
        <time>2013-09-29T07:32:33Z</time>
      </trkpt>
      <trkpt lat="48.52784" lon="-2.72537">
        <ele>34</ele>
        <time>2013-09-29T07:32:45Z</time>
      </trkpt>
      <trkpt lat="48.52779" lon="-2.72547">
        <ele>32.8</ele>
        <time>2013-09-29T07:32:53Z</time>
      </trkpt>
      <trkpt lat="48.52776" lon="-2.72559">
        <ele>28.5</ele>
        <time>2013-09-29T07:33:11Z</time>
      </trkpt>
      <trkpt lat="48.52774" lon="-2.72572">
        <ele>25.8</ele>
        <time>2013-09-29T07:33:27Z</time>
      </trkpt>
      <trkpt lat="48.52772" lon="-2.72585">
        <ele>24.1</ele>
        <time>2013-09-29T07:33:38Z</time>
      </trkpt>
      <trkpt lat="48.52772" lon="-2.72586">
        <ele>23.5</ele>
        <time>2013-09-29T07:33:39Z</time>
      </trkpt>
      <trkpt lat="48.52769" lon="-2.72609">
        <ele>21.3</ele>
        <time>2013-09-29T07:34:04Z</time>
      </trkpt>
      <trkpt lat="48.52766" lon="-2.72621">
        <ele>19.5</ele>
        <time>2013-09-29T07:34:11Z</time>
      </trkpt>
      <trkpt lat="48.52764" lon="-2.72633">
        <ele>20.8</ele>
        <time>2013-09-29T07:34:17Z</time>
      </trkpt>
      <trkpt lat="48.52763" lon="-2.72646">
        <ele>21.4</ele>
        <time>2013-09-29T07:34:25Z</time>
      </trkpt>
      <trkpt lat="48.52762" lon="-2.7266">
        <ele>20.7</ele>
        <time>2013-09-29T07:34:35Z</time>
      </trkpt>
      <trkpt lat="48.52761" lon="-2.72672">
        <ele>21.1</ele>
        <time>2013-09-29T07:34:43Z</time>
      </trkpt>
      <trkpt lat="48.52761" lon="-2.72674">
        <ele>21</ele>
        <time>2013-09-29T07:34:44Z</time>
      </trkpt>
      <trkpt lat="48.52758" lon="-2.72698">
        <ele>19.9</ele>
        <time>2013-09-29T07:34:58Z</time>
      </trkpt>
      <trkpt lat="48.52756" lon="-2.72711">
        <ele>19.9</ele>
        <time>2013-09-29T07:35:05Z</time>
      </trkpt>
      <trkpt lat="48.52756" lon="-2.72723">
        <ele>18.7</ele>
        <time>2013-09-29T07:35:13Z</time>
      </trkpt>
      <trkpt lat="48.52756" lon="-2.72735">
        <ele>18.7</ele>
        <time>2013-09-29T07:35:21Z</time>
      </trkpt>
      <trkpt lat="48.52754" lon="-2.72747">
        <ele>19.1</ele>
        <time>2013-09-29T07:35:27Z</time>
      </trkpt>
      <trkpt lat="48.52753" lon="-2.7276">
        <ele>18.6</ele>
        <time>2013-09-29T07:35:33Z</time>
      </trkpt>
      <trkpt lat="48.52753" lon="-2.72773">
        <ele>18.3</ele>
        <time>2013-09-29T07:35:43Z</time>
      </trkpt>
      <trkpt lat="48.52747" lon="-2.72782">
        <ele>19</ele>
        <time>2013-09-29T07:36:03Z</time>
      </trkpt>
      <trkpt lat="48.52746" lon="-2.72783">
        <ele>18.8</ele>
        <time>2013-09-29T07:36:04Z</time>
      </trkpt>
      <trkpt lat="48.52744" lon="-2.72807">
        <ele>16.8</ele>
        <time>2013-09-29T07:36:30Z</time>
      </trkpt>
      <trkpt lat="48.52749" lon="-2.72818">
        <ele>14.3</ele>
        <time>2013-09-29T07:37:11Z</time>
      </trkpt>
      <trkpt lat="48.52749" lon="-2.72819">
        <ele>14.1</ele>
        <time>2013-09-29T07:37:12Z</time>
      </trkpt>
      <trkpt lat="48.52762" lon="-2.72836">
        <ele>6.1</ele>
        <time>2013-09-29T07:38:05Z</time>
      </trkpt>
      <trkpt lat="48.5277" lon="-2.72841">
        <ele>5.8</ele>
        <time>2013-09-29T07:38:18Z</time>
      </trkpt>
      <trkpt lat="48.5277" lon="-2.72843">
        <ele>5.8</ele>
        <time>2013-09-29T07:38:19Z</time>
      </trkpt>
      <trkpt lat="48.52766" lon="-2.72866">
        <ele>5.8</ele>
        <time>2013-09-29T07:38:35Z</time>
      </trkpt>
      <trkpt lat="48.52765" lon="-2.72878">
        <ele>6.1</ele>
        <time>2013-09-29T07:38:43Z</time>
      </trkpt>
      <trkpt lat="48.52764" lon="-2.72891">
        <ele>5.9</ele>
        <time>2013-09-29T07:38:51Z</time>
      </trkpt>
      <trkpt lat="48.52763" lon="-2.72905">
        <ele>4.5</ele>
        <time>2013-09-29T07:38:59Z</time>
      </trkpt>
      <trkpt lat="48.52763" lon="-2.72917">
        <ele>6.1</ele>
        <time>2013-09-29T07:39:07Z</time>
      </trkpt>
      <trkpt lat="48.52764" lon="-2.7293">
        <ele>6.1</ele>
        <time>2013-09-29T07:39:15Z</time>
      </trkpt>
      <trkpt lat="48.52765" lon="-2.72942">
        <ele>6.2</ele>
        <time>2013-09-29T07:39:22Z</time>
      </trkpt>
      <trkpt lat="48.52765" lon="-2.72944">
        <ele>6.1</ele>
        <time>2013-09-29T07:39:23Z</time>
      </trkpt>
      <trkpt lat="48.52768" lon="-2.72967">
        <ele>6.7</ele>
        <time>2013-09-29T07:39:36Z</time>
      </trkpt>
      <trkpt lat="48.52771" lon="-2.72979">
        <ele>6.7</ele>
        <time>2013-09-29T07:39:43Z</time>
      </trkpt>
      <trkpt lat="48.52773" lon="-2.72992">
        <ele>5.8</ele>
        <time>2013-09-29T07:39:50Z</time>
      </trkpt>
      <trkpt lat="48.52772" lon="-2.73004">
        <ele>5.9</ele>
        <time>2013-09-29T07:39:57Z</time>
      </trkpt>
      <trkpt lat="48.52771" lon="-2.73018">
        <ele>6.8</ele>
        <time>2013-09-29T07:40:05Z</time>
      </trkpt>
      <trkpt lat="48.52772" lon="-2.7303">
        <ele>7.1</ele>
        <time>2013-09-29T07:40:12Z</time>
      </trkpt>
      <trkpt lat="48.52773" lon="-2.73042">
        <ele>7.2</ele>
        <time>2013-09-29T07:40:19Z</time>
      </trkpt>
      <trkpt lat="48.52772" lon="-2.73055">
        <ele>5.9</ele>
        <time>2013-09-29T07:40:26Z</time>
      </trkpt>
      <trkpt lat="48.52772" lon="-2.73057">
        <ele>5.8</ele>
        <time>2013-09-29T07:40:27Z</time>
      </trkpt>
      <trkpt lat="48.52772" lon="-2.73082">
        <ele>5.5</ele>
        <time>2013-09-29T07:40:41Z</time>
      </trkpt>
      <trkpt lat="48.52774" lon="-2.73095">
        <ele>6.3</ele>
        <time>2013-09-29T07:40:49Z</time>
      </trkpt>
      <trkpt lat="48.52773" lon="-2.73108">
        <ele>6.7</ele>
        <time>2013-09-29T07:40:56Z</time>
      </trkpt>
      <trkpt lat="48.52773" lon="-2.7312">
        <ele>7</ele>
        <time>2013-09-29T07:41:02Z</time>
      </trkpt>
      <trkpt lat="48.52772" lon="-2.73132">
        <ele>7.1</ele>
        <time>2013-09-29T07:41:08Z</time>
      </trkpt>
      <trkpt lat="48.52774" lon="-2.73145">
        <ele>5.1</ele>
        <time>2013-09-29T07:41:16Z</time>
      </trkpt>
      <trkpt lat="48.52779" lon="-2.73156">
        <ele>6.6</ele>
        <time>2013-09-29T07:41:24Z</time>
      </trkpt>
      <trkpt lat="48.5278" lon="-2.73169">
        <ele>6.9</ele>
        <time>2013-09-29T07:41:31Z</time>
      </trkpt>
      <trkpt lat="48.5278" lon="-2.73171">
        <ele>7</ele>
        <time>2013-09-29T07:41:32Z</time>
      </trkpt>
      <trkpt lat="48.52781" lon="-2.73194">
        <ele>5.1</ele>
        <time>2013-09-29T07:41:45Z</time>
      </trkpt>
      <trkpt lat="48.5278" lon="-2.73206">
        <ele>4.5</ele>
        <time>2013-09-29T07:41:52Z</time>
      </trkpt>
      <trkpt lat="48.52782" lon="-2.73219">
        <ele>4.9</ele>
        <time>2013-09-29T07:41:59Z</time>
      </trkpt>
      <trkpt lat="48.52783" lon="-2.7323">
        <ele>5.6</ele>
        <time>2013-09-29T07:42:05Z</time>
      </trkpt>
      <trkpt lat="48.52784" lon="-2.73242">
        <ele>6.4</ele>
        <time>2013-09-29T07:42:11Z</time>
      </trkpt>
      <trkpt lat="48.52785" lon="-2.73254">
        <ele>5.3</ele>
        <time>2013-09-29T07:42:17Z</time>
      </trkpt>
      <trkpt lat="48.52786" lon="-2.73267">
        <ele>5.6</ele>
        <time>2013-09-29T07:42:23Z</time>
      </trkpt>
      <trkpt lat="48.52787" lon="-2.7328">
        <ele>6</ele>
        <time>2013-09-29T07:42:30Z</time>
      </trkpt>
      <trkpt lat="48.52795" lon="-2.73285">
        <ele>4.7</ele>
        <time>2013-09-29T07:42:42Z</time>
      </trkpt>
      <trkpt lat="48.52796" lon="-2.73286">
        <ele>4.6</ele>
        <time>2013-09-29T07:42:43Z</time>
      </trkpt>
      <trkpt lat="48.52793" lon="-2.73311">
        <ele>5.6</ele>
        <time>2013-09-29T07:43:32Z</time>
      </trkpt>
      <trkpt lat="48.52795" lon="-2.73323">
        <ele>4.9</ele>
        <time>2013-09-29T07:43:42Z</time>
      </trkpt>
      <trkpt lat="48.52796" lon="-2.73335">
        <ele>5.2</ele>
        <time>2013-09-29T07:43:49Z</time>
      </trkpt>
      <trkpt lat="48.52796" lon="-2.73337">
        <ele>5.3</ele>
        <time>2013-09-29T07:43:50Z</time>
      </trkpt>
      <trkpt lat="48.52797" lon="-2.73361">
        <ele>5.9</ele>
        <time>2013-09-29T07:44:02Z</time>
      </trkpt>
      <trkpt lat="48.52796" lon="-2.73375">
        <ele>6.6</ele>
        <time>2013-09-29T07:44:09Z</time>
      </trkpt>
      <trkpt lat="48.52796" lon="-2.73388">
        <ele>5.3</ele>
        <time>2013-09-29T07:44:17Z</time>
      </trkpt>
      <trkpt lat="48.52795" lon="-2.734">
        <ele>5.7</ele>
        <time>2013-09-29T07:44:24Z</time>
      </trkpt>
      <trkpt lat="48.52793" lon="-2.73413">
        <ele>6.7</ele>
        <time>2013-09-29T07:44:32Z</time>
      </trkpt>
      <trkpt lat="48.52791" lon="-2.73426">
        <ele>6.6</ele>
        <time>2013-09-29T07:44:39Z</time>
      </trkpt>
      <trkpt lat="48.52789" lon="-2.73439">
        <ele>6.7</ele>
        <time>2013-09-29T07:44:45Z</time>
      </trkpt>
      <trkpt lat="48.52787" lon="-2.73452">
        <ele>6.7</ele>
        <time>2013-09-29T07:44:52Z</time>
      </trkpt>
      <trkpt lat="48.52787" lon="-2.73454">
        <ele>6.7</ele>
        <time>2013-09-29T07:44:53Z</time>
      </trkpt>
      <trkpt lat="48.52784" lon="-2.73477">
        <ele>6.1</ele>
        <time>2013-09-29T07:45:05Z</time>
      </trkpt>
      <trkpt lat="48.52782" lon="-2.73489">
        <ele>6.2</ele>
        <time>2013-09-29T07:45:11Z</time>
      </trkpt>
      <trkpt lat="48.52781" lon="-2.73501">
        <ele>7.2</ele>
        <time>2013-09-29T07:45:17Z</time>
      </trkpt>
      <trkpt lat="48.52779" lon="-2.73512">
        <ele>5.5</ele>
        <time>2013-09-29T07:45:23Z</time>
      </trkpt>
      <trkpt lat="48.52777" lon="-2.73525">
        <ele>4.7</ele>
        <time>2013-09-29T07:45:30Z</time>
      </trkpt>
      <trkpt lat="48.52773" lon="-2.73537">
        <ele>4</ele>
        <time>2013-09-29T07:45:36Z</time>
      </trkpt>
      <trkpt lat="48.52769" lon="-2.73548">
        <ele>4.4</ele>
        <time>2013-09-29T07:45:42Z</time>
      </trkpt>
      <trkpt lat="48.52765" lon="-2.73558">
        <ele>5.5</ele>
        <time>2013-09-29T07:45:48Z</time>
      </trkpt>
      <trkpt lat="48.5276" lon="-2.73568">
        <ele>5.9</ele>
        <time>2013-09-29T07:45:54Z</time>
      </trkpt>
      <trkpt lat="48.52759" lon="-2.7357">
        <ele>6.2</ele>
        <time>2013-09-29T07:45:55Z</time>
      </trkpt>
      <trkpt lat="48.5275" lon="-2.73587">
        <ele>5.1</ele>
        <time>2013-09-29T07:46:06Z</time>
      </trkpt>
      <trkpt lat="48.52745" lon="-2.73596">
        <ele>4.8</ele>
        <time>2013-09-29T07:46:12Z</time>
      </trkpt>
      <trkpt lat="48.52739" lon="-2.73605">
        <ele>6</ele>
        <time>2013-09-29T07:46:19Z</time>
      </trkpt>
      <trkpt lat="48.52731" lon="-2.7361">
        <ele>5.3</ele>
        <time>2013-09-29T07:46:26Z</time>
      </trkpt>
      <trkpt lat="48.52725" lon="-2.73619">
        <ele>5.8</ele>
        <time>2013-09-29T07:46:33Z</time>
      </trkpt>
      <trkpt lat="48.52718" lon="-2.73627">
        <ele>5.1</ele>
        <time>2013-09-29T07:46:40Z</time>
      </trkpt>
      <trkpt lat="48.52711" lon="-2.73634">
        <ele>5.8</ele>
        <time>2013-09-29T07:46:47Z</time>
      </trkpt>
      <trkpt lat="48.52703" lon="-2.73637">
        <ele>6.7</ele>
        <time>2013-09-29T07:46:54Z</time>
      </trkpt>
      <trkpt lat="48.52695" lon="-2.73637">
        <ele>6.8</ele>
        <time>2013-09-29T07:47:01Z</time>
      </trkpt>
      <trkpt lat="48.52694" lon="-2.73637">
        <ele>6.9</ele>
        <time>2013-09-29T07:47:02Z</time>
      </trkpt>
      <trkpt lat="48.52678" lon="-2.73641">
        <ele>5.4</ele>
        <time>2013-09-29T07:47:16Z</time>
      </trkpt>
      <trkpt lat="48.5267" lon="-2.73644">
        <ele>6.4</ele>
        <time>2013-09-29T07:47:22Z</time>
      </trkpt>
      <trkpt lat="48.52663" lon="-2.7365">
        <ele>6.3</ele>
        <time>2013-09-29T07:47:28Z</time>
      </trkpt>
      <trkpt lat="48.52655" lon="-2.73653">
        <ele>5.4</ele>
        <time>2013-09-29T07:47:34Z</time>
      </trkpt>
      <trkpt lat="48.52646" lon="-2.73656">
        <ele>6.3</ele>
        <time>2013-09-29T07:47:41Z</time>
      </trkpt>
      <trkpt lat="48.52638" lon="-2.73659">
        <ele>6.3</ele>
        <time>2013-09-29T07:47:48Z</time>
      </trkpt>
      <trkpt lat="48.5263" lon="-2.73659">
        <ele>6.6</ele>
        <time>2013-09-29T07:47:55Z</time>
      </trkpt>
      <trkpt lat="48.52622" lon="-2.73661">
        <ele>5.6</ele>
        <time>2013-09-29T07:48:02Z</time>
      </trkpt>
      <trkpt lat="48.52621" lon="-2.73661">
        <ele>6.3</ele>
        <time>2013-09-29T07:48:03Z</time>
      </trkpt>
      <trkpt lat="48.52609" lon="-2.73674">
        <ele>5.9</ele>
        <time>2013-09-29T07:48:14Z</time>
      </trkpt>
      <trkpt lat="48.52603" lon="-2.73683">
        <ele>5.1</ele>
        <time>2013-09-29T07:48:20Z</time>
      </trkpt>
      <trkpt lat="48.52595" lon="-2.73689">
        <ele>5</ele>
        <time>2013-09-29T07:48:26Z</time>
      </trkpt>
      <trkpt lat="48.52587" lon="-2.73692">
        <ele>5.6</ele>
        <time>2013-09-29T07:48:32Z</time>
      </trkpt>
      <trkpt lat="48.52578" lon="-2.73694">
        <ele>5.3</ele>
        <time>2013-09-29T07:48:39Z</time>
      </trkpt>
      <trkpt lat="48.5257" lon="-2.73698">
        <ele>5.5</ele>
        <time>2013-09-29T07:48:46Z</time>
      </trkpt>
      <trkpt lat="48.52562" lon="-2.73701">
        <ele>5.1</ele>
        <time>2013-09-29T07:48:52Z</time>
      </trkpt>
      <trkpt lat="48.52555" lon="-2.73707">
        <ele>5.2</ele>
        <time>2013-09-29T07:48:58Z</time>
      </trkpt>
      <trkpt lat="48.52548" lon="-2.73713">
        <ele>5.5</ele>
        <time>2013-09-29T07:49:03Z</time>
      </trkpt>
      <trkpt lat="48.52541" lon="-2.73719">
        <ele>4.2</ele>
        <time>2013-09-29T07:49:08Z</time>
      </trkpt>
      <trkpt lat="48.5254" lon="-2.7372">
        <ele>4.4</ele>
        <time>2013-09-29T07:49:09Z</time>
      </trkpt>
      <trkpt lat="48.52528" lon="-2.73733">
        <ele>5.1</ele>
        <time>2013-09-29T07:49:19Z</time>
      </trkpt>
      <trkpt lat="48.52521" lon="-2.73741">
        <ele>4.8</ele>
        <time>2013-09-29T07:49:25Z</time>
      </trkpt>
      <trkpt lat="48.52515" lon="-2.73749">
        <ele>4.9</ele>
        <time>2013-09-29T07:49:31Z</time>
      </trkpt>
      <trkpt lat="48.52509" lon="-2.73758">
        <ele>4.5</ele>
        <time>2013-09-29T07:49:37Z</time>
      </trkpt>
      <trkpt lat="48.52503" lon="-2.73767">
        <ele>6.1</ele>
        <time>2013-09-29T07:49:43Z</time>
      </trkpt>
      <trkpt lat="48.52498" lon="-2.73778">
        <ele>4.8</ele>
        <time>2013-09-29T07:49:49Z</time>
      </trkpt>
      <trkpt lat="48.52494" lon="-2.73788">
        <ele>6.4</ele>
        <time>2013-09-29T07:49:55Z</time>
      </trkpt>
      <trkpt lat="48.5249" lon="-2.73798">
        <ele>5</ele>
        <time>2013-09-29T07:50:02Z</time>
      </trkpt>
      <trkpt lat="48.52486" lon="-2.73811">
        <ele>4.8</ele>
        <time>2013-09-29T07:50:09Z</time>
      </trkpt>
      <trkpt lat="48.52482" lon="-2.73822">
        <ele>3.3</ele>
        <time>2013-09-29T07:50:16Z</time>
      </trkpt>
      <trkpt lat="48.52481" lon="-2.73824">
        <ele>2.8</ele>
        <time>2013-09-29T07:50:17Z</time>
      </trkpt>
      <trkpt lat="48.52472" lon="-2.73843">
        <ele>3.2</ele>
        <time>2013-09-29T07:50:29Z</time>
      </trkpt>
      <trkpt lat="48.52467" lon="-2.73854">
        <ele>4.8</ele>
        <time>2013-09-29T07:50:36Z</time>
      </trkpt>
      <trkpt lat="48.52462" lon="-2.73863">
        <ele>4.5</ele>
        <time>2013-09-29T07:50:42Z</time>
      </trkpt>
      <trkpt lat="48.52457" lon="-2.73874">
        <ele>4.5</ele>
        <time>2013-09-29T07:50:48Z</time>
      </trkpt>
      <trkpt lat="48.52452" lon="-2.73883">
        <ele>4.6</ele>
        <time>2013-09-29T07:50:54Z</time>
      </trkpt>
      <trkpt lat="48.52447" lon="-2.73893">
        <ele>4.7</ele>
        <time>2013-09-29T07:51:00Z</time>
      </trkpt>
      <trkpt lat="48.52442" lon="-2.73903">
        <ele>4.2</ele>
        <time>2013-09-29T07:51:07Z</time>
      </trkpt>
      <trkpt lat="48.52437" lon="-2.73913">
        <ele>4.6</ele>
        <time>2013-09-29T07:51:13Z</time>
      </trkpt>
      <trkpt lat="48.52432" lon="-2.73923">
        <ele>4.4</ele>
        <time>2013-09-29T07:51:19Z</time>
      </trkpt>
      <trkpt lat="48.52431" lon="-2.73924">
        <ele>4.3</ele>
        <time>2013-09-29T07:51:20Z</time>
      </trkpt>
      <trkpt lat="48.52423" lon="-2.73943">
        <ele>5.4</ele>
        <time>2013-09-29T07:51:31Z</time>
      </trkpt>
      <trkpt lat="48.52418" lon="-2.73954">
        <ele>4.9</ele>
        <time>2013-09-29T07:51:38Z</time>
      </trkpt>
      <trkpt lat="48.52413" lon="-2.73965">
        <ele>4.3</ele>
        <time>2013-09-29T07:51:46Z</time>
      </trkpt>
      <trkpt lat="48.5241" lon="-2.73977">
        <ele>4.3</ele>
        <time>2013-09-29T07:51:53Z</time>
      </trkpt>
      <trkpt lat="48.52408" lon="-2.7399">
        <ele>3.8</ele>
        <time>2013-09-29T07:52:00Z</time>
      </trkpt>
      <trkpt lat="48.52407" lon="-2.74002">
        <ele>4</ele>
        <time>2013-09-29T07:52:06Z</time>
      </trkpt>
      <trkpt lat="48.52407" lon="-2.74015">
        <ele>5.6</ele>
        <time>2013-09-29T07:52:13Z</time>
      </trkpt>
      <trkpt lat="48.52406" lon="-2.74027">
        <ele>5.6</ele>
        <time>2013-09-29T07:52:19Z</time>
      </trkpt>
      <trkpt lat="48.52407" lon="-2.74039">
        <ele>5.6</ele>
        <time>2013-09-29T07:52:26Z</time>
      </trkpt>
      <trkpt lat="48.52407" lon="-2.74041">
        <ele>5.7</ele>
        <time>2013-09-29T07:52:27Z</time>
      </trkpt>
      <trkpt lat="48.52413" lon="-2.74062">
        <ele>5.3</ele>
        <time>2013-09-29T07:52:39Z</time>
      </trkpt>
      <trkpt lat="48.52416" lon="-2.74075">
        <ele>6.5</ele>
        <time>2013-09-29T07:52:47Z</time>
      </trkpt>
      <trkpt lat="48.52417" lon="-2.74088">
        <ele>4.9</ele>
        <time>2013-09-29T07:52:54Z</time>
      </trkpt>
      <trkpt lat="48.52417" lon="-2.74101">
        <ele>6.3</ele>
        <time>2013-09-29T07:52:59Z</time>
      </trkpt>
      <trkpt lat="48.52417" lon="-2.74114">
        <ele>6.1</ele>
        <time>2013-09-29T07:53:04Z</time>
      </trkpt>
      <trkpt lat="48.52417" lon="-2.74127">
        <ele>5</ele>
        <time>2013-09-29T07:53:11Z</time>
      </trkpt>
      <trkpt lat="48.52421" lon="-2.74139">
        <ele>5.2</ele>
        <time>2013-09-29T07:53:38Z</time>
      </trkpt>
      <trkpt lat="48.52422" lon="-2.74139">
        <ele>5.1</ele>
        <time>2013-09-29T07:53:39Z</time>
      </trkpt>
      <trkpt lat="48.52426" lon="-2.74164">
        <ele>5.3</ele>
        <time>2013-09-29T07:54:42Z</time>
      </trkpt>
      <trkpt lat="48.52427" lon="-2.74164">
        <ele>5.6</ele>
        <time>2013-09-29T07:54:43Z</time>
      </trkpt>
      <trkpt lat="48.52444" lon="-2.7417">
        <ele>6</ele>
        <time>2013-09-29T07:55:00Z</time>
      </trkpt>
      <trkpt lat="48.52452" lon="-2.74171">
        <ele>5</ele>
        <time>2013-09-29T07:55:10Z</time>
      </trkpt>
      <trkpt lat="48.5246" lon="-2.74176">
        <ele>6.1</ele>
        <time>2013-09-29T07:55:25Z</time>
      </trkpt>
      <trkpt lat="48.52469" lon="-2.74176">
        <ele>4.2</ele>
        <time>2013-09-29T07:55:34Z</time>
      </trkpt>
      <trkpt lat="48.52478" lon="-2.74176">
        <ele>4.1</ele>
        <time>2013-09-29T07:55:43Z</time>
      </trkpt>
      <trkpt lat="48.52486" lon="-2.7418">
        <ele>5.1</ele>
        <time>2013-09-29T07:55:54Z</time>
      </trkpt>
      <trkpt lat="48.52487" lon="-2.7418">
        <ele>4.9</ele>
        <time>2013-09-29T07:55:55Z</time>
      </trkpt>
      <trkpt lat="48.52501" lon="-2.74192">
        <ele>3.9</ele>
        <time>2013-09-29T07:56:36Z</time>
      </trkpt>
      <trkpt lat="48.52503" lon="-2.74204">
        <ele>4.9</ele>
        <time>2013-09-29T08:02:03Z</time>
      </trkpt>
      <trkpt lat="48.52502" lon="-2.74206">
        <ele>5.1</ele>
        <time>2013-09-29T08:02:04Z</time>
      </trkpt>
      <trkpt lat="48.52496" lon="-2.74229">
        <ele>4.2</ele>
        <time>2013-09-29T08:02:24Z</time>
      </trkpt>
      <trkpt lat="48.52495" lon="-2.74241">
        <ele>4.4</ele>
        <time>2013-09-29T08:02:33Z</time>
      </trkpt>
      <trkpt lat="48.52493" lon="-2.74253">
        <ele>4.7</ele>
        <time>2013-09-29T08:02:41Z</time>
      </trkpt>
      <trkpt lat="48.5249" lon="-2.74264">
        <ele>4.6</ele>
        <time>2013-09-29T08:02:49Z</time>
      </trkpt>
      <trkpt lat="48.52489" lon="-2.74277">
        <ele>4.8</ele>
        <time>2013-09-29T08:02:57Z</time>
      </trkpt>
      <trkpt lat="48.5249" lon="-2.7429">
        <ele>4.5</ele>
        <time>2013-09-29T08:03:04Z</time>
      </trkpt>
      <trkpt lat="48.5249" lon="-2.74291">
        <ele>4.8</ele>
        <time>2013-09-29T08:03:05Z</time>
      </trkpt>
      <trkpt lat="48.52487" lon="-2.74315">
        <ele>5.6</ele>
        <time>2013-09-29T08:03:22Z</time>
      </trkpt>
      <trkpt lat="48.52484" lon="-2.74328">
        <ele>4.7</ele>
        <time>2013-09-29T08:03:31Z</time>
      </trkpt>
      <trkpt lat="48.52483" lon="-2.74341">
        <ele>4.7</ele>
        <time>2013-09-29T08:03:38Z</time>
      </trkpt>
      <trkpt lat="48.52481" lon="-2.74353">
        <ele>4.4</ele>
        <time>2013-09-29T08:03:46Z</time>
      </trkpt>
      <trkpt lat="48.52479" lon="-2.74365">
        <ele>4.8</ele>
        <time>2013-09-29T08:03:54Z</time>
      </trkpt>
      <trkpt lat="48.52478" lon="-2.74377">
        <ele>5.3</ele>
        <time>2013-09-29T08:04:02Z</time>
      </trkpt>
      <trkpt lat="48.52476" lon="-2.74389">
        <ele>4.9</ele>
        <time>2013-09-29T08:04:09Z</time>
      </trkpt>
      <trkpt lat="48.52476" lon="-2.74391">
        <ele>4.7</ele>
        <time>2013-09-29T08:04:10Z</time>
      </trkpt>
      <trkpt lat="48.52474" lon="-2.74414">
        <ele>5.7</ele>
        <time>2013-09-29T08:04:24Z</time>
      </trkpt>
      <trkpt lat="48.52473" lon="-2.74427">
        <ele>5.2</ele>
        <time>2013-09-29T08:04:32Z</time>
      </trkpt>
      <trkpt lat="48.52471" lon="-2.7444">
        <ele>4.9</ele>
        <time>2013-09-29T08:04:41Z</time>
      </trkpt>
      <trkpt lat="48.52469" lon="-2.74452">
        <ele>4.4</ele>
        <time>2013-09-29T08:04:49Z</time>
      </trkpt>
      <trkpt lat="48.52467" lon="-2.74465">
        <ele>5.5</ele>
        <time>2013-09-29T08:04:57Z</time>
      </trkpt>
      <trkpt lat="48.52464" lon="-2.74477">
        <ele>5.1</ele>
        <time>2013-09-29T08:05:05Z</time>
      </trkpt>
      <trkpt lat="48.52461" lon="-2.74489">
        <ele>5.7</ele>
        <time>2013-09-29T08:05:13Z</time>
      </trkpt>
      <trkpt lat="48.52461" lon="-2.74491">
        <ele>5.7</ele>
        <time>2013-09-29T08:05:14Z</time>
      </trkpt>
      <trkpt lat="48.52456" lon="-2.74513">
        <ele>5.4</ele>
        <time>2013-09-29T08:05:27Z</time>
      </trkpt>
      <trkpt lat="48.52455" lon="-2.74525">
        <ele>5.7</ele>
        <time>2013-09-29T08:05:34Z</time>
      </trkpt>
      <trkpt lat="48.52453" lon="-2.74538">
        <ele>-5.2</ele>
        <time>2013-09-29T08:05:42Z</time>
      </trkpt>
      <trkpt lat="48.52451" lon="-2.7455">
        <ele>-3</ele>
        <time>2013-09-29T08:05:49Z</time>
      </trkpt>
      <trkpt lat="48.52449" lon="-2.74562">
        <ele>8.4</ele>
        <time>2013-09-29T08:05:56Z</time>
      </trkpt>
      <trkpt lat="48.52447" lon="-2.74574">
        <ele>6.2</ele>
        <time>2013-09-29T08:06:04Z</time>
      </trkpt>
      <trkpt lat="48.52445" lon="-2.74587">
        <ele>6</ele>
        <time>2013-09-29T08:06:11Z</time>
      </trkpt>
      <trkpt lat="48.52443" lon="-2.746">
        <ele>2.4</ele>
        <time>2013-09-29T08:06:19Z</time>
      </trkpt>
      <trkpt lat="48.52443" lon="-2.74602">
        <ele>2.1</ele>
        <time>2013-09-29T08:06:20Z</time>
      </trkpt>
      <trkpt lat="48.52437" lon="-2.74624">
        <ele>4.2</ele>
        <time>2013-09-29T08:06:33Z</time>
      </trkpt>
      <trkpt lat="48.52436" lon="-2.74636">
        <ele>5.3</ele>
        <time>2013-09-29T08:06:40Z</time>
      </trkpt>
      <trkpt lat="48.52435" lon="-2.74649">
        <ele>5.6</ele>
        <time>2013-09-29T08:06:48Z</time>
      </trkpt>
      <trkpt lat="48.52433" lon="-2.74662">
        <ele>5.7</ele>
        <time>2013-09-29T08:06:56Z</time>
      </trkpt>
      <trkpt lat="48.52429" lon="-2.74674">
        <ele>5.7</ele>
        <time>2013-09-29T08:07:03Z</time>
      </trkpt>
      <trkpt lat="48.52427" lon="-2.74686">
        <ele>5.7</ele>
        <time>2013-09-29T08:07:10Z</time>
      </trkpt>
      <trkpt lat="48.52425" lon="-2.74698">
        <ele>6.1</ele>
        <time>2013-09-29T08:07:16Z</time>
      </trkpt>
      <trkpt lat="48.52423" lon="-2.74711">
        <ele>6.3</ele>
        <time>2013-09-29T08:07:23Z</time>
      </trkpt>
      <trkpt lat="48.52423" lon="-2.74712">
        <ele>6.4</ele>
        <time>2013-09-29T08:07:24Z</time>
      </trkpt>
      <trkpt lat="48.52419" lon="-2.74736">
        <ele>6.6</ele>
        <time>2013-09-29T08:07:37Z</time>
      </trkpt>
      <trkpt lat="48.52417" lon="-2.74748">
        <ele>6.8</ele>
        <time>2013-09-29T08:07:44Z</time>
      </trkpt>
      <trkpt lat="48.52415" lon="-2.74761">
        <ele>5.7</ele>
        <time>2013-09-29T08:07:51Z</time>
      </trkpt>
      <trkpt lat="48.52413" lon="-2.74773">
        <ele>6.2</ele>
        <time>2013-09-29T08:07:58Z</time>
      </trkpt>
      <trkpt lat="48.5241" lon="-2.74785">
        <ele>6</ele>
        <time>2013-09-29T08:08:05Z</time>
      </trkpt>
      <trkpt lat="48.52407" lon="-2.74797">
        <ele>5.7</ele>
        <time>2013-09-29T08:08:12Z</time>
      </trkpt>
      <trkpt lat="48.52405" lon="-2.74808">
        <ele>5.7</ele>
        <time>2013-09-29T08:08:19Z</time>
      </trkpt>
      <trkpt lat="48.52403" lon="-2.74822">
        <ele>5.3</ele>
        <time>2013-09-29T08:08:27Z</time>
      </trkpt>
      <trkpt lat="48.52402" lon="-2.74823">
        <ele>5.4</ele>
        <time>2013-09-29T08:08:28Z</time>
      </trkpt>
      <trkpt lat="48.524" lon="-2.74847">
        <ele>5.4</ele>
        <time>2013-09-29T08:08:42Z</time>
      </trkpt>
      <trkpt lat="48.52398" lon="-2.74859">
        <ele>5.6</ele>
        <time>2013-09-29T08:08:50Z</time>
      </trkpt>
      <trkpt lat="48.52396" lon="-2.74872">
        <ele>4.9</ele>
        <time>2013-09-29T08:08:58Z</time>
      </trkpt>
      <trkpt lat="48.52394" lon="-2.74885">
        <ele>5.8</ele>
        <time>2013-09-29T08:09:07Z</time>
      </trkpt>
      <trkpt lat="48.52391" lon="-2.74897">
        <ele>5.4</ele>
        <time>2013-09-29T08:09:15Z</time>
      </trkpt>
      <trkpt lat="48.5239" lon="-2.74909">
        <ele>5.8</ele>
        <time>2013-09-29T08:09:23Z</time>
      </trkpt>
      <trkpt lat="48.5239" lon="-2.74921">
        <ele>6.6</ele>
        <time>2013-09-29T08:09:31Z</time>
      </trkpt>
      <trkpt lat="48.52389" lon="-2.74923">
        <ele>6.6</ele>
        <time>2013-09-29T08:09:32Z</time>
      </trkpt>
      <trkpt lat="48.52384" lon="-2.74945">
        <ele>5.8</ele>
        <time>2013-09-29T08:09:45Z</time>
      </trkpt>
      <trkpt lat="48.52382" lon="-2.74958">
        <ele>5.8</ele>
        <time>2013-09-29T08:09:53Z</time>
      </trkpt>
      <trkpt lat="48.5238" lon="-2.74971">
        <ele>6.1</ele>
        <time>2013-09-29T08:10:01Z</time>
      </trkpt>
      <trkpt lat="48.52378" lon="-2.74983">
        <ele>6</ele>
        <time>2013-09-29T08:10:09Z</time>
      </trkpt>
      <trkpt lat="48.52375" lon="-2.74996">
        <ele>5</ele>
        <time>2013-09-29T08:10:18Z</time>
      </trkpt>
      <trkpt lat="48.52374" lon="-2.75008">
        <ele>5.1</ele>
        <time>2013-09-29T08:10:26Z</time>
      </trkpt>
      <trkpt lat="48.52371" lon="-2.7502">
        <ele>5.6</ele>
        <time>2013-09-29T08:10:32Z</time>
      </trkpt>
      <trkpt lat="48.52371" lon="-2.75023">
        <ele>5.4</ele>
        <time>2013-09-29T08:10:33Z</time>
      </trkpt>
      <trkpt lat="48.52368" lon="-2.75046">
        <ele>6.6</ele>
        <time>2013-09-29T08:10:45Z</time>
      </trkpt>
      <trkpt lat="48.52368" lon="-2.7506">
        <ele>5.6</ele>
        <time>2013-09-29T08:10:52Z</time>
      </trkpt>
      <trkpt lat="48.52366" lon="-2.75072">
        <ele>6</ele>
        <time>2013-09-29T08:10:59Z</time>
      </trkpt>
      <trkpt lat="48.52364" lon="-2.75085">
        <ele>5.4</ele>
        <time>2013-09-29T08:11:06Z</time>
      </trkpt>
      <trkpt lat="48.52361" lon="-2.75097">
        <ele>6.7</ele>
        <time>2013-09-29T08:11:12Z</time>
      </trkpt>
      <trkpt lat="48.52359" lon="-2.7511">
        <ele>5.9</ele>
        <time>2013-09-29T08:11:19Z</time>
      </trkpt>
      <trkpt lat="48.52357" lon="-2.75123">
        <ele>5.9</ele>
        <time>2013-09-29T08:11:26Z</time>
      </trkpt>
      <trkpt lat="48.52355" lon="-2.75135">
        <ele>5.5</ele>
        <time>2013-09-29T08:11:33Z</time>
      </trkpt>
      <trkpt lat="48.52352" lon="-2.75146">
        <ele>6.1</ele>
        <time>2013-09-29T08:11:40Z</time>
      </trkpt>
      <trkpt lat="48.52352" lon="-2.75148">
        <ele>6</ele>
        <time>2013-09-29T08:11:41Z</time>
      </trkpt>
      <trkpt lat="48.5235" lon="-2.75171">
        <ele>5.9</ele>
        <time>2013-09-29T08:11:53Z</time>
      </trkpt>
      <trkpt lat="48.52349" lon="-2.75185">
        <ele>6.2</ele>
        <time>2013-09-29T08:12:00Z</time>
      </trkpt>
      <trkpt lat="48.52348" lon="-2.75198">
        <ele>6.4</ele>
        <time>2013-09-29T08:12:08Z</time>
      </trkpt>
      <trkpt lat="48.52347" lon="-2.75212">
        <ele>5.5</ele>
        <time>2013-09-29T08:12:16Z</time>
      </trkpt>
      <trkpt lat="48.52345" lon="-2.75225">
        <ele>6.1</ele>
        <time>2013-09-29T08:12:24Z</time>
      </trkpt>
      <trkpt lat="48.52343" lon="-2.75236">
        <ele>5.7</ele>
        <time>2013-09-29T08:12:31Z</time>
      </trkpt>
      <trkpt lat="48.52341" lon="-2.75249">
        <ele>5.2</ele>
        <time>2013-09-29T08:12:39Z</time>
      </trkpt>
      <trkpt lat="48.52338" lon="-2.75261">
        <ele>5.8</ele>
        <time>2013-09-29T08:12:45Z</time>
      </trkpt>
      <trkpt lat="48.52337" lon="-2.75262">
        <ele>6</ele>
        <time>2013-09-29T08:12:46Z</time>
      </trkpt>
      <trkpt lat="48.52323" lon="-2.75272">
        <ele>6.8</ele>
        <time>2013-09-29T08:12:58Z</time>
      </trkpt>
      <trkpt lat="48.52315" lon="-2.7527">
        <ele>6.4</ele>
        <time>2013-09-29T08:13:07Z</time>
      </trkpt>
      <trkpt lat="48.52306" lon="-2.75268">
        <ele>6.4</ele>
        <time>2013-09-29T08:13:17Z</time>
      </trkpt>
      <trkpt lat="48.52301" lon="-2.75277">
        <ele>5.5</ele>
        <time>2013-09-29T08:13:25Z</time>
      </trkpt>
      <trkpt lat="48.52296" lon="-2.75288">
        <ele>5.8</ele>
        <time>2013-09-29T08:13:32Z</time>
      </trkpt>
      <trkpt lat="48.52289" lon="-2.75295">
        <ele>5.4</ele>
        <time>2013-09-29T08:13:40Z</time>
      </trkpt>
      <trkpt lat="48.5228" lon="-2.75297">
        <ele>7.2</ele>
        <time>2013-09-29T08:13:50Z</time>
      </trkpt>
      <trkpt lat="48.52279" lon="-2.75297">
        <ele>6.8</ele>
        <time>2013-09-29T08:13:51Z</time>
      </trkpt>
      <trkpt lat="48.52265" lon="-2.75306">
        <ele>7.8</ele>
        <time>2013-09-29T08:14:05Z</time>
      </trkpt>
      <trkpt lat="48.52261" lon="-2.75317">
        <ele>9.7</ele>
        <time>2013-09-29T08:14:13Z</time>
      </trkpt>
      <trkpt lat="48.52258" lon="-2.7533">
        <ele>9.7</ele>
        <time>2013-09-29T08:14:21Z</time>
      </trkpt>
      <trkpt lat="48.52254" lon="-2.75341">
        <ele>11.1</ele>
        <time>2013-09-29T08:14:29Z</time>
      </trkpt>
      <trkpt lat="48.52249" lon="-2.75352">
        <ele>11.8</ele>
        <time>2013-09-29T08:14:38Z</time>
      </trkpt>
      <trkpt lat="48.52244" lon="-2.75363">
        <ele>14.1</ele>
        <time>2013-09-29T08:14:48Z</time>
      </trkpt>
      <trkpt lat="48.5224" lon="-2.75374">
        <ele>14.1</ele>
        <time>2013-09-29T08:14:59Z</time>
      </trkpt>
      <trkpt lat="48.5224" lon="-2.75375">
        <ele>14.7</ele>
        <time>2013-09-29T08:15:00Z</time>
      </trkpt>
      <trkpt lat="48.52234" lon="-2.75398">
        <ele>17.5</ele>
        <time>2013-09-29T08:15:21Z</time>
      </trkpt>
      <trkpt lat="48.52231" lon="-2.7541">
        <ele>18.9</ele>
        <time>2013-09-29T08:15:31Z</time>
      </trkpt>
      <trkpt lat="48.52226" lon="-2.7542">
        <ele>20.3</ele>
        <time>2013-09-29T08:15:40Z</time>
      </trkpt>
      <trkpt lat="48.5222" lon="-2.7543">
        <ele>21.3</ele>
        <time>2013-09-29T08:15:55Z</time>
      </trkpt>
      <trkpt lat="48.52216" lon="-2.7544">
        <ele>22.8</ele>
        <time>2013-09-29T08:16:03Z</time>
      </trkpt>
      <trkpt lat="48.52215" lon="-2.75442">
        <ele>23</ele>
        <time>2013-09-29T08:16:04Z</time>
      </trkpt>
      <trkpt lat="48.52209" lon="-2.75465">
        <ele>24.5</ele>
        <time>2013-09-29T08:16:21Z</time>
      </trkpt>
      <trkpt lat="48.52206" lon="-2.75478">
        <ele>26</ele>
        <time>2013-09-29T08:16:30Z</time>
      </trkpt>
      <trkpt lat="48.522" lon="-2.75488">
        <ele>26.9</ele>
        <time>2013-09-29T08:16:40Z</time>
      </trkpt>
      <trkpt lat="48.52196" lon="-2.75498">
        <ele>28.7</ele>
        <time>2013-09-29T08:16:49Z</time>
      </trkpt>
      <trkpt lat="48.52194" lon="-2.7551">
        <ele>29.8</ele>
        <time>2013-09-29T08:16:57Z</time>
      </trkpt>
      <trkpt lat="48.52194" lon="-2.75523">
        <ele>29.4</ele>
        <time>2013-09-29T08:17:05Z</time>
      </trkpt>
      <trkpt lat="48.52194" lon="-2.75524">
        <ele>29.6</ele>
        <time>2013-09-29T08:17:06Z</time>
      </trkpt>
      <trkpt lat="48.52198" lon="-2.75549">
        <ele>32</ele>
        <time>2013-09-29T08:17:23Z</time>
      </trkpt>
      <trkpt lat="48.52198" lon="-2.75562">
        <ele>33.9</ele>
        <time>2013-09-29T08:17:33Z</time>
      </trkpt>
      <trkpt lat="48.52193" lon="-2.75572">
        <ele>34.1</ele>
        <time>2013-09-29T08:17:40Z</time>
      </trkpt>
      <trkpt lat="48.5219" lon="-2.75584">
        <ele>35.7</ele>
        <time>2013-09-29T08:17:49Z</time>
      </trkpt>
      <trkpt lat="48.52186" lon="-2.75595">
        <ele>36.3</ele>
        <time>2013-09-29T08:17:58Z</time>
      </trkpt>
      <trkpt lat="48.5218" lon="-2.75603">
        <ele>38.5</ele>
        <time>2013-09-29T08:18:08Z</time>
      </trkpt>
      <trkpt lat="48.52179" lon="-2.75604">
        <ele>38.6</ele>
        <time>2013-09-29T08:18:09Z</time>
      </trkpt>
      <trkpt lat="48.52167" lon="-2.7562">
        <ele>40.6</ele>
        <time>2013-09-29T08:18:28Z</time>
      </trkpt>
      <trkpt lat="48.52163" lon="-2.75631">
        <ele>42.8</ele>
        <time>2013-09-29T08:18:39Z</time>
      </trkpt>
      <trkpt lat="48.52161" lon="-2.75643">
        <ele>43.3</ele>
        <time>2013-09-29T08:18:50Z</time>
      </trkpt>
      <trkpt lat="48.52161" lon="-2.75656">
        <ele>43.8</ele>
        <time>2013-09-29T08:18:59Z</time>
      </trkpt>
      <trkpt lat="48.52154" lon="-2.75665">
        <ele>44.3</ele>
        <time>2013-09-29T08:19:13Z</time>
      </trkpt>
      <trkpt lat="48.52154" lon="-2.75665">
        <ele>44.3</ele>
        <time>2013-09-29T08:19:14Z</time>
      </trkpt>
      <trkpt lat="48.52138" lon="-2.75671">
        <ele>45.3</ele>
        <time>2013-09-29T08:19:27Z</time>
      </trkpt>
      <trkpt lat="48.52132" lon="-2.75679">
        <ele>46.1</ele>
        <time>2013-09-29T08:19:34Z</time>
      </trkpt>
      <trkpt lat="48.52125" lon="-2.75687">
        <ele>46.9</ele>
        <time>2013-09-29T08:19:42Z</time>
      </trkpt>
      <trkpt lat="48.52119" lon="-2.75695">
        <ele>47.4</ele>
        <time>2013-09-29T08:19:50Z</time>
      </trkpt>
      <trkpt lat="48.52113" lon="-2.75705">
        <ele>48.4</ele>
        <time>2013-09-29T08:19:59Z</time>
      </trkpt>
      <trkpt lat="48.52107" lon="-2.75713">
        <ele>50</ele>
        <time>2013-09-29T08:20:07Z</time>
      </trkpt>
      <trkpt lat="48.521" lon="-2.7572">
        <ele>51.3</ele>
        <time>2013-09-29T08:20:15Z</time>
      </trkpt>
      <trkpt lat="48.52099" lon="-2.7572">
        <ele>51.3</ele>
        <time>2013-09-29T08:20:16Z</time>
      </trkpt>
      <trkpt lat="48.52085" lon="-2.75734">
        <ele>53.3</ele>
        <time>2013-09-29T08:20:35Z</time>
      </trkpt>
      <trkpt lat="48.52078" lon="-2.75741">
        <ele>54.6</ele>
        <time>2013-09-29T08:20:45Z</time>
      </trkpt>
      <trkpt lat="48.52071" lon="-2.7575">
        <ele>55.3</ele>
        <time>2013-09-29T08:20:53Z</time>
      </trkpt>
      <trkpt lat="48.52064" lon="-2.75756">
        <ele>56.6</ele>
        <time>2013-09-29T08:21:01Z</time>
      </trkpt>
      <trkpt lat="48.52057" lon="-2.75763">
        <ele>57.7</ele>
        <time>2013-09-29T08:21:09Z</time>
      </trkpt>
      <trkpt lat="48.52049" lon="-2.75769">
        <ele>59.5</ele>
        <time>2013-09-29T08:21:18Z</time>
      </trkpt>
      <trkpt lat="48.52048" lon="-2.75769">
        <ele>59.6</ele>
        <time>2013-09-29T08:21:19Z</time>
      </trkpt>
      <trkpt lat="48.52035" lon="-2.7578">
        <ele>61.4</ele>
        <time>2013-09-29T08:21:36Z</time>
      </trkpt>
      <trkpt lat="48.52026" lon="-2.75782">
        <ele>60.5</ele>
        <time>2013-09-29T08:21:46Z</time>
      </trkpt>
      <trkpt lat="48.52018" lon="-2.75787">
        <ele>65.5</ele>
        <time>2013-09-29T08:22:00Z</time>
      </trkpt>
      <trkpt lat="48.52011" lon="-2.75793">
        <ele>66.9</ele>
        <time>2013-09-29T08:22:11Z</time>
      </trkpt>
      <trkpt lat="48.52003" lon="-2.758">
        <ele>68</ele>
        <time>2013-09-29T08:22:21Z</time>
      </trkpt>
      <trkpt lat="48.52003" lon="-2.758">
        <ele>68</ele>
        <time>2013-09-29T08:22:22Z</time>
      </trkpt>
      <trkpt lat="48.51989" lon="-2.75812">
        <ele>71.1</ele>
        <time>2013-09-29T08:22:40Z</time>
      </trkpt>
      <trkpt lat="48.51981" lon="-2.75818">
        <ele>71.9</ele>
        <time>2013-09-29T08:22:49Z</time>
      </trkpt>
      <trkpt lat="48.51975" lon="-2.75827">
        <ele>73.8</ele>
        <time>2013-09-29T08:23:00Z</time>
      </trkpt>
      <trkpt lat="48.51968" lon="-2.75835">
        <ele>75.9</ele>
        <time>2013-09-29T08:23:15Z</time>
      </trkpt>
      <trkpt lat="48.51961" lon="-2.75843">
        <ele>76.7</ele>
        <time>2013-09-29T08:23:26Z</time>
      </trkpt>
      <trkpt lat="48.5196" lon="-2.75845">
        <ele>76.7</ele>
        <time>2013-09-29T08:23:27Z</time>
      </trkpt>
      <trkpt lat="48.51946" lon="-2.75857">
        <ele>79.3</ele>
        <time>2013-09-29T08:23:43Z</time>
      </trkpt>
      <trkpt lat="48.51938" lon="-2.75863">
        <ele>80.1</ele>
        <time>2013-09-29T08:23:53Z</time>
      </trkpt>
      <trkpt lat="48.51931" lon="-2.75869">
        <ele>81.4</ele>
        <time>2013-09-29T08:24:02Z</time>
      </trkpt>
      <trkpt lat="48.51923" lon="-2.75873">
        <ele>81.6</ele>
        <time>2013-09-29T08:24:11Z</time>
      </trkpt>
      <trkpt lat="48.51914" lon="-2.75876">
        <ele>82</ele>
        <time>2013-09-29T08:24:21Z</time>
      </trkpt>
      <trkpt lat="48.51906" lon="-2.75876">
        <ele>82.8</ele>
        <time>2013-09-29T08:24:29Z</time>
      </trkpt>
      <trkpt lat="48.51905" lon="-2.75877">
        <ele>83.2</ele>
        <time>2013-09-29T08:24:30Z</time>
      </trkpt>
      <trkpt lat="48.5189" lon="-2.75875">
        <ele>84.1</ele>
        <time>2013-09-29T08:24:44Z</time>
      </trkpt>
      <trkpt lat="48.51882" lon="-2.75871">
        <ele>84.1</ele>
        <time>2013-09-29T08:24:50Z</time>
      </trkpt>
      <trkpt lat="48.51874" lon="-2.75871">
        <ele>84.8</ele>
        <time>2013-09-29T08:25:00Z</time>
      </trkpt>
      <trkpt lat="48.51867" lon="-2.75876">
        <ele>85.8</ele>
        <time>2013-09-29T08:25:08Z</time>
      </trkpt>
      <trkpt lat="48.51859" lon="-2.75881">
        <ele>84.4</ele>
        <time>2013-09-29T08:25:15Z</time>
      </trkpt>
      <trkpt lat="48.51851" lon="-2.75883">
        <ele>86.3</ele>
        <time>2013-09-29T08:25:23Z</time>
      </trkpt>
      <trkpt lat="48.51842" lon="-2.75884">
        <ele>85.3</ele>
        <time>2013-09-29T08:25:30Z</time>
      </trkpt>
      <trkpt lat="48.51834" lon="-2.75888">
        <ele>85.3</ele>
        <time>2013-09-29T08:25:36Z</time>
      </trkpt>
      <trkpt lat="48.51833" lon="-2.75889">
        <ele>85.1</ele>
        <time>2013-09-29T08:25:37Z</time>
      </trkpt>
      <trkpt lat="48.51818" lon="-2.75897">
        <ele>85.3</ele>
        <time>2013-09-29T08:25:49Z</time>
      </trkpt>
      <trkpt lat="48.5181" lon="-2.75902">
        <ele>86.7</ele>
        <time>2013-09-29T08:25:56Z</time>
      </trkpt>
      <trkpt lat="48.51802" lon="-2.75907">
        <ele>84</ele>
        <time>2013-09-29T08:26:04Z</time>
      </trkpt>
      <trkpt lat="48.51795" lon="-2.75915">
        <ele>84.8</ele>
        <time>2013-09-29T08:26:11Z</time>
      </trkpt>
      <trkpt lat="48.51787" lon="-2.75921">
        <ele>84.6</ele>
        <time>2013-09-29T08:26:18Z</time>
      </trkpt>
      <trkpt lat="48.5178" lon="-2.75927">
        <ele>84.1</ele>
        <time>2013-09-29T08:26:25Z</time>
      </trkpt>
      <trkpt lat="48.51772" lon="-2.75932">
        <ele>84</ele>
        <time>2013-09-29T08:26:32Z</time>
      </trkpt>
      <trkpt lat="48.51765" lon="-2.75938">
        <ele>83.5</ele>
        <time>2013-09-29T08:26:39Z</time>
      </trkpt>
      <trkpt lat="48.51764" lon="-2.75939">
        <ele>83.5</ele>
        <time>2013-09-29T08:26:40Z</time>
      </trkpt>
      <trkpt lat="48.51749" lon="-2.75948">
        <ele>84.1</ele>
        <time>2013-09-29T08:27:03Z</time>
      </trkpt>
      <trkpt lat="48.51742" lon="-2.75954">
        <ele>84.1</ele>
        <time>2013-09-29T08:27:10Z</time>
      </trkpt>
      <trkpt lat="48.51734" lon="-2.75962">
        <ele>84.3</ele>
        <time>2013-09-29T08:27:18Z</time>
      </trkpt>
      <trkpt lat="48.51727" lon="-2.75969">
        <ele>83.8</ele>
        <time>2013-09-29T08:27:25Z</time>
      </trkpt>
      <trkpt lat="48.51721" lon="-2.75978">
        <ele>83.7</ele>
        <time>2013-09-29T08:27:32Z</time>
      </trkpt>
      <trkpt lat="48.51716" lon="-2.75988">
        <ele>83.5</ele>
        <time>2013-09-29T08:27:39Z</time>
      </trkpt>
      <trkpt lat="48.5171" lon="-2.75996">
        <ele>83.4</ele>
        <time>2013-09-29T08:27:47Z</time>
      </trkpt>
      <trkpt lat="48.51709" lon="-2.75997">
        <ele>83</ele>
        <time>2013-09-29T08:27:48Z</time>
      </trkpt>
      <trkpt lat="48.51697" lon="-2.76013">
        <ele>82.9</ele>
        <time>2013-09-29T08:28:08Z</time>
      </trkpt>
      <trkpt lat="48.51689" lon="-2.76019">
        <ele>83.1</ele>
        <time>2013-09-29T08:28:17Z</time>
      </trkpt>
      <trkpt lat="48.51681" lon="-2.76023">
        <ele>83.2</ele>
        <time>2013-09-29T08:28:25Z</time>
      </trkpt>
      <trkpt lat="48.51672" lon="-2.76024">
        <ele>82.4</ele>
        <time>2013-09-29T08:28:33Z</time>
      </trkpt>
      <trkpt lat="48.51664" lon="-2.76026">
        <ele>82.1</ele>
        <time>2013-09-29T08:28:41Z</time>
      </trkpt>
      <trkpt lat="48.51655" lon="-2.76024">
        <ele>81.7</ele>
        <time>2013-09-29T08:28:48Z</time>
      </trkpt>
      <trkpt lat="48.51654" lon="-2.76023">
        <ele>81.5</ele>
        <time>2013-09-29T08:28:49Z</time>
      </trkpt>
      <trkpt lat="48.51638" lon="-2.76021">
        <ele>80.7</ele>
        <time>2013-09-29T08:29:38Z</time>
      </trkpt>
      <trkpt lat="48.5163" lon="-2.76019">
        <ele>79.9</ele>
        <time>2013-09-29T08:29:49Z</time>
      </trkpt>
      <trkpt lat="48.51628" lon="-2.76019">
        <ele>79.7</ele>
        <time>2013-09-29T08:29:50Z</time>
      </trkpt>
      <trkpt lat="48.51614" lon="-2.76022">
        <ele>79.3</ele>
        <time>2013-09-29T08:29:57Z</time>
      </trkpt>
      <trkpt lat="48.51606" lon="-2.76021">
        <ele>79</ele>
        <time>2013-09-29T08:30:02Z</time>
      </trkpt>
      <trkpt lat="48.51598" lon="-2.76019">
        <ele>78.5</ele>
        <time>2013-09-29T08:30:07Z</time>
      </trkpt>
      <trkpt lat="48.5159" lon="-2.76016">
        <ele>77.8</ele>
        <time>2013-09-29T08:30:12Z</time>
      </trkpt>
      <trkpt lat="48.51581" lon="-2.76014">
        <ele>77.9</ele>
        <time>2013-09-29T08:30:20Z</time>
      </trkpt>
      <trkpt lat="48.5158" lon="-2.76027">
        <ele>77.7</ele>
        <time>2013-09-29T08:30:27Z</time>
      </trkpt>
      <trkpt lat="48.51575" lon="-2.76037">
        <ele>78.4</ele>
        <time>2013-09-29T08:30:31Z</time>
      </trkpt>
      <trkpt lat="48.51567" lon="-2.76044">
        <ele>77.7</ele>
        <time>2013-09-29T08:30:33Z</time>
      </trkpt>
      <trkpt lat="48.5156" lon="-2.76045">
        <ele>77.4</ele>
        <time>2013-09-29T08:30:35Z</time>
      </trkpt>
      <trkpt lat="48.51553" lon="-2.76042">
        <ele>77.5</ele>
        <time>2013-09-29T08:30:37Z</time>
      </trkpt>
      <trkpt lat="48.51547" lon="-2.76037">
        <ele>77</ele>
        <time>2013-09-29T08:30:40Z</time>
      </trkpt>
      <trkpt lat="48.51541" lon="-2.76032">
        <ele>77.6</ele>
        <time>2013-09-29T08:30:43Z</time>
      </trkpt>
      <trkpt lat="48.51535" lon="-2.76024">
        <ele>77.5</ele>
        <time>2013-09-29T08:30:47Z</time>
      </trkpt>
      <trkpt lat="48.51528" lon="-2.76016">
        <ele>78.9</ele>
        <time>2013-09-29T08:31:19Z</time>
      </trkpt>
      <trkpt lat="48.51527" lon="-2.76016">
        <ele>78.8</ele>
        <time>2013-09-29T08:31:20Z</time>
      </trkpt>
      <trkpt lat="48.5151" lon="-2.7602">
        <ele>77.6</ele>
        <time>2013-09-29T08:32:02Z</time>
      </trkpt>
      <trkpt lat="48.51502" lon="-2.76023">
        <ele>78.7</ele>
        <time>2013-09-29T08:32:12Z</time>
      </trkpt>
      <trkpt lat="48.51494" lon="-2.76025">
        <ele>78.2</ele>
        <time>2013-09-29T08:32:18Z</time>
      </trkpt>
      <trkpt lat="48.51485" lon="-2.76026">
        <ele>77.6</ele>
        <time>2013-09-29T08:32:24Z</time>
      </trkpt>
      <trkpt lat="48.51484" lon="-2.76026">
        <ele>77.6</ele>
        <time>2013-09-29T08:32:25Z</time>
      </trkpt>
      <trkpt lat="48.5147" lon="-2.76026">
        <ele>77.1</ele>
        <time>2013-09-29T08:32:32Z</time>
      </trkpt>
      <trkpt lat="48.51461" lon="-2.76027">
        <ele>76.2</ele>
        <time>2013-09-29T08:32:39Z</time>
      </trkpt>
      <trkpt lat="48.51453" lon="-2.76031">
        <ele>76.8</ele>
        <time>2013-09-29T08:32:50Z</time>
      </trkpt>
      <trkpt lat="48.51444" lon="-2.76032">
        <ele>76.1</ele>
        <time>2013-09-29T08:33:00Z</time>
      </trkpt>
      <trkpt lat="48.51435" lon="-2.76033">
        <ele>75.8</ele>
        <time>2013-09-29T08:33:12Z</time>
      </trkpt>
      <trkpt lat="48.51428" lon="-2.76027">
        <ele>75.1</ele>
        <time>2013-09-29T08:33:19Z</time>
      </trkpt>
      <trkpt lat="48.5142" lon="-2.7602">
        <ele>75.6</ele>
        <time>2013-09-29T08:33:24Z</time>
      </trkpt>
      <trkpt lat="48.51414" lon="-2.76014">
        <ele>75.8</ele>
        <time>2013-09-29T08:33:28Z</time>
      </trkpt>
      <trkpt lat="48.51413" lon="-2.76013">
        <ele>75.8</ele>
        <time>2013-09-29T08:33:29Z</time>
      </trkpt>
      <trkpt lat="48.514" lon="-2.76003">
        <ele>75.8</ele>
        <time>2013-09-29T08:33:39Z</time>
      </trkpt>
      <trkpt lat="48.51393" lon="-2.75997">
        <ele>76.3</ele>
        <time>2013-09-29T08:33:46Z</time>
      </trkpt>
      <trkpt lat="48.51385" lon="-2.75994">
        <ele>75.9</ele>
        <time>2013-09-29T08:33:52Z</time>
      </trkpt>
      <trkpt lat="48.51378" lon="-2.7599">
        <ele>75.8</ele>
        <time>2013-09-29T08:33:57Z</time>
      </trkpt>
      <trkpt lat="48.5137" lon="-2.75985">
        <ele>76.1</ele>
        <time>2013-09-29T08:34:02Z</time>
      </trkpt>
      <trkpt lat="48.51363" lon="-2.75982">
        <ele>75.9</ele>
        <time>2013-09-29T08:34:07Z</time>
      </trkpt>
      <trkpt lat="48.51355" lon="-2.75977">
        <ele>76</ele>
        <time>2013-09-29T08:34:13Z</time>
      </trkpt>
      <trkpt lat="48.51347" lon="-2.75973">
        <ele>76.5</ele>
        <time>2013-09-29T08:34:18Z</time>
      </trkpt>
      <trkpt lat="48.5134" lon="-2.75969">
        <ele>76.3</ele>
        <time>2013-09-29T08:34:23Z</time>
      </trkpt>
      <trkpt lat="48.51332" lon="-2.75965">
        <ele>76.3</ele>
        <time>2013-09-29T08:34:29Z</time>
      </trkpt>
      <trkpt lat="48.51331" lon="-2.75965">
        <ele>76.4</ele>
        <time>2013-09-29T08:34:30Z</time>
      </trkpt>
      <trkpt lat="48.51321" lon="-2.75948">
        <ele>77.9</ele>
        <time>2013-09-29T08:34:57Z</time>
      </trkpt>
      <trkpt lat="48.51313" lon="-2.75945">
        <ele>77.4</ele>
        <time>2013-09-29T08:35:07Z</time>
      </trkpt>
      <trkpt lat="48.51305" lon="-2.7594">
        <ele>77.1</ele>
        <time>2013-09-29T08:35:16Z</time>
      </trkpt>
      <trkpt lat="48.51298" lon="-2.75933">
        <ele>77.9</ele>
        <time>2013-09-29T08:35:26Z</time>
      </trkpt>
      <trkpt lat="48.5129" lon="-2.75927">
        <ele>77.9</ele>
        <time>2013-09-29T08:35:34Z</time>
      </trkpt>
      <trkpt lat="48.51289" lon="-2.75927">
        <ele>78</ele>
        <time>2013-09-29T08:35:35Z</time>
      </trkpt>
      <trkpt lat="48.51273" lon="-2.75926">
        <ele>78.6</ele>
        <time>2013-09-29T08:35:48Z</time>
      </trkpt>
      <trkpt lat="48.51265" lon="-2.75923">
        <ele>78.4</ele>
        <time>2013-09-29T08:35:52Z</time>
      </trkpt>
      <trkpt lat="48.51257" lon="-2.75918">
        <ele>78</ele>
        <time>2013-09-29T08:35:56Z</time>
      </trkpt>
      <trkpt lat="48.51249" lon="-2.75913">
        <ele>77.7</ele>
        <time>2013-09-29T08:36:00Z</time>
      </trkpt>
      <trkpt lat="48.51241" lon="-2.75908">
        <ele>78.4</ele>
        <time>2013-09-29T08:36:04Z</time>
      </trkpt>
      <trkpt lat="48.51232" lon="-2.75908">
        <ele>78.5</ele>
        <time>2013-09-29T08:36:09Z</time>
      </trkpt>
      <trkpt lat="48.51228" lon="-2.75915">
        <ele>78.8</ele>
        <time>2013-09-29T08:36:11Z</time>
      </trkpt>
      <trkpt lat="48.51222" lon="-2.75923">
        <ele>78.8</ele>
        <time>2013-09-29T08:36:13Z</time>
      </trkpt>
      <trkpt lat="48.51216" lon="-2.75931">
        <ele>79</ele>
        <time>2013-09-29T08:36:16Z</time>
      </trkpt>
      <trkpt lat="48.51219" lon="-2.75943">
        <ele>79</ele>
        <time>2013-09-29T08:36:33Z</time>
      </trkpt>
      <trkpt lat="48.5122" lon="-2.75956">
        <ele>79</ele>
        <time>2013-09-29T08:36:46Z</time>
      </trkpt>
      <trkpt lat="48.5122" lon="-2.75957">
        <ele>78.8</ele>
        <time>2013-09-29T08:36:47Z</time>
      </trkpt>
      <trkpt lat="48.51211" lon="-2.75974">
        <ele>78.7</ele>
        <time>2013-09-29T08:37:00Z</time>
      </trkpt>
      <trkpt lat="48.51204" lon="-2.75977">
        <ele>78.9</ele>
        <time>2013-09-29T08:37:04Z</time>
      </trkpt>
      <trkpt lat="48.51197" lon="-2.75981">
        <ele>79.3</ele>
        <time>2013-09-29T08:37:08Z</time>
      </trkpt>
      <trkpt lat="48.51188" lon="-2.75982">
        <ele>79.7</ele>
        <time>2013-09-29T08:37:16Z</time>
      </trkpt>
      <trkpt lat="48.51179" lon="-2.75982">
        <ele>79.3</ele>
        <time>2013-09-29T08:37:22Z</time>
      </trkpt>
      <trkpt lat="48.5117" lon="-2.75982">
        <ele>79.7</ele>
        <time>2013-09-29T08:37:30Z</time>
      </trkpt>
      <trkpt lat="48.51162" lon="-2.75984">
        <ele>79.8</ele>
        <time>2013-09-29T08:37:41Z</time>
      </trkpt>
      <trkpt lat="48.51153" lon="-2.75984">
        <ele>79.7</ele>
        <time>2013-09-29T08:37:52Z</time>
      </trkpt>
      <trkpt lat="48.51151" lon="-2.75983">
        <ele>79.6</ele>
        <time>2013-09-29T08:37:53Z</time>
      </trkpt>
      <trkpt lat="48.5114" lon="-2.7597">
        <ele>79.3</ele>
        <time>2013-09-29T08:37:57Z</time>
      </trkpt>
      <trkpt lat="48.51135" lon="-2.75962">
        <ele>79.3</ele>
        <time>2013-09-29T08:37:59Z</time>
      </trkpt>
      <trkpt lat="48.51132" lon="-2.75953">
        <ele>79.5</ele>
        <time>2013-09-29T08:38:01Z</time>
      </trkpt>
      <trkpt lat="48.51128" lon="-2.75943">
        <ele>79.6</ele>
        <time>2013-09-29T08:38:04Z</time>
      </trkpt>
      <trkpt lat="48.51124" lon="-2.75931">
        <ele>79.5</ele>
        <time>2013-09-29T08:38:10Z</time>
      </trkpt>
      <trkpt lat="48.51116" lon="-2.7593">
        <ele>79.5</ele>
        <time>2013-09-29T08:38:23Z</time>
      </trkpt>
      <trkpt lat="48.51107" lon="-2.7593">
        <ele>79.9</ele>
        <time>2013-09-29T08:38:30Z</time>
      </trkpt>
      <trkpt lat="48.51099" lon="-2.75924">
        <ele>79</ele>
        <time>2013-09-29T08:38:39Z</time>
      </trkpt>
      <trkpt lat="48.51091" lon="-2.75921">
        <ele>79.9</ele>
        <time>2013-09-29T08:38:47Z</time>
      </trkpt>
      <trkpt lat="48.51085" lon="-2.75916">
        <ele>79.7</ele>
        <time>2013-09-29T08:38:50Z</time>
      </trkpt>
      <trkpt lat="48.5108" lon="-2.7591">
        <ele>79.7</ele>
        <time>2013-09-29T08:38:52Z</time>
      </trkpt>
      <trkpt lat="48.51073" lon="-2.75907">
        <ele>79.9</ele>
        <time>2013-09-29T08:38:55Z</time>
      </trkpt>
      <trkpt lat="48.51071" lon="-2.75907">
        <ele>79.9</ele>
        <time>2013-09-29T08:38:56Z</time>
      </trkpt>
      <trkpt lat="48.51059" lon="-2.7592">
        <ele>80.3</ele>
        <time>2013-09-29T08:39:09Z</time>
      </trkpt>
      <trkpt lat="48.51053" lon="-2.7593">
        <ele>81</ele>
        <time>2013-09-29T08:39:16Z</time>
      </trkpt>
      <trkpt lat="48.51048" lon="-2.7594">
        <ele>81.1</ele>
        <time>2013-09-29T08:39:23Z</time>
      </trkpt>
      <trkpt lat="48.51041" lon="-2.75949">
        <ele>78.7</ele>
        <time>2013-09-29T08:39:32Z</time>
      </trkpt>
      <trkpt lat="48.51035" lon="-2.75957">
        <ele>80.3</ele>
        <time>2013-09-29T08:39:45Z</time>
      </trkpt>
      <trkpt lat="48.5104" lon="-2.75966">
        <ele>81.4</ele>
        <time>2013-09-29T08:40:00Z</time>
      </trkpt>
      <trkpt lat="48.51041" lon="-2.75967">
        <ele>81.5</ele>
        <time>2013-09-29T08:40:01Z</time>
      </trkpt>
      <trkpt lat="48.51044" lon="-2.7599">
        <ele>82</ele>
        <time>2013-09-29T08:40:12Z</time>
      </trkpt>
      <trkpt lat="48.51038" lon="-2.76">
        <ele>82.5</ele>
        <time>2013-09-29T08:40:18Z</time>
      </trkpt>
      <trkpt lat="48.5103" lon="-2.76005">
        <ele>82.3</ele>
        <time>2013-09-29T08:40:24Z</time>
      </trkpt>
      <trkpt lat="48.51022" lon="-2.7601">
        <ele>82.5</ele>
        <time>2013-09-29T08:40:30Z</time>
      </trkpt>
      <trkpt lat="48.51015" lon="-2.76012">
        <ele>82.1</ele>
        <time>2013-09-29T08:40:33Z</time>
      </trkpt>
      <trkpt lat="48.51007" lon="-2.76014">
        <ele>81.9</ele>
        <time>2013-09-29T08:40:35Z</time>
      </trkpt>
      <trkpt lat="48.51" lon="-2.76015">
        <ele>82.3</ele>
        <time>2013-09-29T08:40:37Z</time>
      </trkpt>
      <trkpt lat="48.50994" lon="-2.76015">
        <ele>82.8</ele>
        <time>2013-09-29T08:40:39Z</time>
      </trkpt>
      <trkpt lat="48.50985" lon="-2.76015">
        <ele>82.7</ele>
        <time>2013-09-29T08:40:42Z</time>
      </trkpt>
      <trkpt lat="48.50977" lon="-2.7601">
        <ele>83.1</ele>
        <time>2013-09-29T08:40:45Z</time>
      </trkpt>
      <trkpt lat="48.50969" lon="-2.76005">
        <ele>83.9</ele>
        <time>2013-09-29T08:40:49Z</time>
      </trkpt>
      <trkpt lat="48.50963" lon="-2.76001">
        <ele>83.9</ele>
        <time>2013-09-29T08:40:52Z</time>
      </trkpt>
      <trkpt lat="48.50954" lon="-2.75997">
        <ele>83.6</ele>
        <time>2013-09-29T08:40:57Z</time>
      </trkpt>
      <trkpt lat="48.50946" lon="-2.76">
        <ele>83.7</ele>
        <time>2013-09-29T08:41:08Z</time>
      </trkpt>
      <trkpt lat="48.50946" lon="-2.76002">
        <ele>83.7</ele>
        <time>2013-09-29T08:41:09Z</time>
      </trkpt>
      <trkpt lat="48.50936" lon="-2.76021">
        <ele>84.8</ele>
        <time>2013-09-29T08:41:28Z</time>
      </trkpt>
      <trkpt lat="48.50927" lon="-2.76025">
        <ele>85.2</ele>
        <time>2013-09-29T08:41:36Z</time>
      </trkpt>
      <trkpt lat="48.50924" lon="-2.76036">
        <ele>85.2</ele>
        <time>2013-09-29T08:41:48Z</time>
      </trkpt>
      <trkpt lat="48.50917" lon="-2.76039">
        <ele>85.6</ele>
        <time>2013-09-29T08:41:51Z</time>
      </trkpt>
      <trkpt lat="48.50908" lon="-2.76041">
        <ele>85.4</ele>
        <time>2013-09-29T08:41:54Z</time>
      </trkpt>
      <trkpt lat="48.50901" lon="-2.76043">
        <ele>84.7</ele>
        <time>2013-09-29T08:41:57Z</time>
      </trkpt>
      <trkpt lat="48.50892" lon="-2.76043">
        <ele>84.4</ele>
        <time>2013-09-29T08:42:01Z</time>
      </trkpt>
      <trkpt lat="48.50884" lon="-2.76044">
        <ele>84.8</ele>
        <time>2013-09-29T08:42:06Z</time>
      </trkpt>
      <trkpt lat="48.50876" lon="-2.76046">
        <ele>84.6</ele>
        <time>2013-09-29T08:42:12Z</time>
      </trkpt>
      <trkpt lat="48.50874" lon="-2.76046">
        <ele>84.7</ele>
        <time>2013-09-29T08:42:13Z</time>
      </trkpt>
      <trkpt lat="48.5086" lon="-2.76047">
        <ele>85.3</ele>
        <time>2013-09-29T08:42:22Z</time>
      </trkpt>
      <trkpt lat="48.50851" lon="-2.76048">
        <ele>86.1</ele>
        <time>2013-09-29T08:42:28Z</time>
      </trkpt>
      <trkpt lat="48.50842" lon="-2.76051">
        <ele>86.7</ele>
        <time>2013-09-29T08:42:35Z</time>
      </trkpt>
      <trkpt lat="48.50834" lon="-2.76054">
        <ele>87</ele>
        <time>2013-09-29T08:42:43Z</time>
      </trkpt>
      <trkpt lat="48.50826" lon="-2.7606">
        <ele>86.6</ele>
        <time>2013-09-29T08:42:53Z</time>
      </trkpt>
      <trkpt lat="48.50817" lon="-2.7606">
        <ele>87.3</ele>
        <time>2013-09-29T08:43:02Z</time>
      </trkpt>
      <trkpt lat="48.50811" lon="-2.76055">
        <ele>87.3</ele>
        <time>2013-09-29T08:43:07Z</time>
      </trkpt>
      <trkpt lat="48.50804" lon="-2.76046">
        <ele>86.6</ele>
        <time>2013-09-29T08:43:11Z</time>
      </trkpt>
      <trkpt lat="48.50795" lon="-2.76049">
        <ele>88</ele>
        <time>2013-09-29T08:43:22Z</time>
      </trkpt>
      <trkpt lat="48.50794" lon="-2.7605">
        <ele>88.1</ele>
        <time>2013-09-29T08:43:23Z</time>
      </trkpt>
      <trkpt lat="48.50781" lon="-2.76059">
        <ele>88.5</ele>
        <time>2013-09-29T08:43:33Z</time>
      </trkpt>
      <trkpt lat="48.50773" lon="-2.76064">
        <ele>88.5</ele>
        <time>2013-09-29T08:43:38Z</time>
      </trkpt>
      <trkpt lat="48.50765" lon="-2.76068">
        <ele>87.4</ele>
        <time>2013-09-29T08:43:44Z</time>
      </trkpt>
      <trkpt lat="48.50757" lon="-2.76067">
        <ele>87.4</ele>
        <time>2013-09-29T08:43:54Z</time>
      </trkpt>
      <trkpt lat="48.50751" lon="-2.76058">
        <ele>88.6</ele>
        <time>2013-09-29T08:44:06Z</time>
      </trkpt>
      <trkpt lat="48.50746" lon="-2.76068">
        <ele>89</ele>
        <time>2013-09-29T08:44:36Z</time>
      </trkpt>
      <trkpt lat="48.50746" lon="-2.76069">
        <ele>88.9</ele>
        <time>2013-09-29T08:44:37Z</time>
      </trkpt>
      <trkpt lat="48.50753" lon="-2.76091">
        <ele>89.4</ele>
        <time>2013-09-29T08:44:55Z</time>
      </trkpt>
      <trkpt lat="48.50758" lon="-2.76102">
        <ele>88.8</ele>
        <time>2013-09-29T08:45:15Z</time>
      </trkpt>
      <trkpt lat="48.5076" lon="-2.76115">
        <ele>89.6</ele>
        <time>2013-09-29T08:45:23Z</time>
      </trkpt>
      <trkpt lat="48.5076" lon="-2.76127">
        <ele>89.4</ele>
        <time>2013-09-29T08:45:29Z</time>
      </trkpt>
      <trkpt lat="48.50761" lon="-2.76139">
        <ele>89.4</ele>
        <time>2013-09-29T08:45:36Z</time>
      </trkpt>
      <trkpt lat="48.50763" lon="-2.76151">
        <ele>90.4</ele>
        <time>2013-09-29T08:45:45Z</time>
      </trkpt>
      <trkpt lat="48.50762" lon="-2.76153">
        <ele>90.1</ele>
        <time>2013-09-29T08:45:46Z</time>
      </trkpt>
      <trkpt lat="48.50763" lon="-2.76177">
        <ele>89.6</ele>
        <time>2013-09-29T08:46:00Z</time>
      </trkpt>
      <trkpt lat="48.50765" lon="-2.76189">
        <ele>90.5</ele>
        <time>2013-09-29T08:46:07Z</time>
      </trkpt>
      <trkpt lat="48.50768" lon="-2.76201">
        <ele>90.5</ele>
        <time>2013-09-29T08:46:14Z</time>
      </trkpt>
      <trkpt lat="48.50772" lon="-2.76211">
        <ele>91</ele>
        <time>2013-09-29T08:46:31Z</time>
      </trkpt>
      <trkpt lat="48.50776" lon="-2.76222">
        <ele>90.7</ele>
        <time>2013-09-29T08:46:37Z</time>
      </trkpt>
      <trkpt lat="48.50779" lon="-2.76235">
        <ele>90.9</ele>
        <time>2013-09-29T08:46:44Z</time>
      </trkpt>
      <trkpt lat="48.50781" lon="-2.76248">
        <ele>90.6</ele>
        <time>2013-09-29T08:46:51Z</time>
      </trkpt>
      <trkpt lat="48.50781" lon="-2.7625">
        <ele>90.5</ele>
        <time>2013-09-29T08:46:52Z</time>
      </trkpt>
      <trkpt lat="48.50784" lon="-2.76273">
        <ele>91.3</ele>
        <time>2013-09-29T08:47:04Z</time>
      </trkpt>
      <trkpt lat="48.50784" lon="-2.76285">
        <ele>90.9</ele>
        <time>2013-09-29T08:47:09Z</time>
      </trkpt>
      <trkpt lat="48.50786" lon="-2.76296">
        <ele>91.1</ele>
        <time>2013-09-29T08:47:15Z</time>
      </trkpt>
      <trkpt lat="48.50787" lon="-2.7631">
        <ele>92.1</ele>
        <time>2013-09-29T08:47:24Z</time>
      </trkpt>
      <trkpt lat="48.50788" lon="-2.76322">
        <ele>92.5</ele>
        <time>2013-09-29T08:47:32Z</time>
      </trkpt>
      <trkpt lat="48.50789" lon="-2.76335">
        <ele>92</ele>
        <time>2013-09-29T08:47:40Z</time>
      </trkpt>
      <trkpt lat="48.5079" lon="-2.76348">
        <ele>92.3</ele>
        <time>2013-09-29T08:47:49Z</time>
      </trkpt>
      <trkpt lat="48.50787" lon="-2.76361">
        <ele>93.4</ele>
        <time>2013-09-29T08:48:04Z</time>
      </trkpt>
      <trkpt lat="48.50787" lon="-2.76362">
        <ele>93.4</ele>
        <time>2013-09-29T08:48:05Z</time>
      </trkpt>
      <trkpt lat="48.50788" lon="-2.76386">
        <ele>93.5</ele>
        <time>2013-09-29T08:48:19Z</time>
      </trkpt>
      <trkpt lat="48.50789" lon="-2.76399">
        <ele>93</ele>
        <time>2013-09-29T08:48:25Z</time>
      </trkpt>
      <trkpt lat="48.50792" lon="-2.7641">
        <ele>94.2</ele>
        <time>2013-09-29T08:48:31Z</time>
      </trkpt>
      <trkpt lat="48.50795" lon="-2.76422">
        <ele>94.1</ele>
        <time>2013-09-29T08:48:39Z</time>
      </trkpt>
      <trkpt lat="48.508" lon="-2.76432">
        <ele>94.2</ele>
        <time>2013-09-29T08:48:48Z</time>
      </trkpt>
      <trkpt lat="48.50808" lon="-2.76432">
        <ele>92.5</ele>
        <time>2013-09-29T08:49:03Z</time>
      </trkpt>
      <trkpt lat="48.50815" lon="-2.76433">
        <ele>94.2</ele>
        <time>2013-09-29T08:49:07Z</time>
      </trkpt>
      <trkpt lat="48.50817" lon="-2.76435">
        <ele>94.7</ele>
        <time>2013-09-29T08:49:08Z</time>
      </trkpt>
      <trkpt lat="48.50818" lon="-2.76437">
        <ele>94.8</ele>
        <time>2013-09-29T08:49:09Z</time>
      </trkpt>
    </trkseg>
  </trk>
</gpx>